<?xml version="1.0" encoding="UTF-8" standalone="no" ?>
<gpx xmlns="http://www.topografix.com/GPX/1/1" xmlns:xsi="http://www.w3.org/2001/XMLSchema-instance" xsi:schemaLocation="http://www.topografix.com/GPX/1/1 http://www.topografix.com/GPX/1/1/gpx.xsd" version="1.1" creator="VisuGPX - https://www.visugpx.com">
  <metadata>
    <name>Saint-Pierre Tourtour</name>
    <desc><![CDATA[Petite balade sur Saint-Pierre de Tourtour]]></desc>
  </metadata>
  <trk>
    <name><![CDATA[Saint-Pierre Tourtour]]></name>
    <extensions>
      <line xmlns="http://www.topografix.com/GPX/gpx_style/0/2">
        <color>0000ff</color>
        <opacity>1</opacity>
        <width>4</width>
      </line>
    </extensions>
    <trkseg>
      <trkpt lat="43.60238" lon="6.32795">
        <ele>701.6</ele>
        <time>2025-10-24T11:54:20.000Z</time>
      </trkpt>
      <trkpt lat="43.60239" lon="6.32795">
        <ele>701.6</ele>
        <time>2025-10-24T11:54:21.253Z</time>
      </trkpt>
      <trkpt lat="43.60238" lon="6.3279">
        <ele>701.6</ele>
        <time>2025-10-24T11:54:25.960Z</time>
      </trkpt>
      <trkpt lat="43.60237" lon="6.32787">
        <ele>701.5</ele>
        <time>2025-10-24T11:54:28.604Z</time>
      </trkpt>
      <trkpt lat="43.60235" lon="6.32784">
        <ele>701.5</ele>
        <time>2025-10-24T11:54:32.304Z</time>
      </trkpt>
      <trkpt lat="43.60234" lon="6.32783">
        <ele>701.4</ele>
        <time>2025-10-24T11:54:33.658Z</time>
      </trkpt>
      <trkpt lat="43.60229" lon="6.32779">
        <ele>701.2</ele>
        <time>2025-10-24T11:54:40.182Z</time>
      </trkpt>
      <trkpt lat="43.60222" lon="6.32776">
        <ele>701.2</ele>
        <time>2025-10-24T11:54:49.511Z</time>
      </trkpt>
      <trkpt lat="43.60215" lon="6.32772">
        <ele>701.3</ele>
        <time>2025-10-24T11:54:59.238Z</time>
      </trkpt>
      <trkpt lat="43.6021" lon="6.32771">
        <ele>701.1</ele>
        <time>2025-10-24T11:55:04.859Z</time>
      </trkpt>
      <trkpt lat="43.60205" lon="6.32772">
        <ele>700.7</ele>
        <time>2025-10-24T11:55:10.398Z</time>
      </trkpt>
      <trkpt lat="43.602" lon="6.32773">
        <ele>700.4</ele>
        <time>2025-10-24T11:55:15.938Z</time>
      </trkpt>
      <trkpt lat="43.60199" lon="6.32766">
        <ele>700.7</ele>
        <time>2025-10-24T11:55:23.731Z</time>
      </trkpt>
      <trkpt lat="43.60196" lon="6.32762">
        <ele>700.7</ele>
        <time>2025-10-24T11:55:28.957Z</time>
      </trkpt>
      <trkpt lat="43.60191" lon="6.32756">
        <ele>701</ele>
        <time>2025-10-24T11:55:38.538Z</time>
      </trkpt>
      <trkpt lat="43.60183" lon="6.32752">
        <ele>701.7</ele>
        <time>2025-10-24T11:55:52.459Z</time>
      </trkpt>
      <trkpt lat="43.60181" lon="6.32744">
        <ele>702.2</ele>
        <time>2025-10-24T11:56:02.464Z</time>
      </trkpt>
      <trkpt lat="43.60176" lon="6.32737">
        <ele>702.8</ele>
        <time>2025-10-24T11:56:14.193Z</time>
      </trkpt>
      <trkpt lat="43.60173" lon="6.3273">
        <ele>703.3</ele>
        <time>2025-10-24T11:56:24.591Z</time>
      </trkpt>
      <trkpt lat="43.60169" lon="6.32722">
        <ele>703.8</ele>
        <time>2025-10-24T11:56:34.988Z</time>
      </trkpt>
      <trkpt lat="43.60165" lon="6.32716">
        <ele>704.6</ele>
        <time>2025-10-24T11:56:46.645Z</time>
      </trkpt>
      <trkpt lat="43.60161" lon="6.32713">
        <ele>705</ele>
        <time>2025-10-24T11:56:54.237Z</time>
      </trkpt>
      <trkpt lat="43.60159" lon="6.32704">
        <ele>705.7</ele>
        <time>2025-10-24T11:57:06.207Z</time>
      </trkpt>
      <trkpt lat="43.60156" lon="6.32697">
        <ele>706.2</ele>
        <time>2025-10-24T11:57:15.931Z</time>
      </trkpt>
      <trkpt lat="43.60149" lon="6.3269">
        <ele>706.9</ele>
        <time>2025-10-24T11:57:30.010Z</time>
      </trkpt>
      <trkpt lat="43.60143" lon="6.32688">
        <ele>707.1</ele>
        <time>2025-10-24T11:57:38.574Z</time>
      </trkpt>
      <trkpt lat="43.60137" lon="6.32683">
        <ele>707.5</ele>
        <time>2025-10-24T11:57:49.862Z</time>
      </trkpt>
      <trkpt lat="43.6013" lon="6.32677">
        <ele>707.7</ele>
        <time>2025-10-24T11:58:00.233Z</time>
      </trkpt>
      <trkpt lat="43.60125" lon="6.32673">
        <ele>707.9</ele>
        <time>2025-10-24T11:58:08.307Z</time>
      </trkpt>
      <trkpt lat="43.60121" lon="6.3267">
        <ele>708</ele>
        <time>2025-10-24T11:58:14.415Z</time>
      </trkpt>
      <trkpt lat="43.60115" lon="6.3267">
        <ele>708</ele>
        <time>2025-10-24T11:58:21.934Z</time>
      </trkpt>
      <trkpt lat="43.60109" lon="6.32673">
        <ele>708.1</ele>
        <time>2025-10-24T11:58:30.330Z</time>
      </trkpt>
      <trkpt lat="43.60105" lon="6.32673">
        <ele>708.3</ele>
        <time>2025-10-24T11:58:36.205Z</time>
      </trkpt>
      <trkpt lat="43.60098" lon="6.3267">
        <ele>708.5</ele>
        <time>2025-10-24T11:58:46.209Z</time>
      </trkpt>
      <trkpt lat="43.60091" lon="6.32667">
        <ele>708.7</ele>
        <time>2025-10-24T11:58:56.213Z</time>
      </trkpt>
      <trkpt lat="43.60084" lon="6.32665">
        <ele>709</ele>
        <time>2025-10-24T11:59:06.441Z</time>
      </trkpt>
      <trkpt lat="43.60079" lon="6.32667">
        <ele>709.3</ele>
        <time>2025-10-24T11:59:14.282Z</time>
      </trkpt>
      <trkpt lat="43.60073" lon="6.32672">
        <ele>709.9</ele>
        <time>2025-10-24T11:59:26.189Z</time>
      </trkpt>
      <trkpt lat="43.60066" lon="6.32676">
        <ele>710.4</ele>
        <time>2025-10-24T11:59:37.554Z</time>
      </trkpt>
      <trkpt lat="43.60059" lon="6.32683">
        <ele>710.8</ele>
        <time>2025-10-24T11:59:50.096Z</time>
      </trkpt>
      <trkpt lat="43.60056" lon="6.32684">
        <ele>711</ele>
        <time>2025-10-24T11:59:54.856Z</time>
      </trkpt>
      <trkpt lat="43.60048" lon="6.32679">
        <ele>711.5</ele>
        <time>2025-10-24T12:00:08.052Z</time>
      </trkpt>
      <trkpt lat="43.60044" lon="6.32677">
        <ele>711.8</ele>
        <time>2025-10-24T12:00:15.849Z</time>
      </trkpt>
      <trkpt lat="43.60039" lon="6.32675">
        <ele>712.2</ele>
        <time>2025-10-24T12:00:23.109Z</time>
      </trkpt>
      <trkpt lat="43.60031" lon="6.32675">
        <ele>712.8</ele>
        <time>2025-10-24T12:00:35.879Z</time>
      </trkpt>
      <trkpt lat="43.60026" lon="6.32673">
        <ele>713.2</ele>
        <time>2025-10-24T12:00:44.241Z</time>
      </trkpt>
      <trkpt lat="43.60019" lon="6.32672">
        <ele>713.9</ele>
        <time>2025-10-24T12:00:56.511Z</time>
      </trkpt>
      <trkpt lat="43.60012" lon="6.3267">
        <ele>714.6</ele>
        <time>2025-10-24T12:01:08.782Z</time>
      </trkpt>
      <trkpt lat="43.60006" lon="6.32666">
        <ele>715.4</ele>
        <time>2025-10-24T12:01:21.222Z</time>
      </trkpt>
      <trkpt lat="43.59999" lon="6.32663">
        <ele>716.2</ele>
        <time>2025-10-24T12:01:34.387Z</time>
      </trkpt>
      <trkpt lat="43.59994" lon="6.32661">
        <ele>716.6</ele>
        <time>2025-10-24T12:01:42.748Z</time>
      </trkpt>
      <trkpt lat="43.59989" lon="6.32659">
        <ele>717</ele>
        <time>2025-10-24T12:01:51.110Z</time>
      </trkpt>
      <trkpt lat="43.59984" lon="6.32659">
        <ele>717.3</ele>
        <time>2025-10-24T12:01:59.324Z</time>
      </trkpt>
      <trkpt lat="43.59978" lon="6.32658">
        <ele>717.6</ele>
        <time>2025-10-24T12:02:07.539Z</time>
      </trkpt>
      <trkpt lat="43.59973" lon="6.32658">
        <ele>718</ele>
        <time>2025-10-24T12:02:15.673Z</time>
      </trkpt>
      <trkpt lat="43.59968" lon="6.32657">
        <ele>718.1</ele>
        <time>2025-10-24T12:02:22.358Z</time>
      </trkpt>
      <trkpt lat="43.59963" lon="6.32655">
        <ele>718.2</ele>
        <time>2025-10-24T12:02:30.014Z</time>
      </trkpt>
      <trkpt lat="43.59957" lon="6.32652">
        <ele>718.3</ele>
        <time>2025-10-24T12:02:37.671Z</time>
      </trkpt>
      <trkpt lat="43.59951" lon="6.32648">
        <ele>718.3</ele>
        <time>2025-10-24T12:02:46.020Z</time>
      </trkpt>
      <trkpt lat="43.59945" lon="6.32644">
        <ele>718.2</ele>
        <time>2025-10-24T12:02:53.996Z</time>
      </trkpt>
      <trkpt lat="43.59941" lon="6.3264">
        <ele>718.2</ele>
        <time>2025-10-24T12:03:00.091Z</time>
      </trkpt>
      <trkpt lat="43.59937" lon="6.32635">
        <ele>718.2</ele>
        <time>2025-10-24T12:03:06.959Z</time>
      </trkpt>
      <trkpt lat="43.59937" lon="6.32636">
        <ele>718.2</ele>
        <time>2025-10-24T12:03:07.866Z</time>
      </trkpt>
      <trkpt lat="43.59932" lon="6.32631">
        <ele>718.3</ele>
        <time>2025-10-24T12:03:16.002Z</time>
      </trkpt>
      <trkpt lat="43.59926" lon="6.32636">
        <ele>718.6</ele>
        <time>2025-10-24T12:03:26.592Z</time>
      </trkpt>
      <trkpt lat="43.59919" lon="6.32641">
        <ele>719</ele>
        <time>2025-10-24T12:03:37.656Z</time>
      </trkpt>
      <trkpt lat="43.59911" lon="6.32643">
        <ele>719.7</ele>
        <time>2025-10-24T12:03:51.134Z</time>
      </trkpt>
      <trkpt lat="43.59909" lon="6.32634">
        <ele>719.9</ele>
        <time>2025-10-24T12:04:00.500Z</time>
      </trkpt>
      <trkpt lat="43.5991" lon="6.32628">
        <ele>719.8</ele>
        <time>2025-10-24T12:04:06.432Z</time>
      </trkpt>
      <trkpt lat="43.5991" lon="6.32621">
        <ele>719.9</ele>
        <time>2025-10-24T12:04:12.364Z</time>
      </trkpt>
      <trkpt lat="43.59908" lon="6.32614">
        <ele>720.2</ele>
        <time>2025-10-24T12:04:20.397Z</time>
      </trkpt>
      <trkpt lat="43.59907" lon="6.32607">
        <ele>720.4</ele>
        <time>2025-10-24T12:04:28.429Z</time>
      </trkpt>
      <trkpt lat="43.59905" lon="6.326">
        <ele>720.7</ele>
        <time>2025-10-24T12:04:36.462Z</time>
      </trkpt>
      <trkpt lat="43.59903" lon="6.32593">
        <ele>721</ele>
        <time>2025-10-24T12:04:44.020Z</time>
      </trkpt>
      <trkpt lat="43.59903" lon="6.32586">
        <ele>721</ele>
        <time>2025-10-24T12:04:50.403Z</time>
      </trkpt>
      <trkpt lat="43.59902" lon="6.32579">
        <ele>721</ele>
        <time>2025-10-24T12:04:56.787Z</time>
      </trkpt>
      <trkpt lat="43.59902" lon="6.32572">
        <ele>720.9</ele>
        <time>2025-10-24T12:05:02.543Z</time>
      </trkpt>
      <trkpt lat="43.59902" lon="6.32566">
        <ele>720.8</ele>
        <time>2025-10-24T12:05:08.299Z</time>
      </trkpt>
      <trkpt lat="43.59902" lon="6.32559">
        <ele>720.6</ele>
        <time>2025-10-24T12:05:13.717Z</time>
      </trkpt>
      <trkpt lat="43.59902" lon="6.32552">
        <ele>720.7</ele>
        <time>2025-10-24T12:05:20.246Z</time>
      </trkpt>
      <trkpt lat="43.59904" lon="6.32545">
        <ele>720.7</ele>
        <time>2025-10-24T12:05:27.490Z</time>
      </trkpt>
      <trkpt lat="43.59905" lon="6.32538">
        <ele>720.9</ele>
        <time>2025-10-24T12:05:34.734Z</time>
      </trkpt>
      <trkpt lat="43.59907" lon="6.3253">
        <ele>721</ele>
        <time>2025-10-24T12:05:41.979Z</time>
      </trkpt>
      <trkpt lat="43.59908" lon="6.32523">
        <ele>721.1</ele>
        <time>2025-10-24T12:05:49.223Z</time>
      </trkpt>
      <trkpt lat="43.5991" lon="6.32517">
        <ele>721.1</ele>
        <time>2025-10-24T12:05:55.217Z</time>
      </trkpt>
      <trkpt lat="43.59912" lon="6.32511">
        <ele>721.1</ele>
        <time>2025-10-24T12:06:01.211Z</time>
      </trkpt>
      <trkpt lat="43.59916" lon="6.32501">
        <ele>721</ele>
        <time>2025-10-24T12:06:11.202Z</time>
      </trkpt>
      <trkpt lat="43.5992" lon="6.32494">
        <ele>720.9</ele>
        <time>2025-10-24T12:06:18.921Z</time>
      </trkpt>
      <trkpt lat="43.59924" lon="6.32487">
        <ele>720.8</ele>
        <time>2025-10-24T12:06:26.640Z</time>
      </trkpt>
      <trkpt lat="43.59928" lon="6.3248">
        <ele>720.8</ele>
        <time>2025-10-24T12:06:34.732Z</time>
      </trkpt>
      <trkpt lat="43.59932" lon="6.32473">
        <ele>720.9</ele>
        <time>2025-10-24T12:06:43.223Z</time>
      </trkpt>
      <trkpt lat="43.59936" lon="6.32466">
        <ele>720.8</ele>
        <time>2025-10-24T12:06:50.941Z</time>
      </trkpt>
      <trkpt lat="43.5994" lon="6.32459">
        <ele>720.8</ele>
        <time>2025-10-24T12:06:59.033Z</time>
      </trkpt>
      <trkpt lat="43.59943" lon="6.3245">
        <ele>720.9</ele>
        <time>2025-10-24T12:07:08.422Z</time>
      </trkpt>
      <trkpt lat="43.59946" lon="6.32441">
        <ele>721.2</ele>
        <time>2025-10-24T12:07:18.683Z</time>
      </trkpt>
      <trkpt lat="43.59947" lon="6.32434">
        <ele>721.6</ele>
        <time>2025-10-24T12:07:26.999Z</time>
      </trkpt>
      <trkpt lat="43.59948" lon="6.32427">
        <ele>722</ele>
        <time>2025-10-24T12:07:35.314Z</time>
      </trkpt>
      <trkpt lat="43.59948" lon="6.32419">
        <ele>722.6</ele>
        <time>2025-10-24T12:07:45.518Z</time>
      </trkpt>
      <trkpt lat="43.59945" lon="6.3241">
        <ele>723.2</ele>
        <time>2025-10-24T12:07:57.312Z</time>
      </trkpt>
      <trkpt lat="43.59942" lon="6.32401">
        <ele>723.8</ele>
        <time>2025-10-24T12:08:09.106Z</time>
      </trkpt>
      <trkpt lat="43.5994" lon="6.32393">
        <ele>724.3</ele>
        <time>2025-10-24T12:08:19.110Z</time>
      </trkpt>
      <trkpt lat="43.59939" lon="6.32386">
        <ele>724.8</ele>
        <time>2025-10-24T12:08:29.136Z</time>
      </trkpt>
      <trkpt lat="43.59937" lon="6.32378">
        <ele>725.6</ele>
        <time>2025-10-24T12:08:39.815Z</time>
      </trkpt>
      <trkpt lat="43.59937" lon="6.3237">
        <ele>726.2</ele>
        <time>2025-10-24T12:08:50.019Z</time>
      </trkpt>
      <trkpt lat="43.59938" lon="6.32363">
        <ele>726.6</ele>
        <time>2025-10-24T12:08:58.334Z</time>
      </trkpt>
      <trkpt lat="43.5994" lon="6.32356">
        <ele>726.9</ele>
        <time>2025-10-24T12:09:05.915Z</time>
      </trkpt>
      <trkpt lat="43.59943" lon="6.3235">
        <ele>727</ele>
        <time>2025-10-24T12:09:13.970Z</time>
      </trkpt>
      <trkpt lat="43.59945" lon="6.32343">
        <ele>727.2</ele>
        <time>2025-10-24T12:09:21.551Z</time>
      </trkpt>
      <trkpt lat="43.59947" lon="6.32336">
        <ele>727.5</ele>
        <time>2025-10-24T12:09:29.132Z</time>
      </trkpt>
      <trkpt lat="43.59949" lon="6.32327">
        <ele>728</ele>
        <time>2025-10-24T12:09:39.954Z</time>
      </trkpt>
      <trkpt lat="43.59949" lon="6.3232">
        <ele>728.5</ele>
        <time>2025-10-24T12:09:48.730Z</time>
      </trkpt>
      <trkpt lat="43.59947" lon="6.32312">
        <ele>729.3</ele>
        <time>2025-10-24T12:10:00.612Z</time>
      </trkpt>
      <trkpt lat="43.59945" lon="6.32301">
        <ele>729.9</ele>
        <time>2025-10-24T12:10:13.637Z</time>
      </trkpt>
      <trkpt lat="43.59945" lon="6.32293">
        <ele>729.9</ele>
        <time>2025-10-24T12:10:21.776Z</time>
      </trkpt>
      <trkpt lat="43.59944" lon="6.32284">
        <ele>730.1</ele>
        <time>2025-10-24T12:10:29.914Z</time>
      </trkpt>
      <trkpt lat="43.59944" lon="6.32275">
        <ele>730.2</ele>
        <time>2025-10-24T12:10:38.505Z</time>
      </trkpt>
      <trkpt lat="43.59943" lon="6.32266">
        <ele>730.6</ele>
        <time>2025-10-24T12:10:48.467Z</time>
      </trkpt>
      <trkpt lat="43.59942" lon="6.32258">
        <ele>731.1</ele>
        <time>2025-10-24T12:10:57.806Z</time>
      </trkpt>
      <trkpt lat="43.59942" lon="6.3225">
        <ele>731.4</ele>
        <time>2025-10-24T12:11:07.145Z</time>
      </trkpt>
      <trkpt lat="43.59941" lon="6.32241">
        <ele>731.8</ele>
        <time>2025-10-24T12:11:17.023Z</time>
      </trkpt>
      <trkpt lat="43.5994" lon="6.32233">
        <ele>732.3</ele>
        <time>2025-10-24T12:11:26.361Z</time>
      </trkpt>
      <trkpt lat="43.5994" lon="6.32223">
        <ele>732.6</ele>
        <time>2025-10-24T12:11:36.983Z</time>
      </trkpt>
      <trkpt lat="43.59939" lon="6.32214">
        <ele>733.4</ele>
        <time>2025-10-24T12:11:49.248Z</time>
      </trkpt>
      <trkpt lat="43.59939" lon="6.32204">
        <ele>734.1</ele>
        <time>2025-10-24T12:12:02.137Z</time>
      </trkpt>
      <trkpt lat="43.59938" lon="6.32194">
        <ele>734.9</ele>
        <time>2025-10-24T12:12:14.402Z</time>
      </trkpt>
      <trkpt lat="43.59938" lon="6.32186">
        <ele>734.9</ele>
        <time>2025-10-24T12:12:21.435Z</time>
      </trkpt>
      <trkpt lat="43.59938" lon="6.32179">
        <ele>734.8</ele>
        <time>2025-10-24T12:12:28.097Z</time>
      </trkpt>
      <trkpt lat="43.59938" lon="6.32171">
        <ele>734.7</ele>
        <time>2025-10-24T12:12:34.758Z</time>
      </trkpt>
      <trkpt lat="43.59938" lon="6.32163">
        <ele>734.3</ele>
        <time>2025-10-24T12:12:40.912Z</time>
      </trkpt>
      <trkpt lat="43.59936" lon="6.32153">
        <ele>733.4</ele>
        <time>2025-10-24T12:12:49.150Z</time>
      </trkpt>
      <trkpt lat="43.59932" lon="6.32144">
        <ele>732.9</ele>
        <time>2025-10-24T12:12:57.395Z</time>
      </trkpt>
      <trkpt lat="43.59929" lon="6.32135">
        <ele>732.5</ele>
        <time>2025-10-24T12:13:05.640Z</time>
      </trkpt>
      <trkpt lat="43.59925" lon="6.32126">
        <ele>732.3</ele>
        <time>2025-10-24T12:13:14.334Z</time>
      </trkpt>
      <trkpt lat="43.59921" lon="6.32117">
        <ele>732.1</ele>
        <time>2025-10-24T12:13:23.027Z</time>
      </trkpt>
      <trkpt lat="43.59917" lon="6.32107">
        <ele>732.1</ele>
        <time>2025-10-24T12:13:33.395Z</time>
      </trkpt>
      <trkpt lat="43.59915" lon="6.32096">
        <ele>732.9</ele>
        <time>2025-10-24T12:13:47.552Z</time>
      </trkpt>
      <trkpt lat="43.59914" lon="6.32084">
        <ele>733.5</ele>
        <time>2025-10-24T12:14:01.218Z</time>
      </trkpt>
      <trkpt lat="43.59912" lon="6.32075">
        <ele>734.4</ele>
        <time>2025-10-24T12:14:14.506Z</time>
      </trkpt>
      <trkpt lat="43.59912" lon="6.32075">
        <ele>734.4</ele>
        <time>2025-10-24T12:14:14.506Z</time>
      </trkpt>
      <trkpt lat="43.59911" lon="6.32067">
        <ele>735.1</ele>
        <time>2025-10-24T12:14:25.444Z</time>
      </trkpt>
      <trkpt lat="43.5991" lon="6.32061">
        <ele>735.6</ele>
        <time>2025-10-24T12:14:34.356Z</time>
      </trkpt>
      <trkpt lat="43.59908" lon="6.32055">
        <ele>736.3</ele>
        <time>2025-10-24T12:14:43.268Z</time>
      </trkpt>
      <trkpt lat="43.59906" lon="6.32045">
        <ele>736.7</ele>
        <time>2025-10-24T12:14:54.421Z</time>
      </trkpt>
      <trkpt lat="43.59905" lon="6.32036">
        <ele>737</ele>
        <time>2025-10-24T12:15:04.407Z</time>
      </trkpt>
      <trkpt lat="43.59904" lon="6.32026">
        <ele>737.3</ele>
        <time>2025-10-24T12:15:14.393Z</time>
      </trkpt>
      <trkpt lat="43.59903" lon="6.32019">
        <ele>737.6</ele>
        <time>2025-10-24T12:15:22.134Z</time>
      </trkpt>
      <trkpt lat="43.59903" lon="6.32012">
        <ele>737.7</ele>
        <time>2025-10-24T12:15:29.397Z</time>
      </trkpt>
      <trkpt lat="43.59902" lon="6.32005">
        <ele>738</ele>
        <time>2025-10-24T12:15:37.139Z</time>
      </trkpt>
      <trkpt lat="43.59901" lon="6.31998">
        <ele>738.3</ele>
        <time>2025-10-24T12:15:44.402Z</time>
      </trkpt>
      <trkpt lat="43.599" lon="6.3199">
        <ele>738.4</ele>
        <time>2025-10-24T12:15:53.169Z</time>
      </trkpt>
      <trkpt lat="43.59898" lon="6.31981">
        <ele>738.7</ele>
        <time>2025-10-24T12:16:01.935Z</time>
      </trkpt>
      <trkpt lat="43.59896" lon="6.31972">
        <ele>739</ele>
        <time>2025-10-24T12:16:11.755Z</time>
      </trkpt>
      <trkpt lat="43.59894" lon="6.31965">
        <ele>739.1</ele>
        <time>2025-10-24T12:16:19.648Z</time>
      </trkpt>
      <trkpt lat="43.59891" lon="6.31957">
        <ele>739.2</ele>
        <time>2025-10-24T12:16:27.541Z</time>
      </trkpt>
      <trkpt lat="43.59889" lon="6.31951">
        <ele>739.2</ele>
        <time>2025-10-24T12:16:33.876Z</time>
      </trkpt>
      <trkpt lat="43.59887" lon="6.31946">
        <ele>739.5</ele>
        <time>2025-10-24T12:16:41.142Z</time>
      </trkpt>
      <trkpt lat="43.59884" lon="6.3194">
        <ele>740.4</ele>
        <time>2025-10-24T12:16:50.920Z</time>
      </trkpt>
      <trkpt lat="43.59882" lon="6.31934">
        <ele>741</ele>
        <time>2025-10-24T12:17:00.699Z</time>
      </trkpt>
      <trkpt lat="43.59881" lon="6.31926">
        <ele>741.5</ele>
        <time>2025-10-24T12:17:11.518Z</time>
      </trkpt>
      <trkpt lat="43.59879" lon="6.31917">
        <ele>742.1</ele>
        <time>2025-10-24T12:17:21.767Z</time>
      </trkpt>
      <trkpt lat="43.59878" lon="6.31911">
        <ele>742.4</ele>
        <time>2025-10-24T12:17:28.702Z</time>
      </trkpt>
      <trkpt lat="43.59875" lon="6.319">
        <ele>743</ele>
        <time>2025-10-24T12:17:42.850Z</time>
      </trkpt>
      <trkpt lat="43.59871" lon="6.31889">
        <ele>743.6</ele>
        <time>2025-10-24T12:17:55.948Z</time>
      </trkpt>
      <trkpt lat="43.5987" lon="6.31883">
        <ele>743.6</ele>
        <time>2025-10-24T12:18:02.113Z</time>
      </trkpt>
      <trkpt lat="43.59868" lon="6.31877">
        <ele>743.8</ele>
        <time>2025-10-24T12:18:08.278Z</time>
      </trkpt>
      <trkpt lat="43.59867" lon="6.31871">
        <ele>743.8</ele>
        <time>2025-10-24T12:18:14.039Z</time>
      </trkpt>
      <trkpt lat="43.59865" lon="6.31865">
        <ele>743.8</ele>
        <time>2025-10-24T12:18:19.799Z</time>
      </trkpt>
      <trkpt lat="43.59863" lon="6.31858">
        <ele>744.1</ele>
        <time>2025-10-24T12:18:28.352Z</time>
      </trkpt>
      <trkpt lat="43.59861" lon="6.3185">
        <ele>744.8</ele>
        <time>2025-10-24T12:18:39.192Z</time>
      </trkpt>
      <trkpt lat="43.5986" lon="6.31841">
        <ele>745.6</ele>
        <time>2025-10-24T12:18:51.559Z</time>
      </trkpt>
      <trkpt lat="43.59859" lon="6.31833">
        <ele>746.2</ele>
        <time>2025-10-24T12:19:01.859Z</time>
      </trkpt>
      <trkpt lat="43.59858" lon="6.31827">
        <ele>746.3</ele>
        <time>2025-10-24T12:19:08.366Z</time>
      </trkpt>
      <trkpt lat="43.59857" lon="6.3182">
        <ele>746.4</ele>
        <time>2025-10-24T12:19:14.873Z</time>
      </trkpt>
      <trkpt lat="43.59855" lon="6.31814">
        <ele>746.5</ele>
        <time>2025-10-24T12:19:21.380Z</time>
      </trkpt>
      <trkpt lat="43.59854" lon="6.31807">
        <ele>746.5</ele>
        <time>2025-10-24T12:19:27.483Z</time>
      </trkpt>
      <trkpt lat="43.59852" lon="6.31797">
        <ele>746.3</ele>
        <time>2025-10-24T12:19:36.605Z</time>
      </trkpt>
      <trkpt lat="43.5985" lon="6.31786">
        <ele>746.2</ele>
        <time>2025-10-24T12:19:46.082Z</time>
      </trkpt>
      <trkpt lat="43.59849" lon="6.31779">
        <ele>746.2</ele>
        <time>2025-10-24T12:19:52.280Z</time>
      </trkpt>
      <trkpt lat="43.59849" lon="6.31773">
        <ele>746.1</ele>
        <time>2025-10-24T12:19:58.477Z</time>
      </trkpt>
      <trkpt lat="43.59848" lon="6.31766">
        <ele>746.2</ele>
        <time>2025-10-24T12:20:04.674Z</time>
      </trkpt>
      <trkpt lat="43.59847" lon="6.31759">
        <ele>746.2</ele>
        <time>2025-10-24T12:20:10.872Z</time>
      </trkpt>
      <trkpt lat="43.59849" lon="6.31753">
        <ele>745.8</ele>
        <time>2025-10-24T12:20:16.480Z</time>
      </trkpt>
      <trkpt lat="43.59851" lon="6.31746">
        <ele>745.4</ele>
        <time>2025-10-24T12:20:22.088Z</time>
      </trkpt>
      <trkpt lat="43.59856" lon="6.31751">
        <ele>744.7</ele>
        <time>2025-10-24T12:20:28.180Z</time>
      </trkpt>
      <trkpt lat="43.5986" lon="6.31755">
        <ele>744.2</ele>
        <time>2025-10-24T12:20:34.272Z</time>
      </trkpt>
      <trkpt lat="43.59868" lon="6.31759">
        <ele>743.3</ele>
        <time>2025-10-24T12:20:42.953Z</time>
      </trkpt>
      <trkpt lat="43.59875" lon="6.31762">
        <ele>742.7</ele>
        <time>2025-10-24T12:20:51.633Z</time>
      </trkpt>
      <trkpt lat="43.59883" lon="6.31766">
        <ele>742.1</ele>
        <time>2025-10-24T12:21:00.449Z</time>
      </trkpt>
      <trkpt lat="43.5989" lon="6.3177">
        <ele>741.7</ele>
        <time>2025-10-24T12:21:09.265Z</time>
      </trkpt>
      <trkpt lat="43.59896" lon="6.31772">
        <ele>741.5</ele>
        <time>2025-10-24T12:21:15.676Z</time>
      </trkpt>
      <trkpt lat="43.59901" lon="6.31774">
        <ele>741.4</ele>
        <time>2025-10-24T12:21:22.431Z</time>
      </trkpt>
      <trkpt lat="43.59904" lon="6.31776">
        <ele>741.4</ele>
        <time>2025-10-24T12:21:26.606Z</time>
      </trkpt>
      <trkpt lat="43.59907" lon="6.31781">
        <ele>741.5</ele>
        <time>2025-10-24T12:21:32.903Z</time>
      </trkpt>
      <trkpt lat="43.59908" lon="6.31787">
        <ele>741.7</ele>
        <time>2025-10-24T12:21:39.343Z</time>
      </trkpt>
      <trkpt lat="43.59909" lon="6.31788">
        <ele>741.7</ele>
        <time>2025-10-24T12:21:40.890Z</time>
      </trkpt>
      <trkpt lat="43.59908" lon="6.31795">
        <ele>742.1</ele>
        <time>2025-10-24T12:21:48.787Z</time>
      </trkpt>
      <trkpt lat="43.59907" lon="6.31801">
        <ele>742.5</ele>
        <time>2025-10-24T12:21:56.683Z</time>
      </trkpt>
      <trkpt lat="43.59906" lon="6.31812">
        <ele>742.6</ele>
        <time>2025-10-24T12:22:07.140Z</time>
      </trkpt>
      <trkpt lat="43.59907" lon="6.31817">
        <ele>742.4</ele>
        <time>2025-10-24T12:22:11.259Z</time>
      </trkpt>
      <trkpt lat="43.5991" lon="6.31822">
        <ele>742</ele>
        <time>2025-10-24T12:22:16.415Z</time>
      </trkpt>
      <trkpt lat="43.59914" lon="6.31826">
        <ele>741.5</ele>
        <time>2025-10-24T12:22:21.831Z</time>
      </trkpt>
      <trkpt lat="43.59918" lon="6.31832">
        <ele>740.9</ele>
        <time>2025-10-24T12:22:28.306Z</time>
      </trkpt>
      <trkpt lat="43.59923" lon="6.31841">
        <ele>740.3</ele>
        <time>2025-10-24T12:22:37.314Z</time>
      </trkpt>
      <trkpt lat="43.59928" lon="6.31849">
        <ele>739.8</ele>
        <time>2025-10-24T12:22:45.705Z</time>
      </trkpt>
      <trkpt lat="43.59932" lon="6.31852">
        <ele>739.3</ele>
        <time>2025-10-24T12:22:50.696Z</time>
      </trkpt>
      <trkpt lat="43.59938" lon="6.31853">
        <ele>738.7</ele>
        <time>2025-10-24T12:22:57.323Z</time>
      </trkpt>
      <trkpt lat="43.59945" lon="6.31853">
        <ele>737.9</ele>
        <time>2025-10-24T12:23:04.998Z</time>
      </trkpt>
      <trkpt lat="43.59952" lon="6.31853">
        <ele>737.1</ele>
        <time>2025-10-24T12:23:12.125Z</time>
      </trkpt>
      <trkpt lat="43.59958" lon="6.31853">
        <ele>736.4</ele>
        <time>2025-10-24T12:23:19.252Z</time>
      </trkpt>
      <trkpt lat="43.59966" lon="6.31853">
        <ele>735.4</ele>
        <time>2025-10-24T12:23:28.024Z</time>
      </trkpt>
      <trkpt lat="43.59971" lon="6.31856">
        <ele>735</ele>
        <time>2025-10-24T12:23:34.002Z</time>
      </trkpt>
      <trkpt lat="43.59975" lon="6.31864">
        <ele>734.6</ele>
        <time>2025-10-24T12:23:41.721Z</time>
      </trkpt>
      <trkpt lat="43.59978" lon="6.31873">
        <ele>734.2</ele>
        <time>2025-10-24T12:23:49.589Z</time>
      </trkpt>
      <trkpt lat="43.59982" lon="6.31881">
        <ele>733.6</ele>
        <time>2025-10-24T12:23:57.308Z</time>
      </trkpt>
      <trkpt lat="43.59986" lon="6.31884">
        <ele>733</ele>
        <time>2025-10-24T12:24:02.299Z</time>
      </trkpt>
      <trkpt lat="43.59991" lon="6.31883">
        <ele>732.3</ele>
        <time>2025-10-24T12:24:07.839Z</time>
      </trkpt>
      <trkpt lat="43.59999" lon="6.31881">
        <ele>731.1</ele>
        <time>2025-10-24T12:24:16.753Z</time>
      </trkpt>
      <trkpt lat="43.60005" lon="6.3188">
        <ele>729.9</ele>
        <time>2025-10-24T12:24:22.901Z</time>
      </trkpt>
      <trkpt lat="43.6001" lon="6.31878">
        <ele>728.8</ele>
        <time>2025-10-24T12:24:29.048Z</time>
      </trkpt>
      <trkpt lat="43.60015" lon="6.31878">
        <ele>727.9</ele>
        <time>2025-10-24T12:24:33.725Z</time>
      </trkpt>
      <trkpt lat="43.60019" lon="6.31877">
        <ele>726.9</ele>
        <time>2025-10-24T12:24:38.402Z</time>
      </trkpt>
      <trkpt lat="43.60027" lon="6.31876">
        <ele>725.2</ele>
        <time>2025-10-24T12:24:47.756Z</time>
      </trkpt>
      <trkpt lat="43.60031" lon="6.31876">
        <ele>724.5</ele>
        <time>2025-10-24T12:24:52.142Z</time>
      </trkpt>
      <trkpt lat="43.60036" lon="6.31877">
        <ele>723.6</ele>
        <time>2025-10-24T12:24:57.681Z</time>
      </trkpt>
      <trkpt lat="43.6004" lon="6.3188">
        <ele>722.9</ele>
        <time>2025-10-24T12:25:02.673Z</time>
      </trkpt>
      <trkpt lat="43.60044" lon="6.31883">
        <ele>722.2</ele>
        <time>2025-10-24T12:25:07.664Z</time>
      </trkpt>
      <trkpt lat="43.60048" lon="6.31885">
        <ele>721.5</ele>
        <time>2025-10-24T12:25:12.328Z</time>
      </trkpt>
      <trkpt lat="43.60054" lon="6.31887">
        <ele>720.3</ele>
        <time>2025-10-24T12:25:19.096Z</time>
      </trkpt>
      <trkpt lat="43.60058" lon="6.31887">
        <ele>719.8</ele>
        <time>2025-10-24T12:25:23.482Z</time>
      </trkpt>
      <trkpt lat="43.60063" lon="6.31887">
        <ele>719.2</ele>
        <time>2025-10-24T12:25:28.965Z</time>
      </trkpt>
      <trkpt lat="43.60068" lon="6.3189">
        <ele>718.7</ele>
        <time>2025-10-24T12:25:34.444Z</time>
      </trkpt>
      <trkpt lat="43.60072" lon="6.31893">
        <ele>718.2</ele>
        <time>2025-10-24T12:25:39.923Z</time>
      </trkpt>
      <trkpt lat="43.60076" lon="6.31894">
        <ele>717.8</ele>
        <time>2025-10-24T12:25:44.380Z</time>
      </trkpt>
      <trkpt lat="43.60082" lon="6.31892">
        <ele>717.1</ele>
        <time>2025-10-24T12:25:51.148Z</time>
      </trkpt>
      <trkpt lat="43.60084" lon="6.31892">
        <ele>717</ele>
        <time>2025-10-24T12:25:53.341Z</time>
      </trkpt>
      <trkpt lat="43.6009" lon="6.3189">
        <ele>716.5</ele>
        <time>2025-10-24T12:25:59.690Z</time>
      </trkpt>
      <trkpt lat="43.60095" lon="6.31887">
        <ele>716.1</ele>
        <time>2025-10-24T12:26:06.039Z</time>
      </trkpt>
      <trkpt lat="43.60099" lon="6.31882">
        <ele>715.7</ele>
        <time>2025-10-24T12:26:11.955Z</time>
      </trkpt>
      <trkpt lat="43.60103" lon="6.31877">
        <ele>715.3</ele>
        <time>2025-10-24T12:26:17.871Z</time>
      </trkpt>
      <trkpt lat="43.60109" lon="6.31871">
        <ele>714.6</ele>
        <time>2025-10-24T12:26:25.774Z</time>
      </trkpt>
      <trkpt lat="43.60115" lon="6.31865">
        <ele>713.8</ele>
        <time>2025-10-24T12:26:33.676Z</time>
      </trkpt>
      <trkpt lat="43.6012" lon="6.31859">
        <ele>713.5</ele>
        <time>2025-10-24T12:26:41.578Z</time>
      </trkpt>
      <trkpt lat="43.60126" lon="6.31853">
        <ele>713.2</ele>
        <time>2025-10-24T12:26:49.882Z</time>
      </trkpt>
      <trkpt lat="43.6013" lon="6.31849">
        <ele>712.9</ele>
        <time>2025-10-24T12:26:55.168Z</time>
      </trkpt>
      <trkpt lat="43.60133" lon="6.31844">
        <ele>712.7</ele>
        <time>2025-10-24T12:27:00.412Z</time>
      </trkpt>
      <trkpt lat="43.60137" lon="6.3184">
        <ele>712.2</ele>
        <time>2025-10-24T12:27:05.656Z</time>
      </trkpt>
      <trkpt lat="43.6014" lon="6.31835">
        <ele>711.9</ele>
        <time>2025-10-24T12:27:10.899Z</time>
      </trkpt>
      <trkpt lat="43.60145" lon="6.31829">
        <ele>711.7</ele>
        <time>2025-10-24T12:27:18.476Z</time>
      </trkpt>
      <trkpt lat="43.60148" lon="6.31827">
        <ele>711.6</ele>
        <time>2025-10-24T12:27:22.289Z</time>
      </trkpt>
      <trkpt lat="43.60154" lon="6.31826">
        <ele>711.2</ele>
        <time>2025-10-24T12:27:28.916Z</time>
      </trkpt>
      <trkpt lat="43.6016" lon="6.31826">
        <ele>710.7</ele>
        <time>2025-10-24T12:27:35.495Z</time>
      </trkpt>
      <trkpt lat="43.60166" lon="6.3183">
        <ele>710.2</ele>
        <time>2025-10-24T12:27:42.800Z</time>
      </trkpt>
      <trkpt lat="43.6017" lon="6.31835">
        <ele>709.9</ele>
        <time>2025-10-24T12:27:48.457Z</time>
      </trkpt>
      <trkpt lat="43.60174" lon="6.31839">
        <ele>709.7</ele>
        <time>2025-10-24T12:27:54.212Z</time>
      </trkpt>
      <trkpt lat="43.60179" lon="6.31843">
        <ele>709.6</ele>
        <time>2025-10-24T12:28:00.313Z</time>
      </trkpt>
      <trkpt lat="43.60183" lon="6.31846">
        <ele>709.4</ele>
        <time>2025-10-24T12:28:06.074Z</time>
      </trkpt>
      <trkpt lat="43.6019" lon="6.31849">
        <ele>709.2</ele>
        <time>2025-10-24T12:28:14.531Z</time>
      </trkpt>
      <trkpt lat="43.60196" lon="6.31849">
        <ele>708.9</ele>
        <time>2025-10-24T12:28:21.110Z</time>
      </trkpt>
      <trkpt lat="43.60202" lon="6.31849">
        <ele>708.5</ele>
        <time>2025-10-24T12:28:27.689Z</time>
      </trkpt>
      <trkpt lat="43.60209" lon="6.31849">
        <ele>708</ele>
        <time>2025-10-24T12:28:35.375Z</time>
      </trkpt>
      <trkpt lat="43.60216" lon="6.31848">
        <ele>707.4</ele>
        <time>2025-10-24T12:28:43.060Z</time>
      </trkpt>
      <trkpt lat="43.60222" lon="6.31848">
        <ele>707</ele>
        <time>2025-10-24T12:28:49.639Z</time>
      </trkpt>
      <trkpt lat="43.60227" lon="6.31848">
        <ele>707</ele>
        <time>2025-10-24T12:28:55.905Z</time>
      </trkpt>
      <trkpt lat="43.60229" lon="6.31849">
        <ele>707</ele>
        <time>2025-10-24T12:28:58.570Z</time>
      </trkpt>
      <trkpt lat="43.60233" lon="6.31838">
        <ele>707</ele>
        <time>2025-10-24T12:29:09.740Z</time>
      </trkpt>
      <trkpt lat="43.60233" lon="6.31838">
        <ele>707</ele>
        <time>2025-10-24T12:29:09.740Z</time>
      </trkpt>
      <trkpt lat="43.60235" lon="6.31832">
        <ele>707</ele>
        <time>2025-10-24T12:29:15.734Z</time>
      </trkpt>
      <trkpt lat="43.60238" lon="6.31827">
        <ele>707.2</ele>
        <time>2025-10-24T12:29:22.475Z</time>
      </trkpt>
      <trkpt lat="43.6024" lon="6.31821">
        <ele>707.4</ele>
        <time>2025-10-24T12:29:29.216Z</time>
      </trkpt>
      <trkpt lat="43.60243" lon="6.31816">
        <ele>707.6</ele>
        <time>2025-10-24T12:29:35.956Z</time>
      </trkpt>
      <trkpt lat="43.60245" lon="6.3181">
        <ele>707.8</ele>
        <time>2025-10-24T12:29:42.697Z</time>
      </trkpt>
      <trkpt lat="43.60245" lon="6.31809">
        <ele>707.9</ele>
        <time>2025-10-24T12:29:44.140Z</time>
      </trkpt>
      <trkpt lat="43.60245" lon="6.31807">
        <ele>707.9</ele>
        <time>2025-10-24T12:29:45.955Z</time>
      </trkpt>
      <trkpt lat="43.60247" lon="6.31801">
        <ele>708</ele>
        <time>2025-10-24T12:29:52.353Z</time>
      </trkpt>
      <trkpt lat="43.60249" lon="6.31795">
        <ele>708</ele>
        <time>2025-10-24T12:29:58.347Z</time>
      </trkpt>
      <trkpt lat="43.60254" lon="6.31785">
        <ele>708.3</ele>
        <time>2025-10-24T12:30:09.843Z</time>
      </trkpt>
      <trkpt lat="43.60258" lon="6.31775">
        <ele>708.6</ele>
        <time>2025-10-24T12:30:22.240Z</time>
      </trkpt>
      <trkpt lat="43.60261" lon="6.3177">
        <ele>709</ele>
        <time>2025-10-24T12:30:29.469Z</time>
      </trkpt>
      <trkpt lat="43.60263" lon="6.31764">
        <ele>709.2</ele>
        <time>2025-10-24T12:30:36.699Z</time>
      </trkpt>
      <trkpt lat="43.60264" lon="6.31758">
        <ele>709.4</ele>
        <time>2025-10-24T12:30:43.575Z</time>
      </trkpt>
      <trkpt lat="43.60265" lon="6.31751">
        <ele>709.5</ele>
        <time>2025-10-24T12:30:50.009Z</time>
      </trkpt>
      <trkpt lat="43.60266" lon="6.31742">
        <ele>709.7</ele>
        <time>2025-10-24T12:30:59.096Z</time>
      </trkpt>
      <trkpt lat="43.60267" lon="6.31733">
        <ele>709.8</ele>
        <time>2025-10-24T12:31:07.757Z</time>
      </trkpt>
      <trkpt lat="43.60267" lon="6.31727">
        <ele>709.9</ele>
        <time>2025-10-24T12:31:14.068Z</time>
      </trkpt>
      <trkpt lat="43.60268" lon="6.3172">
        <ele>710</ele>
        <time>2025-10-24T12:31:20.379Z</time>
      </trkpt>
      <trkpt lat="43.60268" lon="6.31714">
        <ele>710.1</ele>
        <time>2025-10-24T12:31:26.690Z</time>
      </trkpt>
      <trkpt lat="43.60268" lon="6.31707">
        <ele>710.2</ele>
        <time>2025-10-24T12:31:33.001Z</time>
      </trkpt>
      <trkpt lat="43.6027" lon="6.31697">
        <ele>710.3</ele>
        <time>2025-10-24T12:31:42.665Z</time>
      </trkpt>
      <trkpt lat="43.60271" lon="6.31687">
        <ele>710.2</ele>
        <time>2025-10-24T12:31:51.557Z</time>
      </trkpt>
      <trkpt lat="43.60272" lon="6.31678">
        <ele>710.2</ele>
        <time>2025-10-24T12:32:00.269Z</time>
      </trkpt>
      <trkpt lat="43.60273" lon="6.31668">
        <ele>710.2</ele>
        <time>2025-10-24T12:32:08.980Z</time>
      </trkpt>
      <trkpt lat="43.60274" lon="6.3166">
        <ele>710.3</ele>
        <time>2025-10-24T12:32:16.476Z</time>
      </trkpt>
      <trkpt lat="43.60275" lon="6.31653">
        <ele>710.5</ele>
        <time>2025-10-24T12:32:24.874Z</time>
      </trkpt>
      <trkpt lat="43.60275" lon="6.31645">
        <ele>710.8</ele>
        <time>2025-10-24T12:32:32.804Z</time>
      </trkpt>
      <trkpt lat="43.60276" lon="6.31637">
        <ele>711</ele>
        <time>2025-10-24T12:32:40.733Z</time>
      </trkpt>
      <trkpt lat="43.60277" lon="6.31628">
        <ele>711</ele>
        <time>2025-10-24T12:32:48.698Z</time>
      </trkpt>
      <trkpt lat="43.60277" lon="6.3162">
        <ele>711</ele>
        <time>2025-10-24T12:32:56.663Z</time>
      </trkpt>
      <trkpt lat="43.60278" lon="6.31611">
        <ele>711</ele>
        <time>2025-10-24T12:33:04.628Z</time>
      </trkpt>
      <trkpt lat="43.60278" lon="6.31602">
        <ele>711.3</ele>
        <time>2025-10-24T12:33:13.878Z</time>
      </trkpt>
      <trkpt lat="43.6028" lon="6.31593">
        <ele>711.7</ele>
        <time>2025-10-24T12:33:24.455Z</time>
      </trkpt>
      <trkpt lat="43.60281" lon="6.31583">
        <ele>712</ele>
        <time>2025-10-24T12:33:34.550Z</time>
      </trkpt>
      <trkpt lat="43.60283" lon="6.31576">
        <ele>711.7</ele>
        <time>2025-10-24T12:33:40.346Z</time>
      </trkpt>
      <trkpt lat="43.60284" lon="6.31569">
        <ele>711.5</ele>
        <time>2025-10-24T12:33:46.258Z</time>
      </trkpt>
      <trkpt lat="43.60285" lon="6.31565">
        <ele>711.3</ele>
        <time>2025-10-24T12:33:49.618Z</time>
      </trkpt>
      <trkpt lat="43.60287" lon="6.31559">
        <ele>711.1</ele>
        <time>2025-10-24T12:33:55.444Z</time>
      </trkpt>
      <trkpt lat="43.6029" lon="6.31552">
        <ele>710.9</ele>
        <time>2025-10-24T12:34:01.270Z</time>
      </trkpt>
      <trkpt lat="43.60292" lon="6.31546">
        <ele>710.7</ele>
        <time>2025-10-24T12:34:06.991Z</time>
      </trkpt>
      <trkpt lat="43.60294" lon="6.31539">
        <ele>710.4</ele>
        <time>2025-10-24T12:34:12.817Z</time>
      </trkpt>
      <trkpt lat="43.60297" lon="6.31532">
        <ele>710.2</ele>
        <time>2025-10-24T12:34:19.620Z</time>
      </trkpt>
      <trkpt lat="43.603" lon="6.31524">
        <ele>709.9</ele>
        <time>2025-10-24T12:34:26.674Z</time>
      </trkpt>
      <trkpt lat="43.60301" lon="6.31521">
        <ele>709.8</ele>
        <time>2025-10-24T12:34:29.318Z</time>
      </trkpt>
      <trkpt lat="43.60302" lon="6.31516">
        <ele>709.6</ele>
        <time>2025-10-24T12:34:33.436Z</time>
      </trkpt>
      <trkpt lat="43.60303" lon="6.3151">
        <ele>709.4</ele>
        <time>2025-10-24T12:34:38.759Z</time>
      </trkpt>
      <trkpt lat="43.60304" lon="6.31503">
        <ele>709.2</ele>
        <time>2025-10-24T12:34:44.082Z</time>
      </trkpt>
      <trkpt lat="43.60305" lon="6.31495">
        <ele>709</ele>
        <time>2025-10-24T12:34:50.876Z</time>
      </trkpt>
      <trkpt lat="43.60305" lon="6.31487">
        <ele>709</ele>
        <time>2025-10-24T12:34:58.388Z</time>
      </trkpt>
      <trkpt lat="43.60306" lon="6.31478">
        <ele>709</ele>
        <time>2025-10-24T12:35:05.901Z</time>
      </trkpt>
      <trkpt lat="43.60306" lon="6.3147">
        <ele>709</ele>
        <time>2025-10-24T12:35:13.414Z</time>
      </trkpt>
      <trkpt lat="43.60307" lon="6.31461">
        <ele>708.9</ele>
        <time>2025-10-24T12:35:21.303Z</time>
      </trkpt>
      <trkpt lat="43.60309" lon="6.31456">
        <ele>708.9</ele>
        <time>2025-10-24T12:35:26.486Z</time>
      </trkpt>
      <trkpt lat="43.60314" lon="6.31449">
        <ele>708.7</ele>
        <time>2025-10-24T12:35:35.008Z</time>
      </trkpt>
      <trkpt lat="43.60319" lon="6.31441">
        <ele>708.5</ele>
        <time>2025-10-24T12:35:43.531Z</time>
      </trkpt>
      <trkpt lat="43.60325" lon="6.31436">
        <ele>708.3</ele>
        <time>2025-10-24T12:35:51.315Z</time>
      </trkpt>
      <trkpt lat="43.6033" lon="6.3143">
        <ele>708.1</ele>
        <time>2025-10-24T12:35:59.100Z</time>
      </trkpt>
      <trkpt lat="43.60334" lon="6.31426">
        <ele>708</ele>
        <time>2025-10-24T12:36:04.919Z</time>
      </trkpt>
      <trkpt lat="43.60339" lon="6.31421">
        <ele>708</ele>
        <time>2025-10-24T12:36:12.655Z</time>
      </trkpt>
      <trkpt lat="43.60344" lon="6.31413">
        <ele>707.9</ele>
        <time>2025-10-24T12:36:21.870Z</time>
      </trkpt>
      <trkpt lat="43.60347" lon="6.31402">
        <ele>707.7</ele>
        <time>2025-10-24T12:36:31.916Z</time>
      </trkpt>
      <trkpt lat="43.60351" lon="6.31391">
        <ele>707.4</ele>
        <time>2025-10-24T12:36:41.621Z</time>
      </trkpt>
      <trkpt lat="43.60354" lon="6.3138">
        <ele>707.3</ele>
        <time>2025-10-24T12:36:52.026Z</time>
      </trkpt>
      <trkpt lat="43.60357" lon="6.31369">
        <ele>707.3</ele>
        <time>2025-10-24T12:37:02.807Z</time>
      </trkpt>
      <trkpt lat="43.6036" lon="6.3136">
        <ele>707.1</ele>
        <time>2025-10-24T12:37:11.039Z</time>
      </trkpt>
      <trkpt lat="43.60362" lon="6.31351">
        <ele>707</ele>
        <time>2025-10-24T12:37:19.624Z</time>
      </trkpt>
      <trkpt lat="43.60365" lon="6.31341">
        <ele>706.9</ele>
        <time>2025-10-24T12:37:28.209Z</time>
      </trkpt>
      <trkpt lat="43.60367" lon="6.31332">
        <ele>706.8</ele>
        <time>2025-10-24T12:37:36.794Z</time>
      </trkpt>
      <trkpt lat="43.60371" lon="6.31323">
        <ele>706.4</ele>
        <time>2025-10-24T12:37:45.178Z</time>
      </trkpt>
      <trkpt lat="43.60375" lon="6.31318">
        <ele>706.2</ele>
        <time>2025-10-24T12:37:51.110Z</time>
      </trkpt>
      <trkpt lat="43.60378" lon="6.31312">
        <ele>706.1</ele>
        <time>2025-10-24T12:37:57.383Z</time>
      </trkpt>
      <trkpt lat="43.60382" lon="6.31308">
        <ele>706</ele>
        <time>2025-10-24T12:38:02.708Z</time>
      </trkpt>
      <trkpt lat="43.60385" lon="6.31304">
        <ele>706</ele>
        <time>2025-10-24T12:38:08.402Z</time>
      </trkpt>
      <trkpt lat="43.6039" lon="6.31301">
        <ele>706</ele>
        <time>2025-10-24T12:38:15.233Z</time>
      </trkpt>
      <trkpt lat="43.60395" lon="6.31298">
        <ele>705.9</ele>
        <time>2025-10-24T12:38:21.694Z</time>
      </trkpt>
      <trkpt lat="43.604" lon="6.31295">
        <ele>705.8</ele>
        <time>2025-10-24T12:38:28.154Z</time>
      </trkpt>
      <trkpt lat="43.60405" lon="6.31292">
        <ele>705.7</ele>
        <time>2025-10-24T12:38:34.615Z</time>
      </trkpt>
      <trkpt lat="43.6041" lon="6.3129">
        <ele>705.6</ele>
        <time>2025-10-24T12:38:40.170Z</time>
      </trkpt>
      <trkpt lat="43.60414" lon="6.31288">
        <ele>705.4</ele>
        <time>2025-10-24T12:38:45.388Z</time>
      </trkpt>
      <trkpt lat="43.60422" lon="6.31285">
        <ele>705.2</ele>
        <time>2025-10-24T12:38:55.043Z</time>
      </trkpt>
      <trkpt lat="43.6043" lon="6.31282">
        <ele>705.1</ele>
        <time>2025-10-24T12:39:05.055Z</time>
      </trkpt>
      <trkpt lat="43.60437" lon="6.31281">
        <ele>705</ele>
        <time>2025-10-24T12:39:13.867Z</time>
      </trkpt>
      <trkpt lat="43.60445" lon="6.31279">
        <ele>705</ele>
        <time>2025-10-24T12:39:23.054Z</time>
      </trkpt>
      <trkpt lat="43.60452" lon="6.31278">
        <ele>705</ele>
        <time>2025-10-24T12:39:32.241Z</time>
      </trkpt>
      <trkpt lat="43.60459" lon="6.31276">
        <ele>705.1</ele>
        <time>2025-10-24T12:39:41.825Z</time>
      </trkpt>
      <trkpt lat="43.60465" lon="6.31275">
        <ele>705.2</ele>
        <time>2025-10-24T12:39:49.251Z</time>
      </trkpt>
      <trkpt lat="43.6047" lon="6.31273">
        <ele>705.3</ele>
        <time>2025-10-24T12:39:56.677Z</time>
      </trkpt>
      <trkpt lat="43.60476" lon="6.31268">
        <ele>705.6</ele>
        <time>2025-10-24T12:40:06.732Z</time>
      </trkpt>
      <trkpt lat="43.60481" lon="6.31259">
        <ele>705.9</ele>
        <time>2025-10-24T12:40:18.640Z</time>
      </trkpt>
      <trkpt lat="43.60486" lon="6.31249">
        <ele>706</ele>
        <time>2025-10-24T12:40:29.693Z</time>
      </trkpt>
      <trkpt lat="43.60489" lon="6.31244">
        <ele>705.8</ele>
        <time>2025-10-24T12:40:35.217Z</time>
      </trkpt>
      <trkpt lat="43.60491" lon="6.31238">
        <ele>705.6</ele>
        <time>2025-10-24T12:40:40.373Z</time>
      </trkpt>
      <trkpt lat="43.60493" lon="6.31231">
        <ele>705.3</ele>
        <time>2025-10-24T12:40:46.069Z</time>
      </trkpt>
      <trkpt lat="43.60494" lon="6.31225">
        <ele>705.1</ele>
        <time>2025-10-24T12:40:51.675Z</time>
      </trkpt>
      <trkpt lat="43.60496" lon="6.31218">
        <ele>704.9</ele>
        <time>2025-10-24T12:40:57.372Z</time>
      </trkpt>
      <trkpt lat="43.60497" lon="6.31211">
        <ele>704.9</ele>
        <time>2025-10-24T12:41:03.779Z</time>
      </trkpt>
      <trkpt lat="43.60499" lon="6.31203">
        <ele>704.8</ele>
        <time>2025-10-24T12:41:11.086Z</time>
      </trkpt>
      <trkpt lat="43.60501" lon="6.31195">
        <ele>705.1</ele>
        <time>2025-10-24T12:41:20.056Z</time>
      </trkpt>
      <trkpt lat="43.60501" lon="6.31192">
        <ele>705.1</ele>
        <time>2025-10-24T12:41:22.779Z</time>
      </trkpt>
      <trkpt lat="43.60503" lon="6.31183">
        <ele>705.1</ele>
        <time>2025-10-24T12:41:31.159Z</time>
      </trkpt>
      <trkpt lat="43.60504" lon="6.31174">
        <ele>705.1</ele>
        <time>2025-10-24T12:41:39.539Z</time>
      </trkpt>
      <trkpt lat="43.60506" lon="6.31165">
        <ele>705</ele>
        <time>2025-10-24T12:41:47.546Z</time>
      </trkpt>
      <trkpt lat="43.60507" lon="6.31156">
        <ele>704.9</ele>
        <time>2025-10-24T12:41:55.552Z</time>
      </trkpt>
      <trkpt lat="43.60511" lon="6.31148">
        <ele>704.7</ele>
        <time>2025-10-24T12:42:03.309Z</time>
      </trkpt>
      <trkpt lat="43.60514" lon="6.3114">
        <ele>704.5</ele>
        <time>2025-10-24T12:42:11.066Z</time>
      </trkpt>
      <trkpt lat="43.60518" lon="6.31132">
        <ele>704.2</ele>
        <time>2025-10-24T12:42:18.880Z</time>
      </trkpt>
      <trkpt lat="43.60521" lon="6.31123">
        <ele>703.8</ele>
        <time>2025-10-24T12:42:26.643Z</time>
      </trkpt>
      <trkpt lat="43.60522" lon="6.31117">
        <ele>703.6</ele>
        <time>2025-10-24T12:42:31.532Z</time>
      </trkpt>
      <trkpt lat="43.60523" lon="6.31108">
        <ele>703.3</ele>
        <time>2025-10-24T12:42:38.761Z</time>
      </trkpt>
      <trkpt lat="43.60525" lon="6.31101">
        <ele>703.2</ele>
        <time>2025-10-24T12:42:45.219Z</time>
      </trkpt>
      <trkpt lat="43.60527" lon="6.31094">
        <ele>703.1</ele>
        <time>2025-10-24T12:42:51.676Z</time>
      </trkpt>
      <trkpt lat="43.60526" lon="6.31085">
        <ele>703.1</ele>
        <time>2025-10-24T12:42:59.938Z</time>
      </trkpt>
      <trkpt lat="43.60524" lon="6.31078">
        <ele>703.2</ele>
        <time>2025-10-24T12:43:07.060Z</time>
      </trkpt>
      <trkpt lat="43.60523" lon="6.31071">
        <ele>703.3</ele>
        <time>2025-10-24T12:43:14.182Z</time>
      </trkpt>
      <trkpt lat="43.60521" lon="6.31064">
        <ele>703.3</ele>
        <time>2025-10-24T12:43:20.901Z</time>
      </trkpt>
      <trkpt lat="43.60519" lon="6.31057">
        <ele>703.3</ele>
        <time>2025-10-24T12:43:27.621Z</time>
      </trkpt>
      <trkpt lat="43.60517" lon="6.31047">
        <ele>703.6</ele>
        <time>2025-10-24T12:43:38.908Z</time>
      </trkpt>
      <trkpt lat="43.60514" lon="6.31036">
        <ele>703.9</ele>
        <time>2025-10-24T12:43:50.195Z</time>
      </trkpt>
      <trkpt lat="43.60515" lon="6.31024">
        <ele>703.9</ele>
        <time>2025-10-24T12:44:01.156Z</time>
      </trkpt>
      <trkpt lat="43.60516" lon="6.31017">
        <ele>703.8</ele>
        <time>2025-10-24T12:44:07.169Z</time>
      </trkpt>
      <trkpt lat="43.60516" lon="6.3101">
        <ele>703.6</ele>
        <time>2025-10-24T12:44:12.841Z</time>
      </trkpt>
      <trkpt lat="43.60518" lon="6.31001">
        <ele>703.4</ele>
        <time>2025-10-24T12:44:20.791Z</time>
      </trkpt>
      <trkpt lat="43.6052" lon="6.30992">
        <ele>702.9</ele>
        <time>2025-10-24T12:44:28.382Z</time>
      </trkpt>
      <trkpt lat="43.60521" lon="6.30982">
        <ele>702.3</ele>
        <time>2025-10-24T12:44:35.972Z</time>
      </trkpt>
      <trkpt lat="43.60523" lon="6.30973">
        <ele>701.6</ele>
        <time>2025-10-24T12:44:43.563Z</time>
      </trkpt>
      <trkpt lat="43.60525" lon="6.30963">
        <ele>700.9</ele>
        <time>2025-10-24T12:44:51.800Z</time>
      </trkpt>
      <trkpt lat="43.60527" lon="6.30955">
        <ele>700.4</ele>
        <time>2025-10-24T12:44:58.520Z</time>
      </trkpt>
      <trkpt lat="43.60525" lon="6.30949">
        <ele>700.4</ele>
        <time>2025-10-24T12:45:04.514Z</time>
      </trkpt>
      <trkpt lat="43.60522" lon="6.30944">
        <ele>700.4</ele>
        <time>2025-10-24T12:45:10.406Z</time>
      </trkpt>
      <trkpt lat="43.60518" lon="6.3094">
        <ele>700.6</ele>
        <time>2025-10-24T12:45:18.425Z</time>
      </trkpt>
      <trkpt lat="43.60513" lon="6.30936">
        <ele>700.7</ele>
        <time>2025-10-24T12:45:25.131Z</time>
      </trkpt>
      <trkpt lat="43.60511" lon="6.30933">
        <ele>700.6</ele>
        <time>2025-10-24T12:45:28.472Z</time>
      </trkpt>
      <trkpt lat="43.60512" lon="6.30924">
        <ele>700.2</ele>
        <time>2025-10-24T12:45:35.701Z</time>
      </trkpt>
      <trkpt lat="43.60511" lon="6.30918">
        <ele>699.9</ele>
        <time>2025-10-24T12:45:41.118Z</time>
      </trkpt>
      <trkpt lat="43.60509" lon="6.30911">
        <ele>699.6</ele>
        <time>2025-10-24T12:45:46.600Z</time>
      </trkpt>
      <trkpt lat="43.60508" lon="6.30908">
        <ele>699.5</ele>
        <time>2025-10-24T12:45:49.243Z</time>
      </trkpt>
      <trkpt lat="43.60507" lon="6.30902">
        <ele>699.4</ele>
        <time>2025-10-24T12:45:54.462Z</time>
      </trkpt>
      <trkpt lat="43.60509" lon="6.30892">
        <ele>699.4</ele>
        <time>2025-10-24T12:46:03.876Z</time>
      </trkpt>
      <trkpt lat="43.60516" lon="6.30886">
        <ele>699.5</ele>
        <time>2025-10-24T12:46:14.070Z</time>
      </trkpt>
      <trkpt lat="43.60522" lon="6.3088">
        <ele>699.4</ele>
        <time>2025-10-24T12:46:23.492Z</time>
      </trkpt>
      <trkpt lat="43.60528" lon="6.30875">
        <ele>699</ele>
        <time>2025-10-24T12:46:30.823Z</time>
      </trkpt>
      <trkpt lat="43.60533" lon="6.3087">
        <ele>699</ele>
        <time>2025-10-24T12:46:38.828Z</time>
      </trkpt>
      <trkpt lat="43.60539" lon="6.30864">
        <ele>699</ele>
        <time>2025-10-24T12:46:47.605Z</time>
      </trkpt>
      <trkpt lat="43.60544" lon="6.30859">
        <ele>699.1</ele>
        <time>2025-10-24T12:46:56.382Z</time>
      </trkpt>
      <trkpt lat="43.60552" lon="6.30855">
        <ele>699.4</ele>
        <time>2025-10-24T12:47:08.295Z</time>
      </trkpt>
      <trkpt lat="43.60557" lon="6.30848">
        <ele>699.1</ele>
        <time>2025-10-24T12:47:16.158Z</time>
      </trkpt>
      <trkpt lat="43.60563" lon="6.30842">
        <ele>698.8</ele>
        <time>2025-10-24T12:47:23.883Z</time>
      </trkpt>
      <trkpt lat="43.60568" lon="6.30836">
        <ele>698.6</ele>
        <time>2025-10-24T12:47:31.940Z</time>
      </trkpt>
      <trkpt lat="43.60573" lon="6.30832">
        <ele>698.6</ele>
        <time>2025-10-24T12:47:39.181Z</time>
      </trkpt>
      <trkpt lat="43.60578" lon="6.30828">
        <ele>698.6</ele>
        <time>2025-10-24T12:47:46.422Z</time>
      </trkpt>
      <trkpt lat="43.60584" lon="6.30823">
        <ele>698.7</ele>
        <time>2025-10-24T12:47:55.602Z</time>
      </trkpt>
      <trkpt lat="43.60588" lon="6.30832">
        <ele>699.1</ele>
        <time>2025-10-24T12:48:06.544Z</time>
      </trkpt>
      <trkpt lat="43.60592" lon="6.3084">
        <ele>699.6</ele>
        <time>2025-10-24T12:48:17.993Z</time>
      </trkpt>
      <trkpt lat="43.60595" lon="6.30848">
        <ele>699.9</ele>
        <time>2025-10-24T12:48:27.450Z</time>
      </trkpt>
      <trkpt lat="43.606" lon="6.3085">
        <ele>700.2</ele>
        <time>2025-10-24T12:48:35.291Z</time>
      </trkpt>
      <trkpt lat="43.60603" lon="6.30853">
        <ele>700.4</ele>
        <time>2025-10-24T12:48:40.803Z</time>
      </trkpt>
      <trkpt lat="43.60606" lon="6.30859">
        <ele>700.7</ele>
        <time>2025-10-24T12:48:48.734Z</time>
      </trkpt>
      <trkpt lat="43.6061" lon="6.30867">
        <ele>701.4</ele>
        <time>2025-10-24T12:48:59.697Z</time>
      </trkpt>
      <trkpt lat="43.60613" lon="6.30874">
        <ele>702.1</ele>
        <time>2025-10-24T12:49:11.924Z</time>
      </trkpt>
      <trkpt lat="43.60616" lon="6.30878">
        <ele>702.7</ele>
        <time>2025-10-24T12:49:20.412Z</time>
      </trkpt>
      <trkpt lat="43.60622" lon="6.30886">
        <ele>703.7</ele>
        <time>2025-10-24T12:49:35.975Z</time>
      </trkpt>
      <trkpt lat="43.60626" lon="6.30896">
        <ele>704.3</ele>
        <time>2025-10-24T12:49:49.070Z</time>
      </trkpt>
      <trkpt lat="43.60628" lon="6.30904">
        <ele>704.8</ele>
        <time>2025-10-24T12:49:59.074Z</time>
      </trkpt>
      <trkpt lat="43.60625" lon="6.30914">
        <ele>704.9</ele>
        <time>2025-10-24T12:50:09.293Z</time>
      </trkpt>
      <trkpt lat="43.60619" lon="6.30923">
        <ele>704.8</ele>
        <time>2025-10-24T12:50:19.688Z</time>
      </trkpt>
      <trkpt lat="43.60613" lon="6.30931">
        <ele>704.7</ele>
        <time>2025-10-24T12:50:30.083Z</time>
      </trkpt>
      <trkpt lat="43.60609" lon="6.30934">
        <ele>704.5</ele>
        <time>2025-10-24T12:50:35.194Z</time>
      </trkpt>
      <trkpt lat="43.60605" lon="6.30938">
        <ele>704.5</ele>
        <time>2025-10-24T12:50:41.009Z</time>
      </trkpt>
      <trkpt lat="43.60601" lon="6.30941">
        <ele>704.5</ele>
        <time>2025-10-24T12:50:46.825Z</time>
      </trkpt>
      <trkpt lat="43.60597" lon="6.30944">
        <ele>704.5</ele>
        <time>2025-10-24T12:50:52.641Z</time>
      </trkpt>
      <trkpt lat="43.60597" lon="6.30949">
        <ele>704.7</ele>
        <time>2025-10-24T12:50:58.051Z</time>
      </trkpt>
      <trkpt lat="43.60596" lon="6.30956">
        <ele>704.9</ele>
        <time>2025-10-24T12:51:04.927Z</time>
      </trkpt>
      <trkpt lat="43.60595" lon="6.30962">
        <ele>705.1</ele>
        <time>2025-10-24T12:51:11.803Z</time>
      </trkpt>
      <trkpt lat="43.60597" lon="6.30969">
        <ele>705.4</ele>
        <time>2025-10-24T12:51:18.837Z</time>
      </trkpt>
      <trkpt lat="43.60598" lon="6.30975">
        <ele>705.5</ele>
        <time>2025-10-24T12:51:25.872Z</time>
      </trkpt>
      <trkpt lat="43.60603" lon="6.30984">
        <ele>705.7</ele>
        <time>2025-10-24T12:51:36.979Z</time>
      </trkpt>
      <trkpt lat="43.60611" lon="6.30989">
        <ele>706</ele>
        <time>2025-10-24T12:51:49.231Z</time>
      </trkpt>
      <trkpt lat="43.60619" lon="6.30994">
        <ele>706.5</ele>
        <time>2025-10-24T12:52:02.427Z</time>
      </trkpt>
      <trkpt lat="43.60625" lon="6.30996">
        <ele>706.9</ele>
        <time>2025-10-24T12:52:11.948Z</time>
      </trkpt>
      <trkpt lat="43.6063" lon="6.30997">
        <ele>707.3</ele>
        <time>2025-10-24T12:52:20.127Z</time>
      </trkpt>
      <trkpt lat="43.60635" lon="6.30998">
        <ele>707.7</ele>
        <time>2025-10-24T12:52:28.307Z</time>
      </trkpt>
      <trkpt lat="43.60639" lon="6.31">
        <ele>708</ele>
        <time>2025-10-24T12:52:34.996Z</time>
      </trkpt>
      <trkpt lat="43.60641" lon="6.31002">
        <ele>708.3</ele>
        <time>2025-10-24T12:52:39.630Z</time>
      </trkpt>
      <trkpt lat="43.60642" lon="6.31006">
        <ele>708.6</ele>
        <time>2025-10-24T12:52:44.921Z</time>
      </trkpt>
      <trkpt lat="43.60648" lon="6.31013">
        <ele>709.5</ele>
        <time>2025-10-24T12:52:59.302Z</time>
      </trkpt>
      <trkpt lat="43.60654" lon="6.31019">
        <ele>710.3</ele>
        <time>2025-10-24T12:53:12.554Z</time>
      </trkpt>
      <trkpt lat="43.60661" lon="6.31024">
        <ele>711.3</ele>
        <time>2025-10-24T12:53:27.633Z</time>
      </trkpt>
      <trkpt lat="43.60663" lon="6.3103">
        <ele>711.7</ele>
        <time>2025-10-24T12:53:35.495Z</time>
      </trkpt>
      <trkpt lat="43.60667" lon="6.31037">
        <ele>712.4</ele>
        <time>2025-10-24T12:53:47.062Z</time>
      </trkpt>
      <trkpt lat="43.60671" lon="6.31043">
        <ele>712.9</ele>
        <time>2025-10-24T12:53:56.804Z</time>
      </trkpt>
      <trkpt lat="43.60677" lon="6.31049">
        <ele>713.6</ele>
        <time>2025-10-24T12:54:08.990Z</time>
      </trkpt>
      <trkpt lat="43.60682" lon="6.31055">
        <ele>714.1</ele>
        <time>2025-10-24T12:54:20.041Z</time>
      </trkpt>
      <trkpt lat="43.60686" lon="6.31065">
        <ele>714.6</ele>
        <time>2025-10-24T12:54:32.617Z</time>
      </trkpt>
      <trkpt lat="43.60688" lon="6.31071">
        <ele>715</ele>
        <time>2025-10-24T12:54:39.718Z</time>
      </trkpt>
      <trkpt lat="43.60689" lon="6.31077">
        <ele>715.2</ele>
        <time>2025-10-24T12:54:46.819Z</time>
      </trkpt>
      <trkpt lat="43.60693" lon="6.31085">
        <ele>715.8</ele>
        <time>2025-10-24T12:54:58.454Z</time>
      </trkpt>
      <trkpt lat="43.60701" lon="6.31089">
        <ele>716.9</ele>
        <time>2025-10-24T12:55:14.876Z</time>
      </trkpt>
      <trkpt lat="43.60708" lon="6.31091">
        <ele>718</ele>
        <time>2025-10-24T12:55:29.975Z</time>
      </trkpt>
      <trkpt lat="43.60714" lon="6.31093">
        <ele>718.8</ele>
        <time>2025-10-24T12:55:41.902Z</time>
      </trkpt>
      <trkpt lat="43.6072" lon="6.31094">
        <ele>719.7</ele>
        <time>2025-10-24T12:55:54.435Z</time>
      </trkpt>
      <trkpt lat="43.60726" lon="6.31091">
        <ele>720.7</ele>
        <time>2025-10-24T12:56:08.057Z</time>
      </trkpt>
      <trkpt lat="43.6073" lon="6.31085">
        <ele>721.4</ele>
        <time>2025-10-24T12:56:18.341Z</time>
      </trkpt>
      <trkpt lat="43.60733" lon="6.31078">
        <ele>721.9</ele>
        <time>2025-10-24T12:56:28.625Z</time>
      </trkpt>
      <trkpt lat="43.60738" lon="6.3107">
        <ele>722.6</ele>
        <time>2025-10-24T12:56:41.869Z</time>
      </trkpt>
      <trkpt lat="43.60743" lon="6.31061">
        <ele>723.1</ele>
        <time>2025-10-24T12:56:54.030Z</time>
      </trkpt>
      <trkpt lat="43.60747" lon="6.31057">
        <ele>723.6</ele>
        <time>2025-10-24T12:57:02.908Z</time>
      </trkpt>
      <trkpt lat="43.60751" lon="6.31052">
        <ele>724.1</ele>
        <time>2025-10-24T12:57:11.786Z</time>
      </trkpt>
      <trkpt lat="43.60755" lon="6.31048">
        <ele>724.8</ele>
        <time>2025-10-24T12:57:21.290Z</time>
      </trkpt>
      <trkpt lat="43.60759" lon="6.31043">
        <ele>725.3</ele>
        <time>2025-10-24T12:57:30.794Z</time>
      </trkpt>
      <trkpt lat="43.60763" lon="6.31039">
        <ele>725.8</ele>
        <time>2025-10-24T12:57:38.594Z</time>
      </trkpt>
      <trkpt lat="43.60766" lon="6.31035">
        <ele>726.3</ele>
        <time>2025-10-24T12:57:46.394Z</time>
      </trkpt>
      <trkpt lat="43.60772" lon="6.31026">
        <ele>726.9</ele>
        <time>2025-10-24T12:58:00.839Z</time>
      </trkpt>
      <trkpt lat="43.60775" lon="6.31021">
        <ele>727.3</ele>
        <time>2025-10-24T12:58:08.606Z</time>
      </trkpt>
      <trkpt lat="43.60778" lon="6.31016">
        <ele>727.6</ele>
        <time>2025-10-24T12:58:15.834Z</time>
      </trkpt>
      <trkpt lat="43.60782" lon="6.31005">
        <ele>728</ele>
        <time>2025-10-24T12:58:28.709Z</time>
      </trkpt>
      <trkpt lat="43.60781" lon="6.30993">
        <ele>727.3</ele>
        <time>2025-10-24T12:58:38.299Z</time>
      </trkpt>
      <trkpt lat="43.6078" lon="6.30986">
        <ele>726.9</ele>
        <time>2025-10-24T12:58:43.964Z</time>
      </trkpt>
      <trkpt lat="43.60783" lon="6.30979">
        <ele>727</ele>
        <time>2025-10-24T12:58:51.745Z</time>
      </trkpt>
      <trkpt lat="43.60788" lon="6.30975">
        <ele>727.6</ele>
        <time>2025-10-24T12:59:01.931Z</time>
      </trkpt>
      <trkpt lat="43.60796" lon="6.30972">
        <ele>728.6</ele>
        <time>2025-10-24T12:59:16.380Z</time>
      </trkpt>
      <trkpt lat="43.60803" lon="6.30968">
        <ele>729.3</ele>
        <time>2025-10-24T12:59:30.201Z</time>
      </trkpt>
      <trkpt lat="43.60809" lon="6.30967">
        <ele>730.1</ele>
        <time>2025-10-24T12:59:40.850Z</time>
      </trkpt>
      <trkpt lat="43.60814" lon="6.30965">
        <ele>730.7</ele>
        <time>2025-10-24T12:59:51.499Z</time>
      </trkpt>
      <trkpt lat="43.60819" lon="6.30963">
        <ele>731.3</ele>
        <time>2025-10-24T13:00:01.267Z</time>
      </trkpt>
      <trkpt lat="43.60825" lon="6.30962">
        <ele>732.1</ele>
        <time>2025-10-24T13:00:11.703Z</time>
      </trkpt>
      <trkpt lat="43.6083" lon="6.3096">
        <ele>732.6</ele>
        <time>2025-10-24T13:00:21.470Z</time>
      </trkpt>
      <trkpt lat="43.60835" lon="6.30958">
        <ele>733</ele>
        <time>2025-10-24T13:00:30.064Z</time>
      </trkpt>
      <trkpt lat="43.60839" lon="6.30956">
        <ele>733.1</ele>
        <time>2025-10-24T13:00:35.801Z</time>
      </trkpt>
      <trkpt lat="43.60843" lon="6.30957">
        <ele>733.3</ele>
        <time>2025-10-24T13:00:41.756Z</time>
      </trkpt>
      <trkpt lat="43.60849" lon="6.30959">
        <ele>733.6</ele>
        <time>2025-10-24T13:00:50.086Z</time>
      </trkpt>
      <trkpt lat="43.60854" lon="6.3096">
        <ele>733.8</ele>
        <time>2025-10-24T13:00:57.946Z</time>
      </trkpt>
      <trkpt lat="43.60862" lon="6.30965">
        <ele>733.7</ele>
        <time>2025-10-24T13:01:08.574Z</time>
      </trkpt>
      <trkpt lat="43.60866" lon="6.30966">
        <ele>732.6</ele>
        <time>2025-10-24T13:01:13.031Z</time>
      </trkpt>
      <trkpt lat="43.60871" lon="6.30969">
        <ele>731.2</ele>
        <time>2025-10-24T13:01:19.008Z</time>
      </trkpt>
      <trkpt lat="43.60878" lon="6.30974">
        <ele>729.1</ele>
        <time>2025-10-24T13:01:27.167Z</time>
      </trkpt>
      <trkpt lat="43.60884" lon="6.30979">
        <ele>727.6</ele>
        <time>2025-10-24T13:01:35.325Z</time>
      </trkpt>
      <trkpt lat="43.60889" lon="6.30983">
        <ele>726.4</ele>
        <time>2025-10-24T13:01:41.661Z</time>
      </trkpt>
      <trkpt lat="43.60893" lon="6.3099">
        <ele>727.3</ele>
        <time>2025-10-24T13:01:54.318Z</time>
      </trkpt>
      <trkpt lat="43.60897" lon="6.30996">
        <ele>728.3</ele>
        <time>2025-10-24T13:02:07.763Z</time>
      </trkpt>
      <trkpt lat="43.60901" lon="6.31004">
        <ele>729.4</ele>
        <time>2025-10-24T13:02:22.509Z</time>
      </trkpt>
      <trkpt lat="43.60905" lon="6.31011">
        <ele>730.4</ele>
        <time>2025-10-24T13:02:36.462Z</time>
      </trkpt>
      <trkpt lat="43.6091" lon="6.31016">
        <ele>731.2</ele>
        <time>2025-10-24T13:02:48.390Z</time>
      </trkpt>
      <trkpt lat="43.60915" lon="6.31018">
        <ele>731.8</ele>
        <time>2025-10-24T13:02:57.436Z</time>
      </trkpt>
      <trkpt lat="43.60919" lon="6.3102">
        <ele>732.3</ele>
        <time>2025-10-24T13:03:05.826Z</time>
      </trkpt>
      <trkpt lat="43.60927" lon="6.31022">
        <ele>733.1</ele>
        <time>2025-10-24T13:03:19.889Z</time>
      </trkpt>
      <trkpt lat="43.60935" lon="6.31019">
        <ele>734</ele>
        <time>2025-10-24T13:03:34.748Z</time>
      </trkpt>
      <trkpt lat="43.60937" lon="6.31017">
        <ele>734.2</ele>
        <time>2025-10-24T13:03:38.770Z</time>
      </trkpt>
      <trkpt lat="43.60937" lon="6.31017">
        <ele>734.2</ele>
        <time>2025-10-24T13:03:38.770Z</time>
      </trkpt>
      <trkpt lat="43.60942" lon="6.31012">
        <ele>734.7</ele>
        <time>2025-10-24T13:03:48.827Z</time>
      </trkpt>
      <trkpt lat="43.60943" lon="6.31011">
        <ele>734.8</ele>
        <time>2025-10-24T13:03:50.838Z</time>
      </trkpt>
      <trkpt lat="43.60947" lon="6.31003">
        <ele>734.9</ele>
        <time>2025-10-24T13:04:00.057Z</time>
      </trkpt>
      <trkpt lat="43.60951" lon="6.30995">
        <ele>734.6</ele>
        <time>2025-10-24T13:04:07.820Z</time>
      </trkpt>
      <trkpt lat="43.60953" lon="6.30989">
        <ele>734.3</ele>
        <time>2025-10-24T13:04:13.428Z</time>
      </trkpt>
      <trkpt lat="43.60955" lon="6.30982">
        <ele>734</ele>
        <time>2025-10-24T13:04:19.035Z</time>
      </trkpt>
      <trkpt lat="43.60956" lon="6.30972">
        <ele>733.6</ele>
        <time>2025-10-24T13:04:27.049Z</time>
      </trkpt>
      <trkpt lat="43.60961" lon="6.30962">
        <ele>732.4</ele>
        <time>2025-10-24T13:04:36.698Z</time>
      </trkpt>
      <trkpt lat="43.60967" lon="6.30953">
        <ele>731.2</ele>
        <time>2025-10-24T13:04:46.410Z</time>
      </trkpt>
      <trkpt lat="43.60973" lon="6.30947">
        <ele>730.3</ele>
        <time>2025-10-24T13:04:54.533Z</time>
      </trkpt>
      <trkpt lat="43.6098" lon="6.30943">
        <ele>729.9</ele>
        <time>2025-10-24T13:05:02.839Z</time>
      </trkpt>
      <trkpt lat="43.60987" lon="6.30942">
        <ele>729.8</ele>
        <time>2025-10-24T13:05:11.284Z</time>
      </trkpt>
      <trkpt lat="43.60994" lon="6.30941">
        <ele>729.9</ele>
        <time>2025-10-24T13:05:20.500Z</time>
      </trkpt>
      <trkpt lat="43.60993" lon="6.30931">
        <ele>729.5</ele>
        <time>2025-10-24T13:05:28.515Z</time>
      </trkpt>
      <trkpt lat="43.60993" lon="6.3092">
        <ele>729.1</ele>
        <time>2025-10-24T13:05:37.248Z</time>
      </trkpt>
      <trkpt lat="43.60993" lon="6.30909">
        <ele>728.3</ele>
        <time>2025-10-24T13:05:45.981Z</time>
      </trkpt>
      <trkpt lat="43.60993" lon="6.30899">
        <ele>727.4</ele>
        <time>2025-10-24T13:05:53.722Z</time>
      </trkpt>
      <trkpt lat="43.60993" lon="6.3089">
        <ele>726.6</ele>
        <time>2025-10-24T13:06:01.463Z</time>
      </trkpt>
      <trkpt lat="43.60993" lon="6.3088">
        <ele>725.9</ele>
        <time>2025-10-24T13:06:09.203Z</time>
      </trkpt>
      <trkpt lat="43.60993" lon="6.3087">
        <ele>725.3</ele>
        <time>2025-10-24T13:06:16.944Z</time>
      </trkpt>
      <trkpt lat="43.60994" lon="6.30859">
        <ele>724.6</ele>
        <time>2025-10-24T13:06:26.140Z</time>
      </trkpt>
      <trkpt lat="43.60995" lon="6.30847">
        <ele>723.8</ele>
        <time>2025-10-24T13:06:35.335Z</time>
      </trkpt>
      <trkpt lat="43.60995" lon="6.30841">
        <ele>723.4</ele>
        <time>2025-10-24T13:06:40.503Z</time>
      </trkpt>
      <trkpt lat="43.60996" lon="6.30834">
        <ele>722.9</ele>
        <time>2025-10-24T13:06:45.671Z</time>
      </trkpt>
      <trkpt lat="43.60996" lon="6.30828">
        <ele>722.6</ele>
        <time>2025-10-24T13:06:50.839Z</time>
      </trkpt>
      <trkpt lat="43.60996" lon="6.30821">
        <ele>722.2</ele>
        <time>2025-10-24T13:06:56.006Z</time>
      </trkpt>
      <trkpt lat="43.60997" lon="6.30815">
        <ele>721.9</ele>
        <time>2025-10-24T13:07:01.282Z</time>
      </trkpt>
      <trkpt lat="43.60998" lon="6.30808">
        <ele>721.8</ele>
        <time>2025-10-24T13:07:06.942Z</time>
      </trkpt>
      <trkpt lat="43.61002" lon="6.30802">
        <ele>721.5</ele>
        <time>2025-10-24T13:07:13.417Z</time>
      </trkpt>
      <trkpt lat="43.61004" lon="6.30799">
        <ele>721.1</ele>
        <time>2025-10-24T13:07:16.655Z</time>
      </trkpt>
      <trkpt lat="43.6101" lon="6.30798">
        <ele>720.3</ele>
        <time>2025-10-24T13:07:23.282Z</time>
      </trkpt>
      <trkpt lat="43.61015" lon="6.30799">
        <ele>719.8</ele>
        <time>2025-10-24T13:07:28.821Z</time>
      </trkpt>
      <trkpt lat="43.6102" lon="6.30801">
        <ele>719.4</ele>
        <time>2025-10-24T13:07:34.432Z</time>
      </trkpt>
      <trkpt lat="43.61025" lon="6.30802">
        <ele>718.9</ele>
        <time>2025-10-24T13:07:40.042Z</time>
      </trkpt>
      <trkpt lat="43.61031" lon="6.30804">
        <ele>718.6</ele>
        <time>2025-10-24T13:07:46.766Z</time>
      </trkpt>
      <trkpt lat="43.61037" lon="6.30806">
        <ele>718.4</ele>
        <time>2025-10-24T13:07:53.490Z</time>
      </trkpt>
      <trkpt lat="43.61043" lon="6.30807">
        <ele>718.1</ele>
        <time>2025-10-24T13:08:00.455Z</time>
      </trkpt>
      <trkpt lat="43.61049" lon="6.30809">
        <ele>717.8</ele>
        <time>2025-10-24T13:08:07.179Z</time>
      </trkpt>
      <trkpt lat="43.61055" lon="6.30813">
        <ele>717.6</ele>
        <time>2025-10-24T13:08:14.803Z</time>
      </trkpt>
      <trkpt lat="43.61061" lon="6.30822">
        <ele>717.5</ele>
        <time>2025-10-24T13:08:25.527Z</time>
      </trkpt>
      <trkpt lat="43.61064" lon="6.30829">
        <ele>717.4</ele>
        <time>2025-10-24T13:08:31.835Z</time>
      </trkpt>
      <trkpt lat="43.61066" lon="6.30835">
        <ele>717.1</ele>
        <time>2025-10-24T13:08:37.678Z</time>
      </trkpt>
      <trkpt lat="43.61069" lon="6.30841">
        <ele>716.7</ele>
        <time>2025-10-24T13:08:42.834Z</time>
      </trkpt>
      <trkpt lat="43.61071" lon="6.30846">
        <ele>716.5</ele>
        <time>2025-10-24T13:08:47.989Z</time>
      </trkpt>
      <trkpt lat="43.61077" lon="6.30855">
        <ele>715.7</ele>
        <time>2025-10-24T13:08:57.702Z</time>
      </trkpt>
      <trkpt lat="43.61082" lon="6.30858">
        <ele>715.1</ele>
        <time>2025-10-24T13:09:03.020Z</time>
      </trkpt>
      <trkpt lat="43.61086" lon="6.3086">
        <ele>714.8</ele>
        <time>2025-10-24T13:09:08.339Z</time>
      </trkpt>
      <trkpt lat="43.61094" lon="6.30864">
        <ele>714.5</ele>
        <time>2025-10-24T13:09:17.926Z</time>
      </trkpt>
      <trkpt lat="43.611" lon="6.30865">
        <ele>714.2</ele>
        <time>2025-10-24T13:09:24.009Z</time>
      </trkpt>
      <trkpt lat="43.61105" lon="6.30866">
        <ele>714</ele>
        <time>2025-10-24T13:09:30.246Z</time>
      </trkpt>
      <trkpt lat="43.61111" lon="6.30866">
        <ele>713.7</ele>
        <time>2025-10-24T13:09:36.837Z</time>
      </trkpt>
      <trkpt lat="43.61117" lon="6.30865">
        <ele>713.8</ele>
        <time>2025-10-24T13:09:45.199Z</time>
      </trkpt>
      <trkpt lat="43.61123" lon="6.30865">
        <ele>714</ele>
        <time>2025-10-24T13:09:52.508Z</time>
      </trkpt>
      <trkpt lat="43.61128" lon="6.30864">
        <ele>714.1</ele>
        <time>2025-10-24T13:10:00.251Z</time>
      </trkpt>
      <trkpt lat="43.61133" lon="6.30863">
        <ele>714.1</ele>
        <time>2025-10-24T13:10:06.582Z</time>
      </trkpt>
      <trkpt lat="43.61138" lon="6.30862">
        <ele>714.1</ele>
        <time>2025-10-24T13:10:12.913Z</time>
      </trkpt>
      <trkpt lat="43.61142" lon="6.30862">
        <ele>713.9</ele>
        <time>2025-10-24T13:10:17.299Z</time>
      </trkpt>
      <trkpt lat="43.61147" lon="6.30863">
        <ele>713.7</ele>
        <time>2025-10-24T13:10:22.253Z</time>
      </trkpt>
      <trkpt lat="43.61151" lon="6.30863">
        <ele>713.4</ele>
        <time>2025-10-24T13:10:27.204Z</time>
      </trkpt>
      <trkpt lat="43.61156" lon="6.30864">
        <ele>713.1</ele>
        <time>2025-10-24T13:10:31.880Z</time>
      </trkpt>
      <trkpt lat="43.6116" lon="6.30864">
        <ele>712.8</ele>
        <time>2025-10-24T13:10:36.557Z</time>
      </trkpt>
      <trkpt lat="43.61168" lon="6.30865">
        <ele>712.3</ele>
        <time>2025-10-24T13:10:45.911Z</time>
      </trkpt>
      <trkpt lat="43.61176" lon="6.30866">
        <ele>711.8</ele>
        <time>2025-10-24T13:10:54.719Z</time>
      </trkpt>
      <trkpt lat="43.61181" lon="6.30865">
        <ele>711.3</ele>
        <time>2025-10-24T13:11:00.259Z</time>
      </trkpt>
      <trkpt lat="43.61187" lon="6.30864">
        <ele>710.8</ele>
        <time>2025-10-24T13:11:06.886Z</time>
      </trkpt>
      <trkpt lat="43.61194" lon="6.30864">
        <ele>710.2</ele>
        <time>2025-10-24T13:11:14.561Z</time>
      </trkpt>
      <trkpt lat="43.612" lon="6.30865">
        <ele>710</ele>
        <time>2025-10-24T13:11:21.415Z</time>
      </trkpt>
      <trkpt lat="43.61206" lon="6.30868">
        <ele>709.7</ele>
        <time>2025-10-24T13:11:28.412Z</time>
      </trkpt>
      <trkpt lat="43.61212" lon="6.30873">
        <ele>709.1</ele>
        <time>2025-10-24T13:11:36.095Z</time>
      </trkpt>
      <trkpt lat="43.61219" lon="6.30873">
        <ele>708.5</ele>
        <time>2025-10-24T13:11:43.771Z</time>
      </trkpt>
      <trkpt lat="43.61224" lon="6.30873">
        <ele>707.9</ele>
        <time>2025-10-24T13:11:49.253Z</time>
      </trkpt>
      <trkpt lat="43.61229" lon="6.30873">
        <ele>707.1</ele>
        <time>2025-10-24T13:11:54.736Z</time>
      </trkpt>
      <trkpt lat="43.61237" lon="6.30873">
        <ele>705.9</ele>
        <time>2025-10-24T13:12:03.508Z</time>
      </trkpt>
      <trkpt lat="43.61243" lon="6.30874">
        <ele>705</ele>
        <time>2025-10-24T13:12:10.134Z</time>
      </trkpt>
      <trkpt lat="43.61251" lon="6.30876">
        <ele>704.1</ele>
        <time>2025-10-24T13:12:19.049Z</time>
      </trkpt>
      <trkpt lat="43.61255" lon="6.30878">
        <ele>704.7</ele>
        <time>2025-10-24T13:12:27.618Z</time>
      </trkpt>
      <trkpt lat="43.61261" lon="6.30881">
        <ele>705.6</ele>
        <time>2025-10-24T13:12:40.473Z</time>
      </trkpt>
      <trkpt lat="43.61268" lon="6.30884">
        <ele>706.6</ele>
        <time>2025-10-24T13:12:53.690Z</time>
      </trkpt>
      <trkpt lat="43.61274" lon="6.30886">
        <ele>707.5</ele>
        <time>2025-10-24T13:13:07.646Z</time>
      </trkpt>
      <trkpt lat="43.6128" lon="6.30891">
        <ele>708.2</ele>
        <time>2025-10-24T13:13:19.830Z</time>
      </trkpt>
      <trkpt lat="43.61286" lon="6.30896">
        <ele>708.6</ele>
        <time>2025-10-24T13:13:30.366Z</time>
      </trkpt>
      <trkpt lat="43.61291" lon="6.309">
        <ele>709</ele>
        <time>2025-10-24T13:13:39.412Z</time>
      </trkpt>
      <trkpt lat="43.61296" lon="6.30904">
        <ele>709.4</ele>
        <time>2025-10-24T13:13:48.458Z</time>
      </trkpt>
      <trkpt lat="43.61302" lon="6.3091">
        <ele>709.9</ele>
        <time>2025-10-24T13:13:59.739Z</time>
      </trkpt>
      <trkpt lat="43.61308" lon="6.30915">
        <ele>710.1</ele>
        <time>2025-10-24T13:14:09.583Z</time>
      </trkpt>
      <trkpt lat="43.61313" lon="6.30918">
        <ele>710.1</ele>
        <time>2025-10-24T13:14:16.065Z</time>
      </trkpt>
      <trkpt lat="43.61317" lon="6.3092">
        <ele>710.1</ele>
        <time>2025-10-24T13:14:21.774Z</time>
      </trkpt>
      <trkpt lat="43.61322" lon="6.30922">
        <ele>710.1</ele>
        <time>2025-10-24T13:14:28.297Z</time>
      </trkpt>
      <trkpt lat="43.61327" lon="6.30922">
        <ele>710.3</ele>
        <time>2025-10-24T13:14:35.406Z</time>
      </trkpt>
      <trkpt lat="43.61332" lon="6.30922">
        <ele>710.6</ele>
        <time>2025-10-24T13:14:42.996Z</time>
      </trkpt>
      <trkpt lat="43.6134" lon="6.30921">
        <ele>711.2</ele>
        <time>2025-10-24T13:14:55.266Z</time>
      </trkpt>
      <trkpt lat="43.61347" lon="6.30919">
        <ele>711.8</ele>
        <time>2025-10-24T13:15:07.535Z</time>
      </trkpt>
      <trkpt lat="43.61352" lon="6.30918">
        <ele>712.2</ele>
        <time>2025-10-24T13:15:14.848Z</time>
      </trkpt>
      <trkpt lat="43.61356" lon="6.30917">
        <ele>712.6</ele>
        <time>2025-10-24T13:15:22.162Z</time>
      </trkpt>
      <trkpt lat="43.61364" lon="6.30915">
        <ele>713.2</ele>
        <time>2025-10-24T13:15:35.677Z</time>
      </trkpt>
      <trkpt lat="43.6137" lon="6.30913">
        <ele>713.5</ele>
        <time>2025-10-24T13:15:44.232Z</time>
      </trkpt>
      <trkpt lat="43.61375" lon="6.3091">
        <ele>713.9</ele>
        <time>2025-10-24T13:15:53.292Z</time>
      </trkpt>
      <trkpt lat="43.6138" lon="6.30907">
        <ele>714.3</ele>
        <time>2025-10-24T13:16:00.879Z</time>
      </trkpt>
      <trkpt lat="43.61384" lon="6.30904">
        <ele>714.7</ele>
        <time>2025-10-24T13:16:09.572Z</time>
      </trkpt>
      <trkpt lat="43.61387" lon="6.30904">
        <ele>714.8</ele>
        <time>2025-10-24T13:16:13.747Z</time>
      </trkpt>
      <trkpt lat="43.6139" lon="6.30908">
        <ele>714.7</ele>
        <time>2025-10-24T13:16:18.605Z</time>
      </trkpt>
      <trkpt lat="43.61392" lon="6.30915">
        <ele>714.2</ele>
        <time>2025-10-24T13:16:24.212Z</time>
      </trkpt>
      <trkpt lat="43.61394" lon="6.30921">
        <ele>714.2</ele>
        <time>2025-10-24T13:16:30.250Z</time>
      </trkpt>
      <trkpt lat="43.61395" lon="6.30927">
        <ele>714.3</ele>
        <time>2025-10-24T13:16:36.537Z</time>
      </trkpt>
      <trkpt lat="43.61397" lon="6.30934">
        <ele>714.5</ele>
        <time>2025-10-24T13:16:42.824Z</time>
      </trkpt>
      <trkpt lat="43.61398" lon="6.3094">
        <ele>714.6</ele>
        <time>2025-10-24T13:16:49.555Z</time>
      </trkpt>
      <trkpt lat="43.61399" lon="6.30946">
        <ele>714.7</ele>
        <time>2025-10-24T13:16:55.842Z</time>
      </trkpt>
      <trkpt lat="43.61402" lon="6.30955">
        <ele>714.7</ele>
        <time>2025-10-24T13:17:04.831Z</time>
      </trkpt>
      <trkpt lat="43.61407" lon="6.30965">
        <ele>715</ele>
        <time>2025-10-24T13:17:17.105Z</time>
      </trkpt>
      <trkpt lat="43.61411" lon="6.3097">
        <ele>715.4</ele>
        <time>2025-10-24T13:17:25.692Z</time>
      </trkpt>
      <trkpt lat="43.61415" lon="6.30975">
        <ele>715.8</ele>
        <time>2025-10-24T13:17:34.279Z</time>
      </trkpt>
      <trkpt lat="43.61421" lon="6.30983">
        <ele>716.4</ele>
        <time>2025-10-24T13:17:47.455Z</time>
      </trkpt>
      <trkpt lat="43.61427" lon="6.30991">
        <ele>717.2</ele>
        <time>2025-10-24T13:18:01.757Z</time>
      </trkpt>
      <trkpt lat="43.61431" lon="6.30997">
        <ele>717.7</ele>
        <time>2025-10-24T13:18:11.700Z</time>
      </trkpt>
      <trkpt lat="43.61436" lon="6.31003">
        <ele>718.4</ele>
        <time>2025-10-24T13:18:22.224Z</time>
      </trkpt>
      <trkpt lat="43.6144" lon="6.31009">
        <ele>718.8</ele>
        <time>2025-10-24T13:18:32.168Z</time>
      </trkpt>
      <trkpt lat="43.61444" lon="6.31015">
        <ele>718.9</ele>
        <time>2025-10-24T13:18:40.183Z</time>
      </trkpt>
      <trkpt lat="43.61448" lon="6.3102">
        <ele>718.9</ele>
        <time>2025-10-24T13:18:46.123Z</time>
      </trkpt>
      <trkpt lat="43.61451" lon="6.31025">
        <ele>718.7</ele>
        <time>2025-10-24T13:18:52.064Z</time>
      </trkpt>
      <trkpt lat="43.61457" lon="6.31031">
        <ele>719</ele>
        <time>2025-10-24T13:19:01.396Z</time>
      </trkpt>
      <trkpt lat="43.61462" lon="6.31036">
        <ele>719.4</ele>
        <time>2025-10-24T13:19:12.185Z</time>
      </trkpt>
      <trkpt lat="43.61468" lon="6.31042">
        <ele>719.8</ele>
        <time>2025-10-24T13:19:21.971Z</time>
      </trkpt>
      <trkpt lat="43.61473" lon="6.31047">
        <ele>720.1</ele>
        <time>2025-10-24T13:19:32.242Z</time>
      </trkpt>
      <trkpt lat="43.6148" lon="6.3105">
        <ele>721.1</ele>
        <time>2025-10-24T13:19:46.760Z</time>
      </trkpt>
      <trkpt lat="43.61484" lon="6.31055">
        <ele>721.7</ele>
        <time>2025-10-24T13:19:56.520Z</time>
      </trkpt>
      <trkpt lat="43.61489" lon="6.31065">
        <ele>722.5</ele>
        <time>2025-10-24T13:20:11.350Z</time>
      </trkpt>
      <trkpt lat="43.6149" lon="6.31072">
        <ele>722.6</ele>
        <time>2025-10-24T13:20:18.226Z</time>
      </trkpt>
      <trkpt lat="43.6149" lon="6.3108">
        <ele>722.6</ele>
        <time>2025-10-24T13:20:25.484Z</time>
      </trkpt>
      <trkpt lat="43.61488" lon="6.31086">
        <ele>722.7</ele>
        <time>2025-10-24T13:20:31.881Z</time>
      </trkpt>
      <trkpt lat="43.61482" lon="6.31092">
        <ele>722.9</ele>
        <time>2025-10-24T13:20:42.494Z</time>
      </trkpt>
      <trkpt lat="43.61475" lon="6.31098">
        <ele>723.1</ele>
        <time>2025-10-24T13:20:53.107Z</time>
      </trkpt>
      <trkpt lat="43.6147" lon="6.31106">
        <ele>723.6</ele>
        <time>2025-10-24T13:21:04.931Z</time>
      </trkpt>
      <trkpt lat="43.61467" lon="6.31111">
        <ele>723.8</ele>
        <time>2025-10-24T13:21:11.671Z</time>
      </trkpt>
      <trkpt lat="43.61464" lon="6.31116">
        <ele>723.8</ele>
        <time>2025-10-24T13:21:17.562Z</time>
      </trkpt>
      <trkpt lat="43.61463" lon="6.31124">
        <ele>724</ele>
        <time>2025-10-24T13:21:25.760Z</time>
      </trkpt>
      <trkpt lat="43.61465" lon="6.31131">
        <ele>724.3</ele>
        <time>2025-10-24T13:21:33.897Z</time>
      </trkpt>
      <trkpt lat="43.61468" lon="6.31136">
        <ele>724.6</ele>
        <time>2025-10-24T13:21:41.125Z</time>
      </trkpt>
      <trkpt lat="43.61472" lon="6.31138">
        <ele>725</ele>
        <time>2025-10-24T13:21:48.372Z</time>
      </trkpt>
      <trkpt lat="43.61478" lon="6.31138">
        <ele>725.2</ele>
        <time>2025-10-24T13:21:56.722Z</time>
      </trkpt>
      <trkpt lat="43.61483" lon="6.31139">
        <ele>725.4</ele>
        <time>2025-10-24T13:22:03.230Z</time>
      </trkpt>
      <trkpt lat="43.61487" lon="6.31139">
        <ele>725.5</ele>
        <time>2025-10-24T13:22:09.293Z</time>
      </trkpt>
      <trkpt lat="43.61492" lon="6.31141">
        <ele>725.8</ele>
        <time>2025-10-24T13:22:16.433Z</time>
      </trkpt>
      <trkpt lat="43.61496" lon="6.31142">
        <ele>726.1</ele>
        <time>2025-10-24T13:22:23.574Z</time>
      </trkpt>
      <trkpt lat="43.61501" lon="6.31146">
        <ele>726.5</ele>
        <time>2025-10-24T13:22:32.413Z</time>
      </trkpt>
      <trkpt lat="43.61506" lon="6.31149">
        <ele>726.8</ele>
        <time>2025-10-24T13:22:40.742Z</time>
      </trkpt>
      <trkpt lat="43.61511" lon="6.31152">
        <ele>727</ele>
        <time>2025-10-24T13:22:47.753Z</time>
      </trkpt>
      <trkpt lat="43.61515" lon="6.31155">
        <ele>727.1</ele>
        <time>2025-10-24T13:22:54.322Z</time>
      </trkpt>
      <trkpt lat="43.6152" lon="6.31157">
        <ele>727.1</ele>
        <time>2025-10-24T13:23:00.489Z</time>
      </trkpt>
      <trkpt lat="43.61524" lon="6.3116">
        <ele>727.1</ele>
        <time>2025-10-24T13:23:06.655Z</time>
      </trkpt>
      <trkpt lat="43.61528" lon="6.31164">
        <ele>727</ele>
        <time>2025-10-24T13:23:12.474Z</time>
      </trkpt>
      <trkpt lat="43.61531" lon="6.3117">
        <ele>727.3</ele>
        <time>2025-10-24T13:23:20.404Z</time>
      </trkpt>
      <trkpt lat="43.61532" lon="6.31176">
        <ele>727.6</ele>
        <time>2025-10-24T13:23:27.452Z</time>
      </trkpt>
      <trkpt lat="43.61532" lon="6.31183">
        <ele>727.8</ele>
        <time>2025-10-24T13:23:34.008Z</time>
      </trkpt>
      <trkpt lat="43.61533" lon="6.31189">
        <ele>728</ele>
        <time>2025-10-24T13:23:40.564Z</time>
      </trkpt>
      <trkpt lat="43.61533" lon="6.31195">
        <ele>728.2</ele>
        <time>2025-10-24T13:23:47.119Z</time>
      </trkpt>
      <trkpt lat="43.61534" lon="6.31201">
        <ele>728.2</ele>
        <time>2025-10-24T13:23:52.705Z</time>
      </trkpt>
      <trkpt lat="43.61533" lon="6.31207">
        <ele>728.2</ele>
        <time>2025-10-24T13:23:58.291Z</time>
      </trkpt>
      <trkpt lat="43.61531" lon="6.31213">
        <ele>728.1</ele>
        <time>2025-10-24T13:24:03.915Z</time>
      </trkpt>
      <trkpt lat="43.61525" lon="6.31219">
        <ele>727.9</ele>
        <time>2025-10-24T13:24:12.469Z</time>
      </trkpt>
      <trkpt lat="43.61521" lon="6.31226">
        <ele>727.8</ele>
        <time>2025-10-24T13:24:19.836Z</time>
      </trkpt>
      <trkpt lat="43.61517" lon="6.31232">
        <ele>727.6</ele>
        <time>2025-10-24T13:24:26.855Z</time>
      </trkpt>
      <trkpt lat="43.61513" lon="6.31239">
        <ele>727.5</ele>
        <time>2025-10-24T13:24:34.222Z</time>
      </trkpt>
      <trkpt lat="43.61509" lon="6.31245">
        <ele>727.3</ele>
        <time>2025-10-24T13:24:41.241Z</time>
      </trkpt>
      <trkpt lat="43.61507" lon="6.31253">
        <ele>727.2</ele>
        <time>2025-10-24T13:24:48.547Z</time>
      </trkpt>
      <trkpt lat="43.61505" lon="6.31259">
        <ele>727</ele>
        <time>2025-10-24T13:24:53.833Z</time>
      </trkpt>
      <trkpt lat="43.61503" lon="6.31265">
        <ele>726.7</ele>
        <time>2025-10-24T13:24:59.077Z</time>
      </trkpt>
      <trkpt lat="43.61497" lon="6.31274">
        <ele>726</ele>
        <time>2025-10-24T13:25:08.789Z</time>
      </trkpt>
      <trkpt lat="43.61494" lon="6.31279">
        <ele>725.8</ele>
        <time>2025-10-24T13:25:13.975Z</time>
      </trkpt>
      <trkpt lat="43.61491" lon="6.31284">
        <ele>725.8</ele>
        <time>2025-10-24T13:25:19.867Z</time>
      </trkpt>
      <trkpt lat="43.61487" lon="6.31287">
        <ele>725.6</ele>
        <time>2025-10-24T13:25:25.346Z</time>
      </trkpt>
      <trkpt lat="43.61482" lon="6.3129">
        <ele>725.2</ele>
        <time>2025-10-24T13:25:30.825Z</time>
      </trkpt>
      <trkpt lat="43.61477" lon="6.31292">
        <ele>724.8</ele>
        <time>2025-10-24T13:25:36.480Z</time>
      </trkpt>
      <trkpt lat="43.61472" lon="6.31294">
        <ele>724.4</ele>
        <time>2025-10-24T13:25:42.136Z</time>
      </trkpt>
      <trkpt lat="43.61467" lon="6.31295">
        <ele>724.2</ele>
        <time>2025-10-24T13:25:47.889Z</time>
      </trkpt>
      <trkpt lat="43.61462" lon="6.31297">
        <ele>723.9</ele>
        <time>2025-10-24T13:25:53.545Z</time>
      </trkpt>
      <trkpt lat="43.61455" lon="6.31301">
        <ele>723.5</ele>
        <time>2025-10-24T13:26:01.851Z</time>
      </trkpt>
      <trkpt lat="43.6145" lon="6.31307">
        <ele>723.3</ele>
        <time>2025-10-24T13:26:09.427Z</time>
      </trkpt>
      <trkpt lat="43.61444" lon="6.31313">
        <ele>723.3</ele>
        <time>2025-10-24T13:26:18.710Z</time>
      </trkpt>
      <trkpt lat="43.6144" lon="6.31324">
        <ele>723.5</ele>
        <time>2025-10-24T13:26:30.688Z</time>
      </trkpt>
      <trkpt lat="43.61439" lon="6.31333">
        <ele>723.8</ele>
        <time>2025-10-24T13:26:39.790Z</time>
      </trkpt>
      <trkpt lat="43.61438" lon="6.31341">
        <ele>723.8</ele>
        <time>2025-10-24T13:26:47.603Z</time>
      </trkpt>
      <trkpt lat="43.61437" lon="6.31353">
        <ele>723.7</ele>
        <time>2025-10-24T13:26:58.185Z</time>
      </trkpt>
      <trkpt lat="43.61437" lon="6.31353">
        <ele>723.7</ele>
        <time>2025-10-24T13:26:58.185Z</time>
      </trkpt>
      <trkpt lat="43.61437" lon="6.31353">
        <ele>723.7</ele>
        <time>2025-10-24T13:26:58.185Z</time>
      </trkpt>
      <trkpt lat="43.61437" lon="6.31362">
        <ele>723.8</ele>
        <time>2025-10-24T13:27:06.750Z</time>
      </trkpt>
      <trkpt lat="43.61437" lon="6.31371">
        <ele>724</ele>
        <time>2025-10-24T13:27:15.747Z</time>
      </trkpt>
      <trkpt lat="43.61437" lon="6.3138">
        <ele>724.2</ele>
        <time>2025-10-24T13:27:24.743Z</time>
      </trkpt>
      <trkpt lat="43.61436" lon="6.31389">
        <ele>724.4</ele>
        <time>2025-10-24T13:27:33.740Z</time>
      </trkpt>
      <trkpt lat="43.61436" lon="6.31398">
        <ele>724.4</ele>
        <time>2025-10-24T13:27:41.912Z</time>
      </trkpt>
      <trkpt lat="43.61437" lon="6.31405">
        <ele>724.5</ele>
        <time>2025-10-24T13:27:48.294Z</time>
      </trkpt>
      <trkpt lat="43.61437" lon="6.31412">
        <ele>724.5</ele>
        <time>2025-10-24T13:27:55.078Z</time>
      </trkpt>
      <trkpt lat="43.61438" lon="6.31419">
        <ele>724.6</ele>
        <time>2025-10-24T13:28:01.954Z</time>
      </trkpt>
      <trkpt lat="43.61437" lon="6.31426">
        <ele>724.6</ele>
        <time>2025-10-24T13:28:08.427Z</time>
      </trkpt>
      <trkpt lat="43.61434" lon="6.31432">
        <ele>724.7</ele>
        <time>2025-10-24T13:28:14.675Z</time>
      </trkpt>
      <trkpt lat="43.61431" lon="6.31437">
        <ele>724.7</ele>
        <time>2025-10-24T13:28:21.325Z</time>
      </trkpt>
      <trkpt lat="43.61426" lon="6.31444">
        <ele>725</ele>
        <time>2025-10-24T13:28:31.849Z</time>
      </trkpt>
      <trkpt lat="43.6142" lon="6.31451">
        <ele>725.5</ele>
        <time>2025-10-24T13:28:43.355Z</time>
      </trkpt>
      <trkpt lat="43.61415" lon="6.31458">
        <ele>725.9</ele>
        <time>2025-10-24T13:28:53.879Z</time>
      </trkpt>
      <trkpt lat="43.6141" lon="6.31465">
        <ele>726</ele>
        <time>2025-10-24T13:29:03.956Z</time>
      </trkpt>
      <trkpt lat="43.61404" lon="6.31472">
        <ele>726.1</ele>
        <time>2025-10-24T13:29:13.610Z</time>
      </trkpt>
      <trkpt lat="43.61399" lon="6.31479">
        <ele>726.2</ele>
        <time>2025-10-24T13:29:23.265Z</time>
      </trkpt>
      <trkpt lat="43.61393" lon="6.31486">
        <ele>726.3</ele>
        <time>2025-10-24T13:29:32.920Z</time>
      </trkpt>
      <trkpt lat="43.61388" lon="6.31493">
        <ele>726.4</ele>
        <time>2025-10-24T13:29:42.575Z</time>
      </trkpt>
      <trkpt lat="43.61384" lon="6.31499">
        <ele>726.6</ele>
        <time>2025-10-24T13:29:51.101Z</time>
      </trkpt>
      <trkpt lat="43.6138" lon="6.31505">
        <ele>726.7</ele>
        <time>2025-10-24T13:29:58.798Z</time>
      </trkpt>
      <trkpt lat="43.61375" lon="6.31511">
        <ele>726.6</ele>
        <time>2025-10-24T13:30:06.495Z</time>
      </trkpt>
      <trkpt lat="43.61371" lon="6.31518">
        <ele>726.6</ele>
        <time>2025-10-24T13:30:14.192Z</time>
      </trkpt>
      <trkpt lat="43.61367" lon="6.31524">
        <ele>726.5</ele>
        <time>2025-10-24T13:30:21.169Z</time>
      </trkpt>
      <trkpt lat="43.61363" lon="6.3153">
        <ele>726.4</ele>
        <time>2025-10-24T13:30:28.494Z</time>
      </trkpt>
      <trkpt lat="43.61358" lon="6.31536">
        <ele>726.5</ele>
        <time>2025-10-24T13:30:37.020Z</time>
      </trkpt>
      <trkpt lat="43.61354" lon="6.31542">
        <ele>726.8</ele>
        <time>2025-10-24T13:30:46.008Z</time>
      </trkpt>
      <trkpt lat="43.6135" lon="6.31547">
        <ele>727</ele>
        <time>2025-10-24T13:30:53.077Z</time>
      </trkpt>
      <trkpt lat="43.61347" lon="6.31551">
        <ele>727.2</ele>
        <time>2025-10-24T13:30:59.705Z</time>
      </trkpt>
      <trkpt lat="43.61343" lon="6.31556">
        <ele>727.4</ele>
        <time>2025-10-24T13:31:06.774Z</time>
      </trkpt>
      <trkpt lat="43.61339" lon="6.3156">
        <ele>727.4</ele>
        <time>2025-10-24T13:31:13.402Z</time>
      </trkpt>
      <trkpt lat="43.61333" lon="6.31567">
        <ele>727.4</ele>
        <time>2025-10-24T13:31:23.007Z</time>
      </trkpt>
      <trkpt lat="43.61328" lon="6.31574">
        <ele>727.4</ele>
        <time>2025-10-24T13:31:32.612Z</time>
      </trkpt>
      <trkpt lat="43.61322" lon="6.31581">
        <ele>727.5</ele>
        <time>2025-10-24T13:31:42.614Z</time>
      </trkpt>
      <trkpt lat="43.61316" lon="6.31588">
        <ele>727.4</ele>
        <time>2025-10-24T13:31:51.843Z</time>
      </trkpt>
      <trkpt lat="43.61312" lon="6.31591">
        <ele>727.3</ele>
        <time>2025-10-24T13:31:57.455Z</time>
      </trkpt>
      <trkpt lat="43.61308" lon="6.31594">
        <ele>727.1</ele>
        <time>2025-10-24T13:32:02.730Z</time>
      </trkpt>
      <trkpt lat="43.61303" lon="6.31597">
        <ele>726.9</ele>
        <time>2025-10-24T13:32:08.004Z</time>
      </trkpt>
      <trkpt lat="43.61299" lon="6.316">
        <ele>726.8</ele>
        <time>2025-10-24T13:32:13.617Z</time>
      </trkpt>
      <trkpt lat="43.61294" lon="6.31604">
        <ele>726.6</ele>
        <time>2025-10-24T13:32:19.758Z</time>
      </trkpt>
      <trkpt lat="43.6129" lon="6.31608">
        <ele>726.4</ele>
        <time>2025-10-24T13:32:25.900Z</time>
      </trkpt>
      <trkpt lat="43.61285" lon="6.31611">
        <ele>726.3</ele>
        <time>2025-10-24T13:32:32.385Z</time>
      </trkpt>
      <trkpt lat="43.6128" lon="6.31615">
        <ele>726.1</ele>
        <time>2025-10-24T13:32:38.527Z</time>
      </trkpt>
      <trkpt lat="43.61275" lon="6.31619">
        <ele>725.9</ele>
        <time>2025-10-24T13:32:45.051Z</time>
      </trkpt>
      <trkpt lat="43.6127" lon="6.31623">
        <ele>725.7</ele>
        <time>2025-10-24T13:32:51.575Z</time>
      </trkpt>
      <trkpt lat="43.61265" lon="6.31627">
        <ele>725.5</ele>
        <time>2025-10-24T13:32:58.098Z</time>
      </trkpt>
      <trkpt lat="43.6126" lon="6.31631">
        <ele>725.4</ele>
        <time>2025-10-24T13:33:04.967Z</time>
      </trkpt>
      <trkpt lat="43.61256" lon="6.31635">
        <ele>725.2</ele>
        <time>2025-10-24T13:33:10.577Z</time>
      </trkpt>
      <trkpt lat="43.61252" lon="6.31639">
        <ele>725.1</ele>
        <time>2025-10-24T13:33:16.527Z</time>
      </trkpt>
      <trkpt lat="43.61247" lon="6.31642">
        <ele>725</ele>
        <time>2025-10-24T13:33:22.477Z</time>
      </trkpt>
      <trkpt lat="43.61243" lon="6.31646">
        <ele>724.9</ele>
        <time>2025-10-24T13:33:28.428Z</time>
      </trkpt>
      <trkpt lat="43.6124" lon="6.3165">
        <ele>724.9</ele>
        <time>2025-10-24T13:33:34.120Z</time>
      </trkpt>
      <trkpt lat="43.61236" lon="6.31654">
        <ele>724.8</ele>
        <time>2025-10-24T13:33:39.445Z</time>
      </trkpt>
      <trkpt lat="43.61233" lon="6.31658">
        <ele>724.7</ele>
        <time>2025-10-24T13:33:44.434Z</time>
      </trkpt>
      <trkpt lat="43.61229" lon="6.31662">
        <ele>724.4</ele>
        <time>2025-10-24T13:33:49.424Z</time>
      </trkpt>
      <trkpt lat="43.61226" lon="6.31669">
        <ele>724.3</ele>
        <time>2025-10-24T13:33:56.046Z</time>
      </trkpt>
      <trkpt lat="43.61223" lon="6.31675">
        <ele>724.3</ele>
        <time>2025-10-24T13:34:03.040Z</time>
      </trkpt>
      <trkpt lat="43.61218" lon="6.31682">
        <ele>724.6</ele>
        <time>2025-10-24T13:34:12.467Z</time>
      </trkpt>
      <trkpt lat="43.61213" lon="6.31688">
        <ele>724.8</ele>
        <time>2025-10-24T13:34:22.347Z</time>
      </trkpt>
      <trkpt lat="43.61207" lon="6.31694">
        <ele>725</ele>
        <time>2025-10-24T13:34:32.448Z</time>
      </trkpt>
      <trkpt lat="43.61201" lon="6.317">
        <ele>725</ele>
        <time>2025-10-24T13:34:41.731Z</time>
      </trkpt>
      <trkpt lat="43.61198" lon="6.31704">
        <ele>725</ele>
        <time>2025-10-24T13:34:47.571Z</time>
      </trkpt>
      <trkpt lat="43.61194" lon="6.31709">
        <ele>725</ele>
        <time>2025-10-24T13:34:53.411Z</time>
      </trkpt>
      <trkpt lat="43.61191" lon="6.31713">
        <ele>724.9</ele>
        <time>2025-10-24T13:34:58.883Z</time>
      </trkpt>
      <trkpt lat="43.61187" lon="6.31717">
        <ele>724.7</ele>
        <time>2025-10-24T13:35:04.018Z</time>
      </trkpt>
      <trkpt lat="43.61184" lon="6.31723">
        <ele>724.6</ele>
        <time>2025-10-24T13:35:10.291Z</time>
      </trkpt>
      <trkpt lat="43.6118" lon="6.31728">
        <ele>724.6</ele>
        <time>2025-10-24T13:35:16.934Z</time>
      </trkpt>
      <trkpt lat="43.61178" lon="6.31734">
        <ele>724.6</ele>
        <time>2025-10-24T13:35:23.215Z</time>
      </trkpt>
      <trkpt lat="43.61175" lon="6.3174">
        <ele>724.5</ele>
        <time>2025-10-24T13:35:29.127Z</time>
      </trkpt>
      <trkpt lat="43.61172" lon="6.31748">
        <ele>724.4</ele>
        <time>2025-10-24T13:35:36.883Z</time>
      </trkpt>
      <trkpt lat="43.61168" lon="6.31756">
        <ele>724.1</ele>
        <time>2025-10-24T13:35:44.639Z</time>
      </trkpt>
      <trkpt lat="43.61165" lon="6.31764">
        <ele>723.9</ele>
        <time>2025-10-24T13:35:52.395Z</time>
      </trkpt>
      <trkpt lat="43.61161" lon="6.31772">
        <ele>723.8</ele>
        <time>2025-10-24T13:36:00.502Z</time>
      </trkpt>
      <trkpt lat="43.61155" lon="6.31781">
        <ele>723.7</ele>
        <time>2025-10-24T13:36:10.896Z</time>
      </trkpt>
      <trkpt lat="43.61149" lon="6.31789">
        <ele>723.8</ele>
        <time>2025-10-24T13:36:22.062Z</time>
      </trkpt>
      <trkpt lat="43.61145" lon="6.31792">
        <ele>723.7</ele>
        <time>2025-10-24T13:36:27.398Z</time>
      </trkpt>
      <trkpt lat="43.61138" lon="6.31797">
        <ele>723.7</ele>
        <time>2025-10-24T13:36:37.274Z</time>
      </trkpt>
      <trkpt lat="43.61131" lon="6.31802">
        <ele>723.9</ele>
        <time>2025-10-24T13:36:47.965Z</time>
      </trkpt>
      <trkpt lat="43.61123" lon="6.31806">
        <ele>724</ele>
        <time>2025-10-24T13:36:59.318Z</time>
      </trkpt>
      <trkpt lat="43.61115" lon="6.3181">
        <ele>724</ele>
        <time>2025-10-24T13:37:10.274Z</time>
      </trkpt>
      <trkpt lat="43.61111" lon="6.31812">
        <ele>724</ele>
        <time>2025-10-24T13:37:15.752Z</time>
      </trkpt>
      <trkpt lat="43.61106" lon="6.31814">
        <ele>724</ele>
        <time>2025-10-24T13:37:21.231Z</time>
      </trkpt>
      <trkpt lat="43.61098" lon="6.31818">
        <ele>724</ele>
        <time>2025-10-24T13:37:32.188Z</time>
      </trkpt>
      <trkpt lat="43.61094" lon="6.31821">
        <ele>724</ele>
        <time>2025-10-24T13:37:38.266Z</time>
      </trkpt>
      <trkpt lat="43.61089" lon="6.31823">
        <ele>724</ele>
        <time>2025-10-24T13:37:44.345Z</time>
      </trkpt>
      <trkpt lat="43.61085" lon="6.31826">
        <ele>724</ele>
        <time>2025-10-24T13:37:50.423Z</time>
      </trkpt>
      <trkpt lat="43.6108" lon="6.31828">
        <ele>724</ele>
        <time>2025-10-24T13:37:56.501Z</time>
      </trkpt>
      <trkpt lat="43.61076" lon="6.31831">
        <ele>724</ele>
        <time>2025-10-24T13:38:02.205Z</time>
      </trkpt>
      <trkpt lat="43.61072" lon="6.31834">
        <ele>724</ele>
        <time>2025-10-24T13:38:07.909Z</time>
      </trkpt>
      <trkpt lat="43.61066" lon="6.31843">
        <ele>724.3</ele>
        <time>2025-10-24T13:38:20.256Z</time>
      </trkpt>
      <trkpt lat="43.61063" lon="6.31849">
        <ele>724.6</ele>
        <time>2025-10-24T13:38:27.539Z</time>
      </trkpt>
      <trkpt lat="43.6106" lon="6.31854">
        <ele>724.7</ele>
        <time>2025-10-24T13:38:34.821Z</time>
      </trkpt>
      <trkpt lat="43.61056" lon="6.3186">
        <ele>725</ele>
        <time>2025-10-24T13:38:42.103Z</time>
      </trkpt>
      <trkpt lat="43.61053" lon="6.31865">
        <ele>725</ele>
        <time>2025-10-24T13:38:48.947Z</time>
      </trkpt>
      <trkpt lat="43.61049" lon="6.31875">
        <ele>725</ele>
        <time>2025-10-24T13:38:59.247Z</time>
      </trkpt>
      <trkpt lat="43.61044" lon="6.31884">
        <ele>725</ele>
        <time>2025-10-24T13:39:09.548Z</time>
      </trkpt>
      <trkpt lat="43.6104" lon="6.31894">
        <ele>725.2</ele>
        <time>2025-10-24T13:39:20.662Z</time>
      </trkpt>
      <trkpt lat="43.61035" lon="6.31903">
        <ele>725.5</ele>
        <time>2025-10-24T13:39:32.217Z</time>
      </trkpt>
      <trkpt lat="43.61033" lon="6.31909">
        <ele>725.7</ele>
        <time>2025-10-24T13:39:38.799Z</time>
      </trkpt>
      <trkpt lat="43.61031" lon="6.31914">
        <ele>725.9</ele>
        <time>2025-10-24T13:39:45.381Z</time>
      </trkpt>
      <trkpt lat="43.61028" lon="6.3192">
        <ele>726</ele>
        <time>2025-10-24T13:39:51.518Z</time>
      </trkpt>
      <trkpt lat="43.61026" lon="6.31925">
        <ele>726</ele>
        <time>2025-10-24T13:39:57.249Z</time>
      </trkpt>
      <trkpt lat="43.61023" lon="6.31935">
        <ele>725.9</ele>
        <time>2025-10-24T13:40:06.278Z</time>
      </trkpt>
      <trkpt lat="43.6102" lon="6.31944">
        <ele>726</ele>
        <time>2025-10-24T13:40:16.079Z</time>
      </trkpt>
      <trkpt lat="43.61017" lon="6.31953">
        <ele>726.2</ele>
        <time>2025-10-24T13:40:25.889Z</time>
      </trkpt>
      <trkpt lat="43.61014" lon="6.31962">
        <ele>726.3</ele>
        <time>2025-10-24T13:40:35.277Z</time>
      </trkpt>
      <trkpt lat="43.61011" lon="6.3197">
        <ele>726.4</ele>
        <time>2025-10-24T13:40:43.850Z</time>
      </trkpt>
      <trkpt lat="43.61007" lon="6.31977">
        <ele>726.6</ele>
        <time>2025-10-24T13:40:52.767Z</time>
      </trkpt>
      <trkpt lat="43.61002" lon="6.31983">
        <ele>726.8</ele>
        <time>2025-10-24T13:41:01.892Z</time>
      </trkpt>
      <trkpt lat="43.60996" lon="6.31987">
        <ele>726.9</ele>
        <time>2025-10-24T13:41:10.640Z</time>
      </trkpt>
      <trkpt lat="43.6099" lon="6.31991">
        <ele>726.9</ele>
        <time>2025-10-24T13:41:18.989Z</time>
      </trkpt>
      <trkpt lat="43.60984" lon="6.31995">
        <ele>726.7</ele>
        <time>2025-10-24T13:41:27.273Z</time>
      </trkpt>
      <trkpt lat="43.60977" lon="6.32">
        <ele>726.3</ele>
        <time>2025-10-24T13:41:35.159Z</time>
      </trkpt>
      <trkpt lat="43.60971" lon="6.32004">
        <ele>726.1</ele>
        <time>2025-10-24T13:41:43.444Z</time>
      </trkpt>
      <trkpt lat="43.60964" lon="6.32008">
        <ele>726.3</ele>
        <time>2025-10-24T13:41:53.276Z</time>
      </trkpt>
      <trkpt lat="43.60958" lon="6.32011">
        <ele>726.4</ele>
        <time>2025-10-24T13:42:01.671Z</time>
      </trkpt>
      <trkpt lat="43.60954" lon="6.32014">
        <ele>726.5</ele>
        <time>2025-10-24T13:42:07.817Z</time>
      </trkpt>
      <trkpt lat="43.6095" lon="6.32018">
        <ele>726.6</ele>
        <time>2025-10-24T13:42:13.962Z</time>
      </trkpt>
      <trkpt lat="43.60946" lon="6.32021">
        <ele>726.8</ele>
        <time>2025-10-24T13:42:20.554Z</time>
      </trkpt>
      <trkpt lat="43.60943" lon="6.32025">
        <ele>726.9</ele>
        <time>2025-10-24T13:42:26.699Z</time>
      </trkpt>
      <trkpt lat="43.60939" lon="6.32028">
        <ele>727</ele>
        <time>2025-10-24T13:42:32.845Z</time>
      </trkpt>
      <trkpt lat="43.60935" lon="6.32031">
        <ele>727.1</ele>
        <time>2025-10-24T13:42:38.990Z</time>
      </trkpt>
      <trkpt lat="43.60931" lon="6.32035">
        <ele>727.1</ele>
        <time>2025-10-24T13:42:44.731Z</time>
      </trkpt>
      <trkpt lat="43.60927" lon="6.32038">
        <ele>727.1</ele>
        <time>2025-10-24T13:42:50.472Z</time>
      </trkpt>
      <trkpt lat="43.6092" lon="6.32041">
        <ele>727.1</ele>
        <time>2025-10-24T13:42:59.656Z</time>
      </trkpt>
      <trkpt lat="43.60915" lon="6.32043">
        <ele>727</ele>
        <time>2025-10-24T13:43:05.698Z</time>
      </trkpt>
      <trkpt lat="43.6091" lon="6.32044">
        <ele>727</ele>
        <time>2025-10-24T13:43:12.110Z</time>
      </trkpt>
      <trkpt lat="43.60903" lon="6.32047">
        <ele>727</ele>
        <time>2025-10-24T13:43:21.294Z</time>
      </trkpt>
      <trkpt lat="43.60898" lon="6.3205">
        <ele>727</ele>
        <time>2025-10-24T13:43:28.126Z</time>
      </trkpt>
      <trkpt lat="43.60893" lon="6.32053">
        <ele>727</ele>
        <time>2025-10-24T13:43:34.957Z</time>
      </trkpt>
      <trkpt lat="43.60888" lon="6.32059">
        <ele>727</ele>
        <time>2025-10-24T13:43:43.258Z</time>
      </trkpt>
      <trkpt lat="43.60883" lon="6.32065">
        <ele>727</ele>
        <time>2025-10-24T13:43:51.558Z</time>
      </trkpt>
      <trkpt lat="43.6088" lon="6.32073">
        <ele>727</ele>
        <time>2025-10-24T13:43:59.654Z</time>
      </trkpt>
      <trkpt lat="43.60876" lon="6.3208">
        <ele>727</ele>
        <time>2025-10-24T13:44:07.750Z</time>
      </trkpt>
      <trkpt lat="43.60873" lon="6.32087">
        <ele>727.1</ele>
        <time>2025-10-24T13:44:15.869Z</time>
      </trkpt>
      <trkpt lat="43.60869" lon="6.32094">
        <ele>727.1</ele>
        <time>2025-10-24T13:44:23.587Z</time>
      </trkpt>
      <trkpt lat="43.60866" lon="6.32101">
        <ele>727.1</ele>
        <time>2025-10-24T13:44:30.581Z</time>
      </trkpt>
      <trkpt lat="43.60863" lon="6.32107">
        <ele>727.1</ele>
        <time>2025-10-24T13:44:37.576Z</time>
      </trkpt>
      <trkpt lat="43.60863" lon="6.32107">
        <ele>727.1</ele>
        <time>2025-10-24T13:44:37.576Z</time>
      </trkpt>
      <trkpt lat="43.60866" lon="6.32109">
        <ele>727.2</ele>
        <time>2025-10-24T13:44:42.162Z</time>
      </trkpt>
      <trkpt lat="43.6087" lon="6.32113">
        <ele>727.3</ele>
        <time>2025-10-24T13:44:48.754Z</time>
      </trkpt>
      <trkpt lat="43.60874" lon="6.32117">
        <ele>727.5</ele>
        <time>2025-10-24T13:44:55.787Z</time>
      </trkpt>
      <trkpt lat="43.60878" lon="6.32121">
        <ele>727.6</ele>
        <time>2025-10-24T13:45:02.391Z</time>
      </trkpt>
      <trkpt lat="43.60883" lon="6.32124">
        <ele>727.8</ele>
        <time>2025-10-24T13:45:09.435Z</time>
      </trkpt>
      <trkpt lat="43.60887" lon="6.32128">
        <ele>727.9</ele>
        <time>2025-10-24T13:45:16.039Z</time>
      </trkpt>
      <trkpt lat="43.60891" lon="6.32131">
        <ele>728.1</ele>
        <time>2025-10-24T13:45:23.084Z</time>
      </trkpt>
      <trkpt lat="43.60895" lon="6.32134">
        <ele>728.4</ele>
        <time>2025-10-24T13:45:30.131Z</time>
      </trkpt>
      <trkpt lat="43.60899" lon="6.32137">
        <ele>728.7</ele>
        <time>2025-10-24T13:45:37.178Z</time>
      </trkpt>
      <trkpt lat="43.60903" lon="6.3214">
        <ele>729</ele>
        <time>2025-10-24T13:45:44.226Z</time>
      </trkpt>
      <trkpt lat="43.60907" lon="6.32143">
        <ele>729.4</ele>
        <time>2025-10-24T13:45:51.817Z</time>
      </trkpt>
      <trkpt lat="43.60912" lon="6.32146">
        <ele>729.7</ele>
        <time>2025-10-24T13:45:59.958Z</time>
      </trkpt>
      <trkpt lat="43.60917" lon="6.32149">
        <ele>730</ele>
        <time>2025-10-24T13:46:08.099Z</time>
      </trkpt>
      <trkpt lat="43.60922" lon="6.32152">
        <ele>730.2</ele>
        <time>2025-10-24T13:46:15.767Z</time>
      </trkpt>
      <trkpt lat="43.60927" lon="6.32155">
        <ele>730.4</ele>
        <time>2025-10-24T13:46:23.435Z</time>
      </trkpt>
      <trkpt lat="43.60931" lon="6.32158">
        <ele>730.5</ele>
        <time>2025-10-24T13:46:29.544Z</time>
      </trkpt>
      <trkpt lat="43.60935" lon="6.32161">
        <ele>730.7</ele>
        <time>2025-10-24T13:46:36.099Z</time>
      </trkpt>
      <trkpt lat="43.60939" lon="6.32164">
        <ele>730.8</ele>
        <time>2025-10-24T13:46:42.208Z</time>
      </trkpt>
      <trkpt lat="43.60943" lon="6.32167">
        <ele>730.9</ele>
        <time>2025-10-24T13:46:48.316Z</time>
      </trkpt>
      <trkpt lat="43.60949" lon="6.32171">
        <ele>731</ele>
        <time>2025-10-24T13:46:56.305Z</time>
      </trkpt>
      <trkpt lat="43.60954" lon="6.32174">
        <ele>731</ele>
        <time>2025-10-24T13:47:03.894Z</time>
      </trkpt>
      <trkpt lat="43.60959" lon="6.32177">
        <ele>731</ele>
        <time>2025-10-24T13:47:09.972Z</time>
      </trkpt>
      <trkpt lat="43.60963" lon="6.32179">
        <ele>731</ele>
        <time>2025-10-24T13:47:16.050Z</time>
      </trkpt>
      <trkpt lat="43.60968" lon="6.32181">
        <ele>731</ele>
        <time>2025-10-24T13:47:22.273Z</time>
      </trkpt>
      <trkpt lat="43.60973" lon="6.32183">
        <ele>731</ele>
        <time>2025-10-24T13:47:28.496Z</time>
      </trkpt>
      <trkpt lat="43.60977" lon="6.32185">
        <ele>731</ele>
        <time>2025-10-24T13:47:34.719Z</time>
      </trkpt>
      <trkpt lat="43.60982" lon="6.32187">
        <ele>731</ele>
        <time>2025-10-24T13:47:40.942Z</time>
      </trkpt>
      <trkpt lat="43.60988" lon="6.3219">
        <ele>731</ele>
        <time>2025-10-24T13:47:48.567Z</time>
      </trkpt>
      <trkpt lat="43.60994" lon="6.32193">
        <ele>731</ele>
        <time>2025-10-24T13:47:56.192Z</time>
      </trkpt>
      <trkpt lat="43.60999" lon="6.32195">
        <ele>731</ele>
        <time>2025-10-24T13:48:03.818Z</time>
      </trkpt>
      <trkpt lat="43.61005" lon="6.32198">
        <ele>731.3</ele>
        <time>2025-10-24T13:48:12.735Z</time>
      </trkpt>
      <trkpt lat="43.61005" lon="6.32198">
        <ele>731.3</ele>
        <time>2025-10-24T13:48:12.735Z</time>
      </trkpt>
      <trkpt lat="43.6101" lon="6.32201">
        <ele>731.5</ele>
        <time>2025-10-24T13:48:20.237Z</time>
      </trkpt>
      <trkpt lat="43.61015" lon="6.32203">
        <ele>731.7</ele>
        <time>2025-10-24T13:48:27.739Z</time>
      </trkpt>
      <trkpt lat="43.6102" lon="6.32206">
        <ele>731.8</ele>
        <time>2025-10-24T13:48:34.805Z</time>
      </trkpt>
      <trkpt lat="43.61025" lon="6.32208">
        <ele>731.9</ele>
        <time>2025-10-24T13:48:41.870Z</time>
      </trkpt>
      <trkpt lat="43.61031" lon="6.32211">
        <ele>732.1</ele>
        <time>2025-10-24T13:48:50.552Z</time>
      </trkpt>
      <trkpt lat="43.61037" lon="6.32213">
        <ele>732.3</ele>
        <time>2025-10-24T13:48:59.233Z</time>
      </trkpt>
      <trkpt lat="43.61043" lon="6.32216">
        <ele>732.5</ele>
        <time>2025-10-24T13:49:07.915Z</time>
      </trkpt>
      <trkpt lat="43.61049" lon="6.32218">
        <ele>732.8</ele>
        <time>2025-10-24T13:49:17.056Z</time>
      </trkpt>
      <trkpt lat="43.61055" lon="6.32222">
        <ele>733</ele>
        <time>2025-10-24T13:49:26.043Z</time>
      </trkpt>
      <trkpt lat="43.61061" lon="6.32225">
        <ele>733.3</ele>
        <time>2025-10-24T13:49:35.488Z</time>
      </trkpt>
      <trkpt lat="43.61066" lon="6.3223">
        <ele>733.7</ele>
        <time>2025-10-24T13:49:45.010Z</time>
      </trkpt>
      <trkpt lat="43.61071" lon="6.32235">
        <ele>734</ele>
        <time>2025-10-24T13:49:54.035Z</time>
      </trkpt>
      <trkpt lat="43.61077" lon="6.32241">
        <ele>734.4</ele>
        <time>2025-10-24T13:50:04.572Z</time>
      </trkpt>
      <trkpt lat="43.61082" lon="6.32247">
        <ele>734.8</ele>
        <time>2025-10-24T13:50:15.109Z</time>
      </trkpt>
      <trkpt lat="43.61089" lon="6.32254">
        <ele>735.5</ele>
        <time>2025-10-24T13:50:29.188Z</time>
      </trkpt>
      <trkpt lat="43.61096" lon="6.32261">
        <ele>736.1</ele>
        <time>2025-10-24T13:50:42.727Z</time>
      </trkpt>
      <trkpt lat="43.61102" lon="6.32267">
        <ele>736.5</ele>
        <time>2025-10-24T13:50:53.883Z</time>
      </trkpt>
      <trkpt lat="43.61108" lon="6.32274">
        <ele>736.8</ele>
        <time>2025-10-24T13:51:04.565Z</time>
      </trkpt>
      <trkpt lat="43.61114" lon="6.3228">
        <ele>737.3</ele>
        <time>2025-10-24T13:51:16.225Z</time>
      </trkpt>
      <trkpt lat="43.6112" lon="6.32286">
        <ele>738.1</ele>
        <time>2025-10-24T13:51:29.595Z</time>
      </trkpt>
      <trkpt lat="43.61116" lon="6.32289">
        <ele>738.3</ele>
        <time>2025-10-24T13:51:36.700Z</time>
      </trkpt>
      <trkpt lat="43.61111" lon="6.32292">
        <ele>738.5</ele>
        <time>2025-10-24T13:51:43.805Z</time>
      </trkpt>
      <trkpt lat="43.61106" lon="6.32293">
        <ele>738.5</ele>
        <time>2025-10-24T13:51:50.712Z</time>
      </trkpt>
      <trkpt lat="43.611" lon="6.32293">
        <ele>738.4</ele>
        <time>2025-10-24T13:51:57.248Z</time>
      </trkpt>
      <trkpt lat="43.61096" lon="6.32294">
        <ele>738.4</ele>
        <time>2025-10-24T13:52:02.905Z</time>
      </trkpt>
      <trkpt lat="43.61091" lon="6.32294">
        <ele>738.3</ele>
        <time>2025-10-24T13:52:08.195Z</time>
      </trkpt>
      <trkpt lat="43.61087" lon="6.32295">
        <ele>738.3</ele>
        <time>2025-10-24T13:52:13.852Z</time>
      </trkpt>
      <trkpt lat="43.61082" lon="6.32295">
        <ele>738.1</ele>
        <time>2025-10-24T13:52:18.806Z</time>
      </trkpt>
      <trkpt lat="43.61075" lon="6.32297">
        <ele>737.8</ele>
        <time>2025-10-24T13:52:26.574Z</time>
      </trkpt>
      <trkpt lat="43.61068" lon="6.32298">
        <ele>737.4</ele>
        <time>2025-10-24T13:52:34.392Z</time>
      </trkpt>
      <trkpt lat="43.6106" lon="6.32301">
        <ele>737</ele>
        <time>2025-10-24T13:52:44.011Z</time>
      </trkpt>
      <trkpt lat="43.61056" lon="6.32303">
        <ele>736.8</ele>
        <time>2025-10-24T13:52:48.970Z</time>
      </trkpt>
      <trkpt lat="43.61051" lon="6.32304">
        <ele>736.7</ele>
        <time>2025-10-24T13:52:53.929Z</time>
      </trkpt>
      <trkpt lat="43.61047" lon="6.32306">
        <ele>736.7</ele>
        <time>2025-10-24T13:53:00.037Z</time>
      </trkpt>
      <trkpt lat="43.61043" lon="6.32309">
        <ele>736.9</ele>
        <time>2025-10-24T13:53:06.145Z</time>
      </trkpt>
      <trkpt lat="43.61038" lon="6.32311">
        <ele>736.9</ele>
        <time>2025-10-24T13:53:11.849Z</time>
      </trkpt>
      <trkpt lat="43.61034" lon="6.32313">
        <ele>736.9</ele>
        <time>2025-10-24T13:53:17.553Z</time>
      </trkpt>
      <trkpt lat="43.61026" lon="6.32317">
        <ele>736.7</ele>
        <time>2025-10-24T13:53:27.481Z</time>
      </trkpt>
      <trkpt lat="43.61018" lon="6.32321">
        <ele>736.6</ele>
        <time>2025-10-24T13:53:37.766Z</time>
      </trkpt>
      <trkpt lat="43.61012" lon="6.32323">
        <ele>736.3</ele>
        <time>2025-10-24T13:53:44.452Z</time>
      </trkpt>
      <trkpt lat="43.61006" lon="6.32324">
        <ele>736</ele>
        <time>2025-10-24T13:53:51.138Z</time>
      </trkpt>
      <trkpt lat="43.61001" lon="6.32325">
        <ele>735.8</ele>
        <time>2025-10-24T13:53:57.182Z</time>
      </trkpt>
      <trkpt lat="43.60995" lon="6.32325">
        <ele>735.6</ele>
        <time>2025-10-24T13:54:03.718Z</time>
      </trkpt>
      <trkpt lat="43.6099" lon="6.32328">
        <ele>735.7</ele>
        <time>2025-10-24T13:54:11.044Z</time>
      </trkpt>
      <trkpt lat="43.60985" lon="6.32332">
        <ele>735.9</ele>
        <time>2025-10-24T13:54:18.805Z</time>
      </trkpt>
      <trkpt lat="43.6098" lon="6.32335">
        <ele>736.1</ele>
        <time>2025-10-24T13:54:26.566Z</time>
      </trkpt>
      <trkpt lat="43.60975" lon="6.32338">
        <ele>736.2</ele>
        <time>2025-10-24T13:54:33.892Z</time>
      </trkpt>
      <trkpt lat="43.6097" lon="6.32341">
        <ele>736.1</ele>
        <time>2025-10-24T13:54:40.446Z</time>
      </trkpt>
      <trkpt lat="43.60965" lon="6.32345">
        <ele>735.9</ele>
        <time>2025-10-24T13:54:46.656Z</time>
      </trkpt>
      <trkpt lat="43.6096" lon="6.32348">
        <ele>735.6</ele>
        <time>2025-10-24T13:54:52.715Z</time>
      </trkpt>
      <trkpt lat="43.60955" lon="6.32351">
        <ele>735.4</ele>
        <time>2025-10-24T13:54:58.925Z</time>
      </trkpt>
      <trkpt lat="43.60951" lon="6.32354">
        <ele>735.2</ele>
        <time>2025-10-24T13:55:04.579Z</time>
      </trkpt>
      <trkpt lat="43.60946" lon="6.32358">
        <ele>735</ele>
        <time>2025-10-24T13:55:10.232Z</time>
      </trkpt>
      <trkpt lat="43.60942" lon="6.32361">
        <ele>735</ele>
        <time>2025-10-24T13:55:16.596Z</time>
      </trkpt>
      <trkpt lat="43.60937" lon="6.32364">
        <ele>735.1</ele>
        <time>2025-10-24T13:55:23.362Z</time>
      </trkpt>
      <trkpt lat="43.60934" lon="6.3237">
        <ele>735.2</ele>
        <time>2025-10-24T13:55:30.013Z</time>
      </trkpt>
      <trkpt lat="43.60931" lon="6.32375">
        <ele>735.3</ele>
        <time>2025-10-24T13:55:36.664Z</time>
      </trkpt>
      <trkpt lat="43.60931" lon="6.32375">
        <ele>735.3</ele>
        <time>2025-10-24T13:55:36.664Z</time>
      </trkpt>
      <trkpt lat="43.60931" lon="6.32375">
        <ele>735.3</ele>
        <time>2025-10-24T13:55:36.664Z</time>
      </trkpt>
      <trkpt lat="43.60937" lon="6.32384">
        <ele>735.6</ele>
        <time>2025-10-24T13:55:48.601Z</time>
      </trkpt>
      <trkpt lat="43.60942" lon="6.32393">
        <ele>736</ele>
        <time>2025-10-24T13:56:01.000Z</time>
      </trkpt>
      <trkpt lat="43.60948" lon="6.32397">
        <ele>736.5</ele>
        <time>2025-10-24T13:56:11.546Z</time>
      </trkpt>
      <trkpt lat="43.60954" lon="6.32401">
        <ele>737</ele>
        <time>2025-10-24T13:56:22.091Z</time>
      </trkpt>
      <trkpt lat="43.6096" lon="6.32404">
        <ele>737.4</ele>
        <time>2025-10-24T13:56:32.113Z</time>
      </trkpt>
      <trkpt lat="43.60966" lon="6.32408">
        <ele>737.7</ele>
        <time>2025-10-24T13:56:41.647Z</time>
      </trkpt>
      <trkpt lat="43.60972" lon="6.32412">
        <ele>738</ele>
        <time>2025-10-24T13:56:50.901Z</time>
      </trkpt>
      <trkpt lat="43.60978" lon="6.32416">
        <ele>738.4</ele>
        <time>2025-10-24T13:57:00.648Z</time>
      </trkpt>
      <trkpt lat="43.60983" lon="6.32419">
        <ele>738.8</ele>
        <time>2025-10-24T13:57:10.395Z</time>
      </trkpt>
      <trkpt lat="43.60989" lon="6.32423">
        <ele>739.3</ele>
        <time>2025-10-24T13:57:20.671Z</time>
      </trkpt>
      <trkpt lat="43.60995" lon="6.32426">
        <ele>739.7</ele>
        <time>2025-10-24T13:57:29.731Z</time>
      </trkpt>
      <trkpt lat="43.61" lon="6.32428">
        <ele>740</ele>
        <time>2025-10-24T13:57:38.287Z</time>
      </trkpt>
      <trkpt lat="43.61004" lon="6.32432">
        <ele>740.4</ele>
        <time>2025-10-24T13:57:46.332Z</time>
      </trkpt>
      <trkpt lat="43.61008" lon="6.32436">
        <ele>740.8</ele>
        <time>2025-10-24T13:57:54.377Z</time>
      </trkpt>
      <trkpt lat="43.61014" lon="6.32443">
        <ele>741.5</ele>
        <time>2025-10-24T13:58:07.534Z</time>
      </trkpt>
      <trkpt lat="43.61016" lon="6.32449">
        <ele>741.9</ele>
        <time>2025-10-24T13:58:14.634Z</time>
      </trkpt>
      <trkpt lat="43.61017" lon="6.32455">
        <ele>742.2</ele>
        <time>2025-10-24T13:58:22.278Z</time>
      </trkpt>
      <trkpt lat="43.61017" lon="6.32465">
        <ele>742.6</ele>
        <time>2025-10-24T13:58:33.098Z</time>
      </trkpt>
      <trkpt lat="43.61017" lon="6.32477">
        <ele>742.7</ele>
        <time>2025-10-24T13:58:44.381Z</time>
      </trkpt>
      <trkpt lat="43.61014" lon="6.32485">
        <ele>742.3</ele>
        <time>2025-10-24T13:58:51.534Z</time>
      </trkpt>
      <trkpt lat="43.61011" lon="6.3249">
        <ele>741.9</ele>
        <time>2025-10-24T13:58:56.689Z</time>
      </trkpt>
      <trkpt lat="43.61008" lon="6.32495">
        <ele>741.6</ele>
        <time>2025-10-24T13:59:01.845Z</time>
      </trkpt>
      <trkpt lat="43.61003" lon="6.32501">
        <ele>741.2</ele>
        <time>2025-10-24T13:59:08.853Z</time>
      </trkpt>
      <trkpt lat="43.60998" lon="6.32506">
        <ele>740.9</ele>
        <time>2025-10-24T13:59:15.862Z</time>
      </trkpt>
      <trkpt lat="43.60993" lon="6.32511">
        <ele>740.6</ele>
        <time>2025-10-24T13:59:22.406Z</time>
      </trkpt>
      <trkpt lat="43.60988" lon="6.32515">
        <ele>740.4</ele>
        <time>2025-10-24T13:59:29.166Z</time>
      </trkpt>
      <trkpt lat="43.60983" lon="6.3252">
        <ele>740.2</ele>
        <time>2025-10-24T13:59:35.926Z</time>
      </trkpt>
      <trkpt lat="43.60978" lon="6.32524">
        <ele>740.1</ele>
        <time>2025-10-24T13:59:43.032Z</time>
      </trkpt>
      <trkpt lat="43.60973" lon="6.32529">
        <ele>740.1</ele>
        <time>2025-10-24T13:59:50.670Z</time>
      </trkpt>
      <trkpt lat="43.60967" lon="6.32533">
        <ele>740</ele>
        <time>2025-10-24T13:59:58.681Z</time>
      </trkpt>
      <trkpt lat="43.60962" lon="6.32539">
        <ele>740.2</ele>
        <time>2025-10-24T14:00:07.806Z</time>
      </trkpt>
      <trkpt lat="43.60959" lon="6.32544">
        <ele>740.4</ele>
        <time>2025-10-24T14:00:14.546Z</time>
      </trkpt>
      <trkpt lat="43.60959" lon="6.32544">
        <ele>740.4</ele>
        <time>2025-10-24T14:00:14.546Z</time>
      </trkpt>
      <trkpt lat="43.60959" lon="6.32544">
        <ele>740.4</ele>
        <time>2025-10-24T14:00:14.546Z</time>
      </trkpt>
      <trkpt lat="43.6096" lon="6.32549">
        <ele>740.7</ele>
        <time>2025-10-24T14:00:20.641Z</time>
      </trkpt>
      <trkpt lat="43.60963" lon="6.32554">
        <ele>740.9</ele>
        <time>2025-10-24T14:00:27.381Z</time>
      </trkpt>
      <trkpt lat="43.60963" lon="6.32559">
        <ele>741.2</ele>
        <time>2025-10-24T14:00:33.317Z</time>
      </trkpt>
      <trkpt lat="43.60965" lon="6.32562">
        <ele>741.4</ele>
        <time>2025-10-24T14:00:37.916Z</time>
      </trkpt>
      <trkpt lat="43.6097" lon="6.32568">
        <ele>741.5</ele>
        <time>2025-10-24T14:00:46.615Z</time>
      </trkpt>
      <trkpt lat="43.6097" lon="6.32579">
        <ele>742</ele>
        <time>2025-10-24T14:00:58.818Z</time>
      </trkpt>
      <trkpt lat="43.6097" lon="6.32586">
        <ele>742.5</ele>
        <time>2025-10-24T14:01:06.591Z</time>
      </trkpt>
      <trkpt lat="43.6097" lon="6.32592">
        <ele>743.1</ele>
        <time>2025-10-24T14:01:16.344Z</time>
      </trkpt>
      <trkpt lat="43.60967" lon="6.32603">
        <ele>744.6</ele>
        <time>2025-10-24T14:01:35.903Z</time>
      </trkpt>
      <trkpt lat="43.60965" lon="6.32611">
        <ele>745.8</ele>
        <time>2025-10-24T14:01:51.091Z</time>
      </trkpt>
      <trkpt lat="43.60966" lon="6.32618">
        <ele>746.5</ele>
        <time>2025-10-24T14:02:01.289Z</time>
      </trkpt>
      <trkpt lat="43.60965" lon="6.32626">
        <ele>747.5</ele>
        <time>2025-10-24T14:02:14.487Z</time>
      </trkpt>
      <trkpt lat="43.60965" lon="6.32638">
        <ele>748.9</ele>
        <time>2025-10-24T14:02:33.344Z</time>
      </trkpt>
      <trkpt lat="43.60967" lon="6.32644">
        <ele>749.6</ele>
        <time>2025-10-24T14:02:43.169Z</time>
      </trkpt>
      <trkpt lat="43.60969" lon="6.3265">
        <ele>750.2</ele>
        <time>2025-10-24T14:02:52.273Z</time>
      </trkpt>
      <trkpt lat="43.60971" lon="6.32656">
        <ele>750.7</ele>
        <time>2025-10-24T14:03:00.725Z</time>
      </trkpt>
      <trkpt lat="43.60968" lon="6.3266">
        <ele>751.9</ele>
        <time>2025-10-24T14:03:15.729Z</time>
      </trkpt>
      <trkpt lat="43.60967" lon="6.32665">
        <ele>752.9</ele>
        <time>2025-10-24T14:03:28.089Z</time>
      </trkpt>
      <trkpt lat="43.60969" lon="6.32669">
        <ele>753</ele>
        <time>2025-10-24T14:03:32.910Z</time>
      </trkpt>
      <trkpt lat="43.6097" lon="6.32676">
        <ele>753.8</ele>
        <time>2025-10-24T14:03:43.862Z</time>
      </trkpt>
      <trkpt lat="43.60969" lon="6.32682">
        <ele>754.8</ele>
        <time>2025-10-24T14:03:56.229Z</time>
      </trkpt>
      <trkpt lat="43.60965" lon="6.32683">
        <ele>755.6</ele>
        <time>2025-10-24T14:04:06.342Z</time>
      </trkpt>
      <trkpt lat="43.60961" lon="6.32687">
        <ele>756.8</ele>
        <time>2025-10-24T14:04:21.114Z</time>
      </trkpt>
      <trkpt lat="43.6096" lon="6.32692">
        <ele>757.5</ele>
        <time>2025-10-24T14:04:30.088Z</time>
      </trkpt>
      <trkpt lat="43.60956" lon="6.327">
        <ele>758.9</ele>
        <time>2025-10-24T14:04:47.745Z</time>
      </trkpt>
      <trkpt lat="43.60952" lon="6.32706">
        <ele>760</ele>
        <time>2025-10-24T14:05:01.849Z</time>
      </trkpt>
      <trkpt lat="43.60957" lon="6.32715">
        <ele>760.3</ele>
        <time>2025-10-24T14:05:13.396Z</time>
      </trkpt>
      <trkpt lat="43.6096" lon="6.32721">
        <ele>760.7</ele>
        <time>2025-10-24T14:05:21.502Z</time>
      </trkpt>
      <trkpt lat="43.60963" lon="6.32727">
        <ele>761.1</ele>
        <time>2025-10-24T14:05:29.607Z</time>
      </trkpt>
      <trkpt lat="43.60965" lon="6.32732">
        <ele>761.5</ele>
        <time>2025-10-24T14:05:37.713Z</time>
      </trkpt>
      <trkpt lat="43.60968" lon="6.32738">
        <ele>761.9</ele>
        <time>2025-10-24T14:05:45.819Z</time>
      </trkpt>
      <trkpt lat="43.60971" lon="6.32745">
        <ele>762.5</ele>
        <time>2025-10-24T14:05:55.507Z</time>
      </trkpt>
      <trkpt lat="43.60973" lon="6.32751">
        <ele>763</ele>
        <time>2025-10-24T14:06:04.580Z</time>
      </trkpt>
      <trkpt lat="43.60978" lon="6.3276">
        <ele>763.1</ele>
        <time>2025-10-24T14:06:15.269Z</time>
      </trkpt>
      <trkpt lat="43.60982" lon="6.32767">
        <ele>762.9</ele>
        <time>2025-10-24T14:06:22.638Z</time>
      </trkpt>
      <trkpt lat="43.60983" lon="6.32773">
        <ele>762.7</ele>
        <time>2025-10-24T14:06:27.526Z</time>
      </trkpt>
      <trkpt lat="43.60985" lon="6.32781">
        <ele>762.1</ele>
        <time>2025-10-24T14:06:34.245Z</time>
      </trkpt>
      <trkpt lat="43.60986" lon="6.32787">
        <ele>761.2</ele>
        <time>2025-10-24T14:06:39.133Z</time>
      </trkpt>
      <trkpt lat="43.60989" lon="6.32795">
        <ele>759.9</ele>
        <time>2025-10-24T14:06:46.286Z</time>
      </trkpt>
      <trkpt lat="43.60992" lon="6.32801">
        <ele>758.9</ele>
        <time>2025-10-24T14:06:52.075Z</time>
      </trkpt>
      <trkpt lat="43.60995" lon="6.32807">
        <ele>758.1</ele>
        <time>2025-10-24T14:06:57.863Z</time>
      </trkpt>
      <trkpt lat="43.60996" lon="6.32812">
        <ele>757.8</ele>
        <time>2025-10-24T14:07:01.982Z</time>
      </trkpt>
      <trkpt lat="43.60996" lon="6.32818">
        <ele>757.5</ele>
        <time>2025-10-24T14:07:06.745Z</time>
      </trkpt>
      <trkpt lat="43.6099" lon="6.32827">
        <ele>756.8</ele>
        <time>2025-10-24T14:07:16.458Z</time>
      </trkpt>
      <trkpt lat="43.60986" lon="6.32832">
        <ele>756.1</ele>
        <time>2025-10-24T14:07:22.115Z</time>
      </trkpt>
      <trkpt lat="43.60982" lon="6.32836">
        <ele>755.7</ele>
        <time>2025-10-24T14:07:27.772Z</time>
      </trkpt>
      <trkpt lat="43.60975" lon="6.32842">
        <ele>755</ele>
        <time>2025-10-24T14:07:36.805Z</time>
      </trkpt>
      <trkpt lat="43.60969" lon="6.32845">
        <ele>754.6</ele>
        <time>2025-10-24T14:07:43.802Z</time>
      </trkpt>
      <trkpt lat="43.60965" lon="6.32848">
        <ele>754.5</ele>
        <time>2025-10-24T14:07:49.138Z</time>
      </trkpt>
      <trkpt lat="43.60961" lon="6.32853">
        <ele>754.1</ele>
        <time>2025-10-24T14:07:55.053Z</time>
      </trkpt>
      <trkpt lat="43.60957" lon="6.32862">
        <ele>753.4</ele>
        <time>2025-10-24T14:08:03.438Z</time>
      </trkpt>
      <trkpt lat="43.60953" lon="6.32873">
        <ele>752.7</ele>
        <time>2025-10-24T14:08:13.210Z</time>
      </trkpt>
      <trkpt lat="43.6095" lon="6.32878">
        <ele>752.2</ele>
        <time>2025-10-24T14:08:18.545Z</time>
      </trkpt>
      <trkpt lat="43.60947" lon="6.32883">
        <ele>751.7</ele>
        <time>2025-10-24T14:08:23.879Z</time>
      </trkpt>
      <trkpt lat="43.60943" lon="6.32888">
        <ele>751.1</ele>
        <time>2025-10-24T14:08:29.214Z</time>
      </trkpt>
      <trkpt lat="43.6094" lon="6.32893">
        <ele>750.9</ele>
        <time>2025-10-24T14:08:34.603Z</time>
      </trkpt>
      <trkpt lat="43.60938" lon="6.329">
        <ele>750.6</ele>
        <time>2025-10-24T14:08:40.577Z</time>
      </trkpt>
      <trkpt lat="43.60936" lon="6.32907">
        <ele>750.3</ele>
        <time>2025-10-24T14:08:46.552Z</time>
      </trkpt>
      <trkpt lat="43.60934" lon="6.32914">
        <ele>750.1</ele>
        <time>2025-10-24T14:08:52.517Z</time>
      </trkpt>
      <trkpt lat="43.60931" lon="6.3292">
        <ele>749.9</ele>
        <time>2025-10-24T14:08:58.482Z</time>
      </trkpt>
      <trkpt lat="43.60928" lon="6.3293">
        <ele>749.3</ele>
        <time>2025-10-24T14:09:06.945Z</time>
      </trkpt>
      <trkpt lat="43.60924" lon="6.32939">
        <ele>748.4</ele>
        <time>2025-10-24T14:09:15.407Z</time>
      </trkpt>
      <trkpt lat="43.60922" lon="6.32945">
        <ele>747.7</ele>
        <time>2025-10-24T14:09:20.472Z</time>
      </trkpt>
      <trkpt lat="43.6092" lon="6.32951">
        <ele>746.8</ele>
        <time>2025-10-24T14:09:25.536Z</time>
      </trkpt>
      <trkpt lat="43.60918" lon="6.32956">
        <ele>746</ele>
        <time>2025-10-24T14:09:30.601Z</time>
      </trkpt>
      <trkpt lat="43.60916" lon="6.32962">
        <ele>745.1</ele>
        <time>2025-10-24T14:09:35.665Z</time>
      </trkpt>
      <trkpt lat="43.60914" lon="6.3297">
        <ele>744.2</ele>
        <time>2025-10-24T14:09:42.220Z</time>
      </trkpt>
      <trkpt lat="43.60911" lon="6.32977">
        <ele>743.8</ele>
        <time>2025-10-24T14:09:48.776Z</time>
      </trkpt>
      <trkpt lat="43.60909" lon="6.32989">
        <ele>743.2</ele>
        <time>2025-10-24T14:09:58.552Z</time>
      </trkpt>
      <trkpt lat="43.60909" lon="6.32996">
        <ele>742.9</ele>
        <time>2025-10-24T14:10:04.109Z</time>
      </trkpt>
      <trkpt lat="43.60907" lon="6.33004">
        <ele>742.6</ele>
        <time>2025-10-24T14:10:10.829Z</time>
      </trkpt>
      <trkpt lat="43.60904" lon="6.33006">
        <ele>742.5</ele>
        <time>2025-10-24T14:10:14.641Z</time>
      </trkpt>
      <trkpt lat="43.60899" lon="6.33011">
        <ele>742</ele>
        <time>2025-10-24T14:10:21.528Z</time>
      </trkpt>
      <trkpt lat="43.60894" lon="6.33017">
        <ele>741.3</ele>
        <time>2025-10-24T14:10:28.415Z</time>
      </trkpt>
      <trkpt lat="43.60889" lon="6.33022">
        <ele>740.4</ele>
        <time>2025-10-24T14:10:35.302Z</time>
      </trkpt>
      <trkpt lat="43.60884" lon="6.33027">
        <ele>739.7</ele>
        <time>2025-10-24T14:10:42.189Z</time>
      </trkpt>
      <trkpt lat="43.60877" lon="6.33031">
        <ele>739.4</ele>
        <time>2025-10-24T14:10:50.618Z</time>
      </trkpt>
      <trkpt lat="43.60873" lon="6.33032">
        <ele>739.2</ele>
        <time>2025-10-24T14:10:55.568Z</time>
      </trkpt>
      <trkpt lat="43.60868" lon="6.33032">
        <ele>738.8</ele>
        <time>2025-10-24T14:11:00.518Z</time>
      </trkpt>
      <trkpt lat="43.60865" lon="6.3303">
        <ele>738.4</ele>
        <time>2025-10-24T14:11:04.171Z</time>
      </trkpt>
      <trkpt lat="43.60862" lon="6.33026">
        <ele>738.1</ele>
        <time>2025-10-24T14:11:08.743Z</time>
      </trkpt>
      <trkpt lat="43.6086" lon="6.33021">
        <ele>738.1</ele>
        <time>2025-10-24T14:11:14.635Z</time>
      </trkpt>
      <trkpt lat="43.60857" lon="6.33015">
        <ele>738</ele>
        <time>2025-10-24T14:11:20.159Z</time>
      </trkpt>
      <trkpt lat="43.60854" lon="6.33006">
        <ele>738</ele>
        <time>2025-10-24T14:11:29.149Z</time>
      </trkpt>
      <trkpt lat="43.60852" lon="6.33002">
        <ele>737.9</ele>
        <time>2025-10-24T14:11:33.196Z</time>
      </trkpt>
      <trkpt lat="43.60848" lon="6.32999">
        <ele>737.7</ele>
        <time>2025-10-24T14:11:38.197Z</time>
      </trkpt>
      <trkpt lat="43.60843" lon="6.32998">
        <ele>737.2</ele>
        <time>2025-10-24T14:11:43.736Z</time>
      </trkpt>
      <trkpt lat="43.60839" lon="6.33">
        <ele>736.6</ele>
        <time>2025-10-24T14:11:48.401Z</time>
      </trkpt>
      <trkpt lat="43.60836" lon="6.33003">
        <ele>736.2</ele>
        <time>2025-10-24T14:11:52.462Z</time>
      </trkpt>
      <trkpt lat="43.60832" lon="6.33012">
        <ele>735.7</ele>
        <time>2025-10-24T14:12:00.846Z</time>
      </trkpt>
      <trkpt lat="43.60829" lon="6.33018">
        <ele>735.6</ele>
        <time>2025-10-24T14:12:07.120Z</time>
      </trkpt>
      <trkpt lat="43.60825" lon="6.33023">
        <ele>735.4</ele>
        <time>2025-10-24T14:12:13.051Z</time>
      </trkpt>
      <trkpt lat="43.60822" lon="6.3303">
        <ele>734.9</ele>
        <time>2025-10-24T14:12:19.509Z</time>
      </trkpt>
      <trkpt lat="43.60819" lon="6.33037">
        <ele>734.7</ele>
        <time>2025-10-24T14:12:26.172Z</time>
      </trkpt>
      <trkpt lat="43.60815" lon="6.33043">
        <ele>734.3</ele>
        <time>2025-10-24T14:12:32.361Z</time>
      </trkpt>
      <trkpt lat="43.60811" lon="6.33048">
        <ele>733.8</ele>
        <time>2025-10-24T14:12:38.550Z</time>
      </trkpt>
      <trkpt lat="43.60806" lon="6.33052">
        <ele>733.3</ele>
        <time>2025-10-24T14:12:44.886Z</time>
      </trkpt>
      <trkpt lat="43.60802" lon="6.33054">
        <ele>733</ele>
        <time>2025-10-24T14:12:50.069Z</time>
      </trkpt>
      <trkpt lat="43.60797" lon="6.33056">
        <ele>732.7</ele>
        <time>2025-10-24T14:12:55.253Z</time>
      </trkpt>
      <trkpt lat="43.60795" lon="6.3305">
        <ele>733.2</ele>
        <time>2025-10-24T14:13:03.705Z</time>
      </trkpt>
      <trkpt lat="43.60792" lon="6.33045">
        <ele>733.6</ele>
        <time>2025-10-24T14:13:11.472Z</time>
      </trkpt>
      <trkpt lat="43.60787" lon="6.33042">
        <ele>734</ele>
        <time>2025-10-24T14:13:20.681Z</time>
      </trkpt>
      <trkpt lat="43.60781" lon="6.33039">
        <ele>734.4</ele>
        <time>2025-10-24T14:13:29.889Z</time>
      </trkpt>
      <trkpt lat="43.60774" lon="6.33038">
        <ele>734.7</ele>
        <time>2025-10-24T14:13:39.980Z</time>
      </trkpt>
      <trkpt lat="43.6077" lon="6.33036">
        <ele>735.2</ele>
        <time>2025-10-24T14:13:47.852Z</time>
      </trkpt>
      <trkpt lat="43.60765" lon="6.33033">
        <ele>735.8</ele>
        <time>2025-10-24T14:13:57.347Z</time>
      </trkpt>
      <trkpt lat="43.60761" lon="6.33031">
        <ele>736.2</ele>
        <time>2025-10-24T14:14:06.215Z</time>
      </trkpt>
      <trkpt lat="43.60756" lon="6.33028">
        <ele>736.8</ele>
        <time>2025-10-24T14:14:15.083Z</time>
      </trkpt>
      <trkpt lat="43.60751" lon="6.33025">
        <ele>737.6</ele>
        <time>2025-10-24T14:14:26.021Z</time>
      </trkpt>
      <trkpt lat="43.60746" lon="6.33024">
        <ele>738.3</ele>
        <time>2025-10-24T14:14:36.106Z</time>
      </trkpt>
      <trkpt lat="43.60741" lon="6.33027">
        <ele>738.4</ele>
        <time>2025-10-24T14:14:43.339Z</time>
      </trkpt>
      <trkpt lat="43.60734" lon="6.33033">
        <ele>738.5</ele>
        <time>2025-10-24T14:14:54.059Z</time>
      </trkpt>
      <trkpt lat="43.60731" lon="6.33035">
        <ele>738.6</ele>
        <time>2025-10-24T14:14:58.646Z</time>
      </trkpt>
      <trkpt lat="43.60728" lon="6.33033">
        <ele>739.3</ele>
        <time>2025-10-24T14:15:07.379Z</time>
      </trkpt>
      <trkpt lat="43.60726" lon="6.33031">
        <ele>739.9</ele>
        <time>2025-10-24T14:15:14.765Z</time>
      </trkpt>
      <trkpt lat="43.60725" lon="6.33027">
        <ele>740.6</ele>
        <time>2025-10-24T14:15:23.407Z</time>
      </trkpt>
      <trkpt lat="43.60725" lon="6.33024">
        <ele>740.6</ele>
        <time>2025-10-24T14:15:26.130Z</time>
      </trkpt>
      <trkpt lat="43.60726" lon="6.33017">
        <ele>740.4</ele>
        <time>2025-10-24T14:15:31.893Z</time>
      </trkpt>
      <trkpt lat="43.6073" lon="6.33013">
        <ele>740.4</ele>
        <time>2025-10-24T14:15:37.585Z</time>
      </trkpt>
      <trkpt lat="43.60733" lon="6.33009">
        <ele>740.6</ele>
        <time>2025-10-24T14:15:44.129Z</time>
      </trkpt>
      <trkpt lat="43.60739" lon="6.33002">
        <ele>741.6</ele>
        <time>2025-10-24T14:15:59.052Z</time>
      </trkpt>
      <trkpt lat="43.60744" lon="6.32994">
        <ele>742.6</ele>
        <time>2025-10-24T14:16:13.975Z</time>
      </trkpt>
      <trkpt lat="43.60749" lon="6.32987">
        <ele>743.4</ele>
        <time>2025-10-24T14:16:25.900Z</time>
      </trkpt>
      <trkpt lat="43.60753" lon="6.3298">
        <ele>744.2</ele>
        <time>2025-10-24T14:16:39.149Z</time>
      </trkpt>
      <trkpt lat="43.60757" lon="6.32972">
        <ele>745.5</ele>
        <time>2025-10-24T14:16:54.766Z</time>
      </trkpt>
      <trkpt lat="43.6076" lon="6.32964">
        <ele>746.4</ele>
        <time>2025-10-24T14:17:08.741Z</time>
      </trkpt>
      <trkpt lat="43.60764" lon="6.32953">
        <ele>747.4</ele>
        <time>2025-10-24T14:17:24.923Z</time>
      </trkpt>
      <trkpt lat="43.60765" lon="6.32941">
        <ele>747.6</ele>
        <time>2025-10-24T14:17:36.694Z</time>
      </trkpt>
      <trkpt lat="43.60766" lon="6.32929">
        <ele>747.5</ele>
        <time>2025-10-24T14:17:47.278Z</time>
      </trkpt>
      <trkpt lat="43.60766" lon="6.32921">
        <ele>747.4</ele>
        <time>2025-10-24T14:17:54.165Z</time>
      </trkpt>
      <trkpt lat="43.60766" lon="6.32913">
        <ele>747.5</ele>
        <time>2025-10-24T14:18:01.825Z</time>
      </trkpt>
      <trkpt lat="43.60765" lon="6.32907">
        <ele>747.7</ele>
        <time>2025-10-24T14:18:08.418Z</time>
      </trkpt>
      <trkpt lat="43.60763" lon="6.329">
        <ele>747.8</ele>
        <time>2025-10-24T14:18:15.452Z</time>
      </trkpt>
      <trkpt lat="43.60761" lon="6.32893">
        <ele>747.8</ele>
        <time>2025-10-24T14:18:22.163Z</time>
      </trkpt>
      <trkpt lat="43.60758" lon="6.32886">
        <ele>747.5</ele>
        <time>2025-10-24T14:18:28.529Z</time>
      </trkpt>
      <trkpt lat="43.60754" lon="6.32878">
        <ele>746.8</ele>
        <time>2025-10-24T14:18:36.248Z</time>
      </trkpt>
      <trkpt lat="43.60752" lon="6.32877">
        <ele>746.4</ele>
        <time>2025-10-24T14:18:38.580Z</time>
      </trkpt>
      <trkpt lat="43.60748" lon="6.32876">
        <ele>745.7</ele>
        <time>2025-10-24T14:18:43.038Z</time>
      </trkpt>
      <trkpt lat="43.60742" lon="6.32873">
        <ele>744.8</ele>
        <time>2025-10-24T14:18:50.034Z</time>
      </trkpt>
      <trkpt lat="43.60739" lon="6.32869">
        <ele>744.4</ele>
        <time>2025-10-24T14:18:54.607Z</time>
      </trkpt>
      <trkpt lat="43.60738" lon="6.32867">
        <ele>744.3</ele>
        <time>2025-10-24T14:18:56.536Z</time>
      </trkpt>
      <trkpt lat="43.60733" lon="6.32867">
        <ele>743.6</ele>
        <time>2025-10-24T14:19:02.019Z</time>
      </trkpt>
      <trkpt lat="43.60729" lon="6.32866">
        <ele>743</ele>
        <time>2025-10-24T14:19:06.476Z</time>
      </trkpt>
      <trkpt lat="43.60723" lon="6.32862">
        <ele>742.1</ele>
        <time>2025-10-24T14:19:13.782Z</time>
      </trkpt>
      <trkpt lat="43.60717" lon="6.32858">
        <ele>741.1</ele>
        <time>2025-10-24T14:19:21.087Z</time>
      </trkpt>
      <trkpt lat="43.60711" lon="6.32856">
        <ele>739.9</ele>
        <time>2025-10-24T14:19:27.855Z</time>
      </trkpt>
      <trkpt lat="43.60704" lon="6.32858">
        <ele>738.5</ele>
        <time>2025-10-24T14:19:35.693Z</time>
      </trkpt>
      <trkpt lat="43.60699" lon="6.32863">
        <ele>737.6</ele>
        <time>2025-10-24T14:19:42.462Z</time>
      </trkpt>
      <trkpt lat="43.60694" lon="6.32873">
        <ele>735.2</ele>
        <time>2025-10-24T14:19:52.110Z</time>
      </trkpt>
      <trkpt lat="43.60691" lon="6.32877">
        <ele>734.1</ele>
        <time>2025-10-24T14:19:56.683Z</time>
      </trkpt>
      <trkpt lat="43.60684" lon="6.32877">
        <ele>732.9</ele>
        <time>2025-10-24T14:20:04.358Z</time>
      </trkpt>
      <trkpt lat="43.60679" lon="6.32874">
        <ele>732.3</ele>
        <time>2025-10-24T14:20:10.335Z</time>
      </trkpt>
      <trkpt lat="43.60678" lon="6.32869">
        <ele>732.4</ele>
        <time>2025-10-24T14:20:15.451Z</time>
      </trkpt>
      <trkpt lat="43.60678" lon="6.32868">
        <ele>732.5</ele>
        <time>2025-10-24T14:20:16.894Z</time>
      </trkpt>
      <trkpt lat="43.60677" lon="6.32862">
        <ele>732.6</ele>
        <time>2025-10-24T14:20:22.886Z</time>
      </trkpt>
      <trkpt lat="43.60678" lon="6.32856">
        <ele>732.3</ele>
        <time>2025-10-24T14:20:28.162Z</time>
      </trkpt>
      <trkpt lat="43.60679" lon="6.32849">
        <ele>731.8</ele>
        <time>2025-10-24T14:20:33.438Z</time>
      </trkpt>
      <trkpt lat="43.60678" lon="6.3284">
        <ele>730.6</ele>
        <time>2025-10-24T14:20:40.667Z</time>
      </trkpt>
      <trkpt lat="43.60677" lon="6.32833">
        <ele>729.6</ele>
        <time>2025-10-24T14:20:46.332Z</time>
      </trkpt>
      <trkpt lat="43.60675" lon="6.32827">
        <ele>729.2</ele>
        <time>2025-10-24T14:20:51.576Z</time>
      </trkpt>
      <trkpt lat="43.60673" lon="6.32821">
        <ele>728.7</ele>
        <time>2025-10-24T14:20:56.821Z</time>
      </trkpt>
      <trkpt lat="43.60668" lon="6.32817">
        <ele>727.4</ele>
        <time>2025-10-24T14:21:03.157Z</time>
      </trkpt>
      <trkpt lat="43.60664" lon="6.32811">
        <ele>726.6</ele>
        <time>2025-10-24T14:21:09.632Z</time>
      </trkpt>
      <trkpt lat="43.60659" lon="6.32804">
        <ele>725.8</ele>
        <time>2025-10-24T14:21:17.439Z</time>
      </trkpt>
      <trkpt lat="43.60655" lon="6.32797">
        <ele>725</ele>
        <time>2025-10-24T14:21:24.519Z</time>
      </trkpt>
      <trkpt lat="43.60649" lon="6.32793">
        <ele>724</ele>
        <time>2025-10-24T14:21:31.824Z</time>
      </trkpt>
      <trkpt lat="43.60644" lon="6.32792">
        <ele>723.2</ele>
        <time>2025-10-24T14:21:37.364Z</time>
      </trkpt>
      <trkpt lat="43.60639" lon="6.32791">
        <ele>722.5</ele>
        <time>2025-10-24T14:21:42.903Z</time>
      </trkpt>
      <trkpt lat="43.60633" lon="6.3279">
        <ele>722</ele>
        <time>2025-10-24T14:21:50.129Z</time>
      </trkpt>
      <trkpt lat="43.60626" lon="6.32788">
        <ele>721.4</ele>
        <time>2025-10-24T14:21:57.355Z</time>
      </trkpt>
      <trkpt lat="43.60618" lon="6.32787">
        <ele>720.8</ele>
        <time>2025-10-24T14:22:06.163Z</time>
      </trkpt>
      <trkpt lat="43.60612" lon="6.32785">
        <ele>720.3</ele>
        <time>2025-10-24T14:22:12.931Z</time>
      </trkpt>
      <trkpt lat="43.60606" lon="6.32785">
        <ele>719.7</ele>
        <time>2025-10-24T14:22:19.510Z</time>
      </trkpt>
      <trkpt lat="43.606" lon="6.32785">
        <ele>719.1</ele>
        <time>2025-10-24T14:22:26.089Z</time>
      </trkpt>
      <trkpt lat="43.60595" lon="6.32783">
        <ele>718.4</ele>
        <time>2025-10-24T14:22:31.797Z</time>
      </trkpt>
      <trkpt lat="43.60589" lon="6.32784">
        <ele>717.8</ele>
        <time>2025-10-24T14:22:38.424Z</time>
      </trkpt>
      <trkpt lat="43.60582" lon="6.32783">
        <ele>717.1</ele>
        <time>2025-10-24T14:22:46.191Z</time>
      </trkpt>
      <trkpt lat="43.60575" lon="6.32781">
        <ele>716.3</ele>
        <time>2025-10-24T14:22:53.958Z</time>
      </trkpt>
      <trkpt lat="43.60575" lon="6.3279">
        <ele>716.7</ele>
        <time>2025-10-24T14:23:03.897Z</time>
      </trkpt>
      <trkpt lat="43.60576" lon="6.32797">
        <ele>717.1</ele>
        <time>2025-10-24T14:23:11.601Z</time>
      </trkpt>
      <trkpt lat="43.60576" lon="6.32804">
        <ele>717.4</ele>
        <time>2025-10-24T14:23:19.829Z</time>
      </trkpt>
      <trkpt lat="43.60577" lon="6.32811">
        <ele>717.6</ele>
        <time>2025-10-24T14:23:27.053Z</time>
      </trkpt>
      <trkpt lat="43.60577" lon="6.32818">
        <ele>717.7</ele>
        <time>2025-10-24T14:23:33.839Z</time>
      </trkpt>
      <trkpt lat="43.60578" lon="6.32825">
        <ele>717.9</ele>
        <time>2025-10-24T14:23:41.374Z</time>
      </trkpt>
      <trkpt lat="43.60579" lon="6.32833">
        <ele>718</ele>
        <time>2025-10-24T14:23:48.472Z</time>
      </trkpt>
      <trkpt lat="43.6058" lon="6.3284">
        <ele>718.3</ele>
        <time>2025-10-24T14:23:56.482Z</time>
      </trkpt>
      <trkpt lat="43.60581" lon="6.32847">
        <ele>718.5</ele>
        <time>2025-10-24T14:24:04.017Z</time>
      </trkpt>
      <trkpt lat="43.60582" lon="6.32854">
        <ele>718.8</ele>
        <time>2025-10-24T14:24:11.379Z</time>
      </trkpt>
      <trkpt lat="43.60583" lon="6.3286">
        <ele>719</ele>
        <time>2025-10-24T14:24:18.255Z</time>
      </trkpt>
      <trkpt lat="43.60583" lon="6.3287">
        <ele>719.3</ele>
        <time>2025-10-24T14:24:28.598Z</time>
      </trkpt>
      <trkpt lat="43.60585" lon="6.3288">
        <ele>719.8</ele>
        <time>2025-10-24T14:24:40.254Z</time>
      </trkpt>
      <trkpt lat="43.6059" lon="6.3289">
        <ele>720.8</ele>
        <time>2025-10-24T14:24:56.312Z</time>
      </trkpt>
      <trkpt lat="43.60595" lon="6.32899">
        <ele>721.5</ele>
        <time>2025-10-24T14:25:09.556Z</time>
      </trkpt>
      <trkpt lat="43.606" lon="6.32907">
        <ele>722.1</ele>
        <time>2025-10-24T14:25:22.243Z</time>
      </trkpt>
      <trkpt lat="43.60601" lon="6.32912">
        <ele>722.2</ele>
        <time>2025-10-24T14:25:27.359Z</time>
      </trkpt>
      <trkpt lat="43.60601" lon="6.32919">
        <ele>722.3</ele>
        <time>2025-10-24T14:25:34.113Z</time>
      </trkpt>
      <trkpt lat="43.60601" lon="6.32926">
        <ele>722.4</ele>
        <time>2025-10-24T14:25:40.898Z</time>
      </trkpt>
      <trkpt lat="43.606" lon="6.32933">
        <ele>722.4</ele>
        <time>2025-10-24T14:25:47.281Z</time>
      </trkpt>
      <trkpt lat="43.606" lon="6.32944">
        <ele>722.6</ele>
        <time>2025-10-24T14:25:58.078Z</time>
      </trkpt>
      <trkpt lat="43.60604" lon="6.32955">
        <ele>722.1</ele>
        <time>2025-10-24T14:26:07.851Z</time>
      </trkpt>
      <trkpt lat="43.60605" lon="6.32962">
        <ele>721.7</ele>
        <time>2025-10-24T14:26:13.516Z</time>
      </trkpt>
      <trkpt lat="43.60603" lon="6.32966">
        <ele>721.4</ele>
        <time>2025-10-24T14:26:17.375Z</time>
      </trkpt>
      <trkpt lat="43.60601" lon="6.32973">
        <ele>721</ele>
        <time>2025-10-24T14:26:23.350Z</time>
      </trkpt>
      <trkpt lat="43.60596" lon="6.32973">
        <ele>721</ele>
        <time>2025-10-24T14:26:29.616Z</time>
      </trkpt>
      <trkpt lat="43.60591" lon="6.32973">
        <ele>721</ele>
        <time>2025-10-24T14:26:35.881Z</time>
      </trkpt>
      <trkpt lat="43.60584" lon="6.32975">
        <ele>720.9</ele>
        <time>2025-10-24T14:26:44.465Z</time>
      </trkpt>
      <trkpt lat="43.60576" lon="6.32979">
        <ele>721</ele>
        <time>2025-10-24T14:26:55.522Z</time>
      </trkpt>
      <trkpt lat="43.60571" lon="6.32985">
        <ele>720.8</ele>
        <time>2025-10-24T14:27:03.579Z</time>
      </trkpt>
      <trkpt lat="43.60565" lon="6.32991">
        <ele>720.5</ele>
        <time>2025-10-24T14:27:11.305Z</time>
      </trkpt>
      <trkpt lat="43.60559" lon="6.32998">
        <ele>720.1</ele>
        <time>2025-10-24T14:27:20.254Z</time>
      </trkpt>
      <trkpt lat="43.60553" lon="6.33006">
        <ele>719.4</ele>
        <time>2025-10-24T14:27:29.204Z</time>
      </trkpt>
      <trkpt lat="43.60546" lon="6.33013">
        <ele>718.8</ele>
        <time>2025-10-24T14:27:38.154Z</time>
      </trkpt>
      <trkpt lat="43.6054" lon="6.3302">
        <ele>718.2</ele>
        <time>2025-10-24T14:27:47.104Z</time>
      </trkpt>
      <trkpt lat="43.60534" lon="6.33027">
        <ele>717.8</ele>
        <time>2025-10-24T14:27:56.054Z</time>
      </trkpt>
      <trkpt lat="43.60528" lon="6.33035">
        <ele>717.5</ele>
        <time>2025-10-24T14:28:05.211Z</time>
      </trkpt>
      <trkpt lat="43.60521" lon="6.33042">
        <ele>716.5</ele>
        <time>2025-10-24T14:28:14.161Z</time>
      </trkpt>
      <trkpt lat="43.60515" lon="6.33049">
        <ele>715.3</ele>
        <time>2025-10-24T14:28:23.111Z</time>
      </trkpt>
      <trkpt lat="43.60511" lon="6.33054">
        <ele>714.4</ele>
        <time>2025-10-24T14:28:29.444Z</time>
      </trkpt>
      <trkpt lat="43.60506" lon="6.33059">
        <ele>713.9</ele>
        <time>2025-10-24T14:28:35.777Z</time>
      </trkpt>
      <trkpt lat="43.60505" lon="6.33067">
        <ele>714.4</ele>
        <time>2025-10-24T14:28:45.487Z</time>
      </trkpt>
      <trkpt lat="43.60505" lon="6.33074">
        <ele>714.9</ele>
        <time>2025-10-24T14:28:54.262Z</time>
      </trkpt>
      <trkpt lat="43.60505" lon="6.33081">
        <ele>715.4</ele>
        <time>2025-10-24T14:29:03.037Z</time>
      </trkpt>
      <trkpt lat="43.60505" lon="6.33093">
        <ele>715.6</ele>
        <time>2025-10-24T14:29:14.340Z</time>
      </trkpt>
      <trkpt lat="43.60504" lon="6.33105">
        <ele>715.5</ele>
        <time>2025-10-24T14:29:25.247Z</time>
      </trkpt>
      <trkpt lat="43.60503" lon="6.33111">
        <ele>715.4</ele>
        <time>2025-10-24T14:29:30.466Z</time>
      </trkpt>
      <trkpt lat="43.605" lon="6.33118">
        <ele>715.2</ele>
        <time>2025-10-24T14:29:37.129Z</time>
      </trkpt>
      <trkpt lat="43.60497" lon="6.33119">
        <ele>714.8</ele>
        <time>2025-10-24T14:29:40.513Z</time>
      </trkpt>
      <trkpt lat="43.60493" lon="6.33119">
        <ele>714.1</ele>
        <time>2025-10-24T14:29:44.899Z</time>
      </trkpt>
      <trkpt lat="43.60486" lon="6.33116">
        <ele>712.7</ele>
        <time>2025-10-24T14:29:53.460Z</time>
      </trkpt>
      <trkpt lat="43.60478" lon="6.33113">
        <ele>711.2</ele>
        <time>2025-10-24T14:30:02.022Z</time>
      </trkpt>
      <trkpt lat="43.60472" lon="6.3311">
        <ele>710</ele>
        <time>2025-10-24T14:30:09.019Z</time>
      </trkpt>
      <trkpt lat="43.60466" lon="6.33107">
        <ele>709.8</ele>
        <time>2025-10-24T14:30:16.293Z</time>
      </trkpt>
      <trkpt lat="43.60461" lon="6.33107">
        <ele>709.6</ele>
        <time>2025-10-24T14:30:21.850Z</time>
      </trkpt>
      <trkpt lat="43.60457" lon="6.33111">
        <ele>709.4</ele>
        <time>2025-10-24T14:30:27.843Z</time>
      </trkpt>
      <trkpt lat="43.60452" lon="6.33115">
        <ele>709.2</ele>
        <time>2025-10-24T14:30:33.836Z</time>
      </trkpt>
      <trkpt lat="43.60448" lon="6.33126">
        <ele>708.8</ele>
        <time>2025-10-24T14:30:43.524Z</time>
      </trkpt>
      <trkpt lat="43.60443" lon="6.33136">
        <ele>707.8</ele>
        <time>2025-10-24T14:30:53.211Z</time>
      </trkpt>
      <trkpt lat="43.6044" lon="6.33142">
        <ele>707.4</ele>
        <time>2025-10-24T14:30:59.485Z</time>
      </trkpt>
      <trkpt lat="43.60436" lon="6.33149">
        <ele>707.4</ele>
        <time>2025-10-24T14:31:06.654Z</time>
      </trkpt>
      <trkpt lat="43.60433" lon="6.33155">
        <ele>707.5</ele>
        <time>2025-10-24T14:31:14.224Z</time>
      </trkpt>
      <trkpt lat="43.60429" lon="6.33161">
        <ele>707.5</ele>
        <time>2025-10-24T14:31:21.794Z</time>
      </trkpt>
      <trkpt lat="43.60426" lon="6.33167">
        <ele>707.7</ele>
        <time>2025-10-24T14:31:29.365Z</time>
      </trkpt>
      <trkpt lat="43.60422" lon="6.33174">
        <ele>707.5</ele>
        <time>2025-10-24T14:31:36.163Z</time>
      </trkpt>
      <trkpt lat="43.60419" lon="6.3318">
        <ele>707.4</ele>
        <time>2025-10-24T14:31:42.615Z</time>
      </trkpt>
      <trkpt lat="43.60415" lon="6.33186">
        <ele>707.2</ele>
        <time>2025-10-24T14:31:49.413Z</time>
      </trkpt>
      <trkpt lat="43.60408" lon="6.33189">
        <ele>706.9</ele>
        <time>2025-10-24T14:31:57.873Z</time>
      </trkpt>
      <trkpt lat="43.604" lon="6.33191">
        <ele>706.4</ele>
        <time>2025-10-24T14:32:06.333Z</time>
      </trkpt>
      <trkpt lat="43.60394" lon="6.33193">
        <ele>706.2</ele>
        <time>2025-10-24T14:32:13.347Z</time>
      </trkpt>
      <trkpt lat="43.60391" lon="6.33192">
        <ele>705.8</ele>
        <time>2025-10-24T14:32:16.731Z</time>
      </trkpt>
      <trkpt lat="43.60386" lon="6.33192">
        <ele>705.5</ele>
        <time>2025-10-24T14:32:22.214Z</time>
      </trkpt>
      <trkpt lat="43.60381" lon="6.33189">
        <ele>704.9</ele>
        <time>2025-10-24T14:32:28.191Z</time>
      </trkpt>
      <trkpt lat="43.60376" lon="6.33186">
        <ele>704.4</ele>
        <time>2025-10-24T14:32:34.169Z</time>
      </trkpt>
      <trkpt lat="43.60371" lon="6.33181">
        <ele>704</ele>
        <time>2025-10-24T14:32:40.938Z</time>
      </trkpt>
      <trkpt lat="43.60366" lon="6.33173">
        <ele>703.8</ele>
        <time>2025-10-24T14:32:49.797Z</time>
      </trkpt>
      <trkpt lat="43.60363" lon="6.33169">
        <ele>703.9</ele>
        <time>2025-10-24T14:32:55.895Z</time>
      </trkpt>
      <trkpt lat="43.60359" lon="6.33165">
        <ele>704.1</ele>
        <time>2025-10-24T14:33:02.439Z</time>
      </trkpt>
      <trkpt lat="43.60355" lon="6.33162">
        <ele>704.3</ele>
        <time>2025-10-24T14:33:08.994Z</time>
      </trkpt>
      <trkpt lat="43.60348" lon="6.33162">
        <ele>704.3</ele>
        <time>2025-10-24T14:33:17.766Z</time>
      </trkpt>
      <trkpt lat="43.60344" lon="6.33161">
        <ele>704.4</ele>
        <time>2025-10-24T14:33:23.267Z</time>
      </trkpt>
      <trkpt lat="43.60339" lon="6.33162">
        <ele>704.3</ele>
        <time>2025-10-24T14:33:29.229Z</time>
      </trkpt>
      <trkpt lat="43.60336" lon="6.33165">
        <ele>704.1</ele>
        <time>2025-10-24T14:33:33.290Z</time>
      </trkpt>
      <trkpt lat="43.60331" lon="6.33166">
        <ele>704.1</ele>
        <time>2025-10-24T14:33:40.197Z</time>
      </trkpt>
      <trkpt lat="43.60325" lon="6.33166">
        <ele>704.1</ele>
        <time>2025-10-24T14:33:47.104Z</time>
      </trkpt>
      <trkpt lat="43.6032" lon="6.33167">
        <ele>704</ele>
        <time>2025-10-24T14:33:53.065Z</time>
      </trkpt>
      <trkpt lat="43.60312" lon="6.33167">
        <ele>704</ele>
        <time>2025-10-24T14:34:03.101Z</time>
      </trkpt>
      <trkpt lat="43.60304" lon="6.33166">
        <ele>704.1</ele>
        <time>2025-10-24T14:34:13.533Z</time>
      </trkpt>
      <trkpt lat="43.60297" lon="6.33167">
        <ele>704</ele>
        <time>2025-10-24T14:34:22.567Z</time>
      </trkpt>
      <trkpt lat="43.60289" lon="6.33167">
        <ele>704</ele>
        <time>2025-10-24T14:34:31.977Z</time>
      </trkpt>
      <trkpt lat="43.60282" lon="6.33166">
        <ele>704.1</ele>
        <time>2025-10-24T14:34:41.816Z</time>
      </trkpt>
      <trkpt lat="43.60274" lon="6.33165">
        <ele>704</ele>
        <time>2025-10-24T14:34:50.883Z</time>
      </trkpt>
      <trkpt lat="43.60268" lon="6.33164">
        <ele>703.8</ele>
        <time>2025-10-24T14:34:58.418Z</time>
      </trkpt>
      <trkpt lat="43.60261" lon="6.33162">
        <ele>703.6</ele>
        <time>2025-10-24T14:35:05.953Z</time>
      </trkpt>
      <trkpt lat="43.60256" lon="6.33161">
        <ele>703.5</ele>
        <time>2025-10-24T14:35:12.607Z</time>
      </trkpt>
      <trkpt lat="43.6025" lon="6.33159">
        <ele>703.3</ele>
        <time>2025-10-24T14:35:18.916Z</time>
      </trkpt>
      <trkpt lat="43.60246" lon="6.33156">
        <ele>703.2</ele>
        <time>2025-10-24T14:35:25.018Z</time>
      </trkpt>
      <trkpt lat="43.60241" lon="6.33152">
        <ele>703</ele>
        <time>2025-10-24T14:35:30.779Z</time>
      </trkpt>
      <trkpt lat="43.60236" lon="6.33146">
        <ele>702.9</ele>
        <time>2025-10-24T14:35:39.123Z</time>
      </trkpt>
      <trkpt lat="43.6023" lon="6.33139">
        <ele>702.6</ele>
        <time>2025-10-24T14:35:47.467Z</time>
      </trkpt>
      <trkpt lat="43.60225" lon="6.33131">
        <ele>702.5</ele>
        <time>2025-10-24T14:35:56.746Z</time>
      </trkpt>
      <trkpt lat="43.60219" lon="6.33123">
        <ele>702.4</ele>
        <time>2025-10-24T14:36:06.756Z</time>
      </trkpt>
      <trkpt lat="43.60216" lon="6.33117">
        <ele>702.4</ele>
        <time>2025-10-24T14:36:14.107Z</time>
      </trkpt>
      <trkpt lat="43.60212" lon="6.3311">
        <ele>702.3</ele>
        <time>2025-10-24T14:36:21.085Z</time>
      </trkpt>
      <trkpt lat="43.60209" lon="6.33102">
        <ele>702</ele>
        <time>2025-10-24T14:36:28.610Z</time>
      </trkpt>
      <trkpt lat="43.60206" lon="6.33093">
        <ele>701.8</ele>
        <time>2025-10-24T14:36:36.465Z</time>
      </trkpt>
      <trkpt lat="43.60207" lon="6.33093">
        <ele>701.9</ele>
        <time>2025-10-24T14:36:38.205Z</time>
      </trkpt>
      <trkpt lat="43.60206" lon="6.33093">
        <ele>701.8</ele>
        <time>2025-10-24T14:36:39.301Z</time>
      </trkpt>
      <trkpt lat="43.60205" lon="6.33086">
        <ele>701.8</ele>
        <time>2025-10-24T14:36:46.222Z</time>
      </trkpt>
      <trkpt lat="43.60204" lon="6.33078">
        <ele>701.8</ele>
        <time>2025-10-24T14:36:53.142Z</time>
      </trkpt>
      <trkpt lat="43.60204" lon="6.33071">
        <ele>702</ele>
        <time>2025-10-24T14:37:00.336Z</time>
      </trkpt>
      <trkpt lat="43.60207" lon="6.33065">
        <ele>702.3</ele>
        <time>2025-10-24T14:37:08.268Z</time>
      </trkpt>
      <trkpt lat="43.6021" lon="6.33059">
        <ele>702.5</ele>
        <time>2025-10-24T14:37:15.723Z</time>
      </trkpt>
      <trkpt lat="43.60212" lon="6.33049">
        <ele>702.6</ele>
        <time>2025-10-24T14:37:25.535Z</time>
      </trkpt>
      <trkpt lat="43.60214" lon="6.33039">
        <ele>702.7</ele>
        <time>2025-10-24T14:37:35.346Z</time>
      </trkpt>
      <trkpt lat="43.60215" lon="6.33033">
        <ele>702.7</ele>
        <time>2025-10-24T14:37:40.933Z</time>
      </trkpt>
      <trkpt lat="43.60217" lon="6.33023">
        <ele>702.8</ele>
        <time>2025-10-24T14:37:50.744Z</time>
      </trkpt>
      <trkpt lat="43.6022" lon="6.33013">
        <ele>703</ele>
        <time>2025-10-24T14:38:01.383Z</time>
      </trkpt>
      <trkpt lat="43.60223" lon="6.33004">
        <ele>703.1</ele>
        <time>2025-10-24T14:38:10.771Z</time>
      </trkpt>
      <trkpt lat="43.60227" lon="6.32998">
        <ele>703.6</ele>
        <time>2025-10-24T14:38:20.832Z</time>
      </trkpt>
      <trkpt lat="43.60231" lon="6.32991">
        <ele>704.2</ele>
        <time>2025-10-24T14:38:31.470Z</time>
      </trkpt>
      <trkpt lat="43.60235" lon="6.32982">
        <ele>704.7</ele>
        <time>2025-10-24T14:38:43.289Z</time>
      </trkpt>
      <trkpt lat="43.60236" lon="6.32975">
        <ele>704.9</ele>
        <time>2025-10-24T14:38:50.604Z</time>
      </trkpt>
      <trkpt lat="43.60237" lon="6.32967">
        <ele>705</ele>
        <time>2025-10-24T14:38:58.371Z</time>
      </trkpt>
      <trkpt lat="43.60237" lon="6.32959">
        <ele>704.8</ele>
        <time>2025-10-24T14:39:05.389Z</time>
      </trkpt>
      <trkpt lat="43.60236" lon="6.3295">
        <ele>704.6</ele>
        <time>2025-10-24T14:39:12.408Z</time>
      </trkpt>
      <trkpt lat="43.60235" lon="6.32942">
        <ele>704.4</ele>
        <time>2025-10-24T14:39:19.056Z</time>
      </trkpt>
      <trkpt lat="43.60235" lon="6.32932">
        <ele>704.4</ele>
        <time>2025-10-24T14:39:28.131Z</time>
      </trkpt>
      <trkpt lat="43.60236" lon="6.32921">
        <ele>704.5</ele>
        <time>2025-10-24T14:39:38.588Z</time>
      </trkpt>
      <trkpt lat="43.60237" lon="6.32912">
        <ele>704.6</ele>
        <time>2025-10-24T14:39:47.249Z</time>
      </trkpt>
      <trkpt lat="43.60238" lon="6.32903">
        <ele>704.7</ele>
        <time>2025-10-24T14:39:55.910Z</time>
      </trkpt>
      <trkpt lat="43.60239" lon="6.32893">
        <ele>704.8</ele>
        <time>2025-10-24T14:40:05.468Z</time>
      </trkpt>
      <trkpt lat="43.6024" lon="6.32883">
        <ele>704.6</ele>
        <time>2025-10-24T14:40:13.901Z</time>
      </trkpt>
      <trkpt lat="43.60241" lon="6.32873">
        <ele>704.1</ele>
        <time>2025-10-24T14:40:21.916Z</time>
      </trkpt>
      <trkpt lat="43.60242" lon="6.32868">
        <ele>703.8</ele>
        <time>2025-10-24T14:40:26.035Z</time>
      </trkpt>
      <trkpt lat="43.60241" lon="6.32859">
        <ele>703.3</ele>
        <time>2025-10-24T14:40:33.265Z</time>
      </trkpt>
      <trkpt lat="43.60241" lon="6.32851">
        <ele>703</ele>
        <time>2025-10-24T14:40:39.617Z</time>
      </trkpt>
      <trkpt lat="43.60241" lon="6.3284">
        <ele>702.6</ele>
        <time>2025-10-24T14:40:48.351Z</time>
      </trkpt>
      <trkpt lat="43.60242" lon="6.32834">
        <ele>702.4</ele>
        <time>2025-10-24T14:40:53.577Z</time>
      </trkpt>
      <trkpt lat="43.60242" lon="6.32827">
        <ele>702.3</ele>
        <time>2025-10-24T14:40:59.140Z</time>
      </trkpt>
      <trkpt lat="43.60243" lon="6.3282">
        <ele>702.1</ele>
        <time>2025-10-24T14:41:04.903Z</time>
      </trkpt>
      <trkpt lat="43.60244" lon="6.32813">
        <ele>702</ele>
        <time>2025-10-24T14:41:11.008Z</time>
      </trkpt>
      <trkpt lat="43.60242" lon="6.32808">
        <ele>701.8</ele>
        <time>2025-10-24T14:41:15.543Z</time>
        <extensions>
          <visugpx:TrkExtension xmlns:visugpx="https://www.visugpx.com/editgpx/">
            <visugpx:node>1</visugpx:node>
            </visugpx:TrkExtension>
        </extensions>
      </trkpt>
    </trkseg>
  </trk>
</gpx>